Wetterdaten: aktuell Donnerstag, 07.05.2026 02:32
Datum Zeit Temp. A. Feuchte A. Luftdruck Regen Wind Richtung Richtung ET Taupunkt Windchill Windböen Empfang
07.05.2026 02:32 12,9 °C 66 % 1012,3 hPa 0,0 l/m² 3,2 km/h (1 Bft) W-SW 247 ° 0,000 mm 6,7 °C 12,9 °C 6,4 km/h (2 Bft) 100,00 %
07.05.2026 02:31 12,9 °C 66 % 1012,2 hPa 0,0 l/m² 4,8 km/h (1 Bft) S-SW 202 ° 0,000 mm 6,7 °C 12,9 °C 9,7 km/h (2 Bft) 100,00 %
07.05.2026 02:30 12,9 °C 66 % 1012,2 hPa 0,0 l/m² 6,4 km/h (2 Bft) W-SW 247 ° 0,000 mm 6,7 °C 12,9 °C 8,0 km/h (2 Bft) 95,65 %
07.05.2026 02:29 12,9 °C 66 % 1012,3 hPa 0,0 l/m² 6,4 km/h (2 Bft) W-SW 247 ° 0,000 mm 6,7 °C 12,9 °C 12,9 km/h (3 Bft) 100,00 %
07.05.2026 02:28 12,9 °C 66 % 1012,3 hPa 0,0 l/m² 3,2 km/h (1 Bft) SW 225 ° 0,000 mm 6,7 °C 12,9 °C 8,0 km/h (2 Bft) 100,00 %
07.05.2026 02:27 12,9 °C 66 % 1012,3 hPa 0,0 l/m² 4,8 km/h (1 Bft) W-SW 247 ° 0,000 mm 6,7 °C 12,9 °C 11,3 km/h (2 Bft) 100,00 %
07.05.2026 02:26 12,9 °C 66 % 1012,2 hPa 0,0 l/m² 8,0 km/h (2 Bft) W-SW 247 ° 0,000 mm 6,7 °C 11,9 °C 12,9 km/h (3 Bft) 100,00 %
07.05.2026 02:25 12,9 °C 66 % 1012,1 hPa 0,0 l/m² 6,4 km/h (2 Bft) W-SW 247 ° 0,000 mm 6,7 °C 12,9 °C 9,7 km/h (2 Bft) 100,00 %
07.05.2026 02:24 12,9 °C 66 % 1012,1 hPa 0,0 l/m² 6,4 km/h (2 Bft) W-SW 247 ° 0,000 mm 6,7 °C 12,9 °C 9,7 km/h (2 Bft) 100,00 %
07.05.2026 02:23 12,9 °C 66 % 1012,1 hPa 0,0 l/m² 4,8 km/h (1 Bft) W-SW 247 ° 0,000 mm 6,7 °C 12,9 °C 9,7 km/h (2 Bft) 95,65 %
07.05.2026 02:22 12,9 °C 66 % 1012,2 hPa 0,0 l/m² 6,4 km/h (2 Bft) W-SW 247 ° 0,000 mm 6,7 °C 12,9 °C 8,0 km/h (2 Bft) 100,00 %
07.05.2026 02:21 12,9 °C 66 % 1012,1 hPa 0,0 l/m² 9,7 km/h (2 Bft) W-SW 247 ° 0,000 mm 6,7 °C 11,0 °C 16,1 km/h (3 Bft) 100,00 %
07.05.2026 02:20 12,9 °C 66 % 1012,2 hPa 0,0 l/m² 6,4 km/h (2 Bft) W-SW 247 ° 0,000 mm 6,7 °C 12,9 °C 12,9 km/h (3 Bft) 100,00 %
07.05.2026 02:19 12,9 °C 66 % 1012,1 hPa 0,0 l/m² 8,0 km/h (2 Bft) W-SW 247 ° 0,000 mm 6,7 °C 11,9 °C 12,9 km/h (3 Bft) 100,00 %
07.05.2026 02:18 12,9 °C 66 % 1012,1 hPa 0,0 l/m² 8,0 km/h (2 Bft) W-SW 247 ° 0,000 mm 6,7 °C 11,9 °C 11,3 km/h (2 Bft) 100,00 %
07.05.2026 02:17 12,9 °C 66 % 1012,1 hPa 0,0 l/m² 6,4 km/h (2 Bft) SW 225 ° 0,000 mm 6,7 °C 12,9 °C 9,7 km/h (2 Bft) 95,65 %
07.05.2026 02:16 12,9 °C 66 % 1012,1 hPa 0,0 l/m² 6,4 km/h (2 Bft) SW 225 ° 0,000 mm 6,7 °C 12,9 °C 12,9 km/h (3 Bft) 100,00 %
07.05.2026 02:15 12,9 °C 66 % 1012,0 hPa 0,0 l/m² 8,0 km/h (2 Bft) SW 225 ° 0,000 mm 6,7 °C 11,9 °C 11,3 km/h (2 Bft) 95,65 %
07.05.2026 02:14 12,9 °C 66 % 1012,1 hPa 0,0 l/m² 6,4 km/h (2 Bft) W-SW 247 ° 0,000 mm 6,7 °C 12,9 °C 9,7 km/h (2 Bft) 100,00 %
07.05.2026 02:13 12,9 °C 66 % 1012,1 hPa 0,0 l/m² 6,4 km/h (2 Bft) W-SW 247 ° 0,000 mm 6,7 °C 12,9 °C 11,3 km/h (2 Bft) 100,00 %
07.05.2026 02:12 12,9 °C 66 % 1012,1 hPa 0,0 l/m² 9,7 km/h (2 Bft) SW 225 ° 0,000 mm 6,7 °C 11,0 °C 14,5 km/h (3 Bft) 100,00 %
07.05.2026 02:11 12,9 °C 66 % 1012,1 hPa 0,0 l/m² 12,9 km/h (3 Bft) W-SW 247 ° 0,000 mm 6,7 °C 9,5 °C 17,7 km/h (3 Bft) 100,00 %
07.05.2026 02:10 12,9 °C 66 % 1012,1 hPa 0,0 l/m² 12,9 km/h (3 Bft) SW 225 ° 0,000 mm 6,7 °C 9,5 °C 24,1 km/h (4 Bft) 100,00 %
07.05.2026 02:09 12,9 °C 66 % 1012,1 hPa 0,0 l/m² 6,4 km/h (2 Bft) W-SW 247 ° 0,000 mm 6,7 °C 12,9 °C 8,0 km/h (2 Bft) 100,00 %
07.05.2026 02:08 12,8 °C 66 % 1012,0 hPa 0,0 l/m² 8,0 km/h (2 Bft) W-SW 247 ° 0,000 mm 6,6 °C 11,8 °C 12,9 km/h (3 Bft) 100,00 %
07.05.2026 02:07 12,8 °C 66 % 1012,1 hPa 0,0 l/m² 8,0 km/h (2 Bft) W-SW 247 ° 0,000 mm 6,6 °C 11,8 °C 14,5 km/h (3 Bft) 100,00 %
07.05.2026 02:06 12,9 °C 67 % 1012,1 hPa 0,0 l/m² 8,0 km/h (2 Bft) S-SW 202 ° 0,000 mm 6,9 °C 11,9 °C 14,5 km/h (3 Bft) 100,00 %
07.05.2026 02:05 12,8 °C 66 % 1012,1 hPa 0,0 l/m² 8,0 km/h (2 Bft) W-SW 247 ° 0,000 mm 6,6 °C 11,8 °C 14,5 km/h (3 Bft) 100,00 %
07.05.2026 02:04 12,9 °C 66 % 1012,1 hPa 0,0 l/m² 9,7 km/h (2 Bft) SW 225 ° 0,000 mm 6,7 °C 11,0 °C 16,1 km/h (3 Bft) 100,00 %
07.05.2026 02:03 12,8 °C 66 % 1012,1 hPa 0,0 l/m² 11,3 km/h (2 Bft) S-SW 202 ° 0,000 mm 6,6 °C 10,1 °C 20,9 km/h (4 Bft) 100,00 %
07.05.2026 02:02 12,8 °C 67 % 1012,1 hPa 0,0 l/m² 8,0 km/h (2 Bft) SW 225 ° 0,000 mm 6,8 °C 11,8 °C 17,7 km/h (3 Bft) 100,00 %
07.05.2026 02:01 12,8 °C 67 % 1012,2 hPa 0,0 l/m² 8,0 km/h (2 Bft) W-SW 247 ° 0,000 mm 6,8 °C 11,8 °C 14,5 km/h (3 Bft) 100,00 %
07.05.2026 02:00 12,8 °C 67 % 1012,2 hPa 0,0 l/m² 11,3 km/h (2 Bft) SW 225 ° 0,000 mm 6,8 °C 10,1 °C 19,3 km/h (3 Bft) 100,00 %
07.05.2026 01:59 12,8 °C 67 % 1012,2 hPa 0,0 l/m² 4,8 km/h (1 Bft) W-SW 247 ° 0,000 mm 6,8 °C 12,8 °C 11,3 km/h (2 Bft) 100,00 %
07.05.2026 01:58 12,8 °C 67 % 1012,2 hPa 0,0 l/m² 11,3 km/h (2 Bft) W-SW 247 ° 0,000 mm 6,8 °C 10,1 °C 19,3 km/h (3 Bft) 95,65 %
07.05.2026 01:57 12,8 °C 67 % 1012,1 hPa 0,0 l/m² 8,0 km/h (2 Bft) SW 225 ° 0,000 mm 6,8 °C 11,8 °C 12,9 km/h (3 Bft) 100,00 %
07.05.2026 01:56 12,8 °C 67 % 1012,2 hPa 0,0 l/m² 4,8 km/h (1 Bft) W-SW 247 ° 0,000 mm 6,8 °C 12,8 °C 9,7 km/h (2 Bft) 100,00 %
07.05.2026 01:55 12,8 °C 67 % 1012,1 hPa 0,0 l/m² 8,0 km/h (2 Bft) SW 225 ° 0,000 mm 6,8 °C 11,8 °C 16,1 km/h (3 Bft) 100,00 %
07.05.2026 01:54 12,8 °C 67 % 1012,2 hPa 0,0 l/m² 12,9 km/h (3 Bft) W-SW 247 ° 0,000 mm 6,8 °C 9,4 °C 20,9 km/h (4 Bft) 100,00 %
07.05.2026 01:53 12,8 °C 68 % 1012,1 hPa 0,0 l/m² 4,8 km/h (1 Bft) W-SW 247 ° 0,000 mm 7,0 °C 12,8 °C 8,0 km/h (2 Bft) 100,00 %
07.05.2026 01:52 12,8 °C 68 % 1012,2 hPa 0,0 l/m² 9,7 km/h (2 Bft) W-SW 247 ° 0,000 mm 7,0 °C 10,8 °C 20,9 km/h (4 Bft) 100,00 %
07.05.2026 01:51 12,8 °C 68 % 1012,2 hPa 0,0 l/m² 8,0 km/h (2 Bft) SW 225 ° 0,000 mm 7,0 °C 11,8 °C 14,5 km/h (3 Bft) 95,65 %
07.05.2026 01:50 12,8 °C 68 % 1012,3 hPa 0,0 l/m² 9,7 km/h (2 Bft) W-SW 247 ° 0,000 mm 7,0 °C 10,8 °C 19,3 km/h (3 Bft) 100,00 %
07.05.2026 01:49 12,8 °C 68 % 1012,2 hPa 0,0 l/m² 8,0 km/h (2 Bft) W-SW 247 ° 0,000 mm 7,0 °C 11,8 °C 12,9 km/h (3 Bft) 100,00 %
07.05.2026 01:48 12,8 °C 68 % 1012,3 hPa 0,0 l/m² 6,4 km/h (2 Bft) W-SW 247 ° 0,000 mm 7,0 °C 12,8 °C 12,9 km/h (3 Bft) 100,00 %
07.05.2026 01:47 12,8 °C 68 % 1012,3 hPa 0,0 l/m² 4,8 km/h (1 Bft) W-SW 247 ° 0,000 mm 7,0 °C 12,8 °C 8,0 km/h (2 Bft) 100,00 %
07.05.2026 01:46 12,8 °C 68 % 1012,3 hPa 0,0 l/m² 6,4 km/h (2 Bft) W-SW 247 ° 0,000 mm 7,0 °C 12,8 °C 9,7 km/h (2 Bft) 100,00 %
07.05.2026 01:45 12,8 °C 68 % 1012,2 hPa 0,0 l/m² 6,4 km/h (2 Bft) SW 225 ° 0,000 mm 7,0 °C 12,8 °C 9,7 km/h (2 Bft) 100,00 %
07.05.2026 01:44 12,9 °C 67 % 1012,2 hPa 0,0 l/m² 9,7 km/h (2 Bft) SW 225 ° 0,000 mm 6,9 °C 11,0 °C 14,5 km/h (3 Bft) 100,00 %
07.05.2026 01:43 12,9 °C 67 % 1012,2 hPa 0,0 l/m² 9,7 km/h (2 Bft) W-SW 247 ° 0,000 mm 6,9 °C 11,0 °C 20,9 km/h (4 Bft) 100,00 %
07.05.2026 01:42 12,9 °C 67 % 1012,2 hPa 0,0 l/m² 9,7 km/h (2 Bft) W-SW 247 ° 0,000 mm 6,9 °C 11,0 °C 12,9 km/h (3 Bft) 100,00 %
07.05.2026 01:41 12,9 °C 67 % 1012,1 hPa 0,0 l/m² 11,3 km/h (2 Bft) W-SW 247 ° 0,000 mm 6,9 °C 10,2 °C 22,5 km/h (4 Bft) 100,00 %
07.05.2026 01:40 12,9 °C 67 % 1012,1 hPa 0,0 l/m² 12,9 km/h (3 Bft) W-SW 247 ° 0,000 mm 6,9 °C 9,5 °C 17,7 km/h (3 Bft) 100,00 %
07.05.2026 01:39 12,9 °C 67 % 1012,2 hPa 0,0 l/m² 9,7 km/h (2 Bft) SW 225 ° 0,000 mm 6,9 °C 11,0 °C 14,5 km/h (3 Bft) 95,65 %
07.05.2026 01:38 12,9 °C 67 % 1012,2 hPa 0,0 l/m² 9,7 km/h (2 Bft) SW 225 ° 0,000 mm 6,9 °C 11,0 °C 14,5 km/h (3 Bft) 100,00 %
07.05.2026 01:37 12,9 °C 67 % 1012,2 hPa 0,0 l/m² 9,7 km/h (2 Bft) W-SW 247 ° 0,000 mm 6,9 °C 11,0 °C 17,7 km/h (3 Bft) 100,00 %
07.05.2026 01:36 12,9 °C 67 % 1012,1 hPa 0,0 l/m² 9,7 km/h (2 Bft) W-SW 247 ° 0,000 mm 6,9 °C 11,0 °C 19,3 km/h (3 Bft) 100,00 %
07.05.2026 01:35 12,9 °C 67 % 1012,2 hPa 0,0 l/m² 6,4 km/h (2 Bft) W-SW 247 ° 0,000 mm 6,9 °C 12,9 °C 11,3 km/h (2 Bft) 100,00 %
07.05.2026 01:34 12,9 °C 67 % 1012,1 hPa 0,0 l/m² 12,9 km/h (3 Bft) W-SW 247 ° 0,000 mm 6,9 °C 9,5 °C 19,3 km/h (3 Bft) 100,00 %
07.05.2026 01:33 12,9 °C 67 % 1012,0 hPa 0,0 l/m² 16,1 km/h (3 Bft) W-SW 247 ° 0,000 mm 6,9 °C 8,3 °C 25,7 km/h (4 Bft) 100,00 %
07.05.2026 01:32 12,9 °C 67 % 1012,1 hPa 0,0 l/m² 9,7 km/h (2 Bft) SW 225 ° 0,000 mm 6,9 °C 11,0 °C 20,9 km/h (4 Bft) 100,00 %
07.05.2026 01:31 12,9 °C 67 % 1012,1 hPa 0,0 l/m² 6,4 km/h (2 Bft) W-SW 247 ° 0,000 mm 6,9 °C 12,9 °C 11,3 km/h (2 Bft) 100,00 %
07.05.2026 01:30 12,9 °C 67 % 1012,0 hPa 0,0 l/m² 11,3 km/h (2 Bft) W-SW 247 ° 0,000 mm 6,9 °C 10,2 °C 24,1 km/h (4 Bft) 100,00 %
07.05.2026 01:29 12,9 °C 67 % 1012,1 hPa 0,0 l/m² 9,7 km/h (2 Bft) W-SW 247 ° 0,000 mm 6,9 °C 11,0 °C 24,1 km/h (4 Bft) 100,00 %
07.05.2026 01:28 12,9 °C 67 % 1012,0 hPa 0,0 l/m² 12,9 km/h (3 Bft) SW 225 ° 0,000 mm 6,9 °C 9,5 °C 25,7 km/h (4 Bft) 100,00 %
07.05.2026 01:27 12,9 °C 67 % 1012,0 hPa 0,0 l/m² 14,5 km/h (3 Bft) W-SW 247 ° 0,000 mm 6,9 °C 8,8 °C 20,9 km/h (4 Bft) 100,00 %
07.05.2026 01:26 12,9 °C 67 % 1012,0 hPa 0,0 l/m² 12,9 km/h (3 Bft) SW 225 ° 0,000 mm 6,9 °C 9,5 °C 22,5 km/h (4 Bft) 100,00 %
07.05.2026 01:25 12,9 °C 67 % 1012,0 hPa 0,0 l/m² 9,7 km/h (2 Bft) W-SW 247 ° 0,000 mm 6,9 °C 11,0 °C 16,1 km/h (3 Bft) 100,00 %
07.05.2026 01:24 12,8 °C 67 % 1011,9 hPa 0,0 l/m² 11,3 km/h (2 Bft) W-SW 247 ° 0,000 mm 6,8 °C 10,1 °C 25,7 km/h (4 Bft) 100,00 %
07.05.2026 01:23 12,9 °C 67 % 1012,0 hPa 0,0 l/m² 8,0 km/h (2 Bft) W-SW 247 ° 0,000 mm 6,9 °C 11,9 °C 16,1 km/h (3 Bft) 100,00 %
07.05.2026 01:22 12,9 °C 67 % 1012,0 hPa 0,0 l/m² 11,3 km/h (2 Bft) W-SW 247 ° 0,000 mm 6,9 °C 10,2 °C 20,9 km/h (4 Bft) 100,00 %
07.05.2026 01:21 12,8 °C 67 % 1012,0 hPa 0,0 l/m² 8,0 km/h (2 Bft) W-SW 247 ° 0,000 mm 6,8 °C 11,8 °C 12,9 km/h (3 Bft) 100,00 %
07.05.2026 01:20 12,9 °C 67 % 1012,0 hPa 0,0 l/m² 11,3 km/h (2 Bft) W-SW 247 ° 0,000 mm 6,9 °C 10,2 °C 16,1 km/h (3 Bft) 100,00 %
07.05.2026 01:19 12,9 °C 68 % 1012,0 hPa 0,0 l/m² 4,8 km/h (1 Bft) SW 225 ° 0,000 mm 7,1 °C 12,9 °C 9,7 km/h (2 Bft) 100,00 %
07.05.2026 01:18 12,8 °C 68 % 1011,9 hPa 0,0 l/m² 9,7 km/h (2 Bft) SW 225 ° 0,000 mm 7,0 °C 10,8 °C 14,5 km/h (3 Bft) 100,00 %
07.05.2026 01:17 12,8 °C 68 % 1011,9 hPa 0,0 l/m² 6,4 km/h (2 Bft) W-SW 247 ° 0,000 mm 7,0 °C 12,8 °C 11,3 km/h (2 Bft) 100,00 %
07.05.2026 01:16 12,8 °C 68 % 1012,0 hPa 0,0 l/m² 4,8 km/h (1 Bft) W-SW 247 ° 0,000 mm 7,0 °C 12,8 °C 9,7 km/h (2 Bft) 100,00 %
07.05.2026 01:15 12,8 °C 68 % 1011,9 hPa 0,0 l/m² 8,0 km/h (2 Bft) SW 225 ° 0,000 mm 7,0 °C 11,8 °C 12,9 km/h (3 Bft) 95,65 %
07.05.2026 01:14 12,8 °C 68 % 1011,9 hPa 0,0 l/m² 8,0 km/h (2 Bft) W-SW 247 ° 0,000 mm 7,0 °C 11,8 °C 16,1 km/h (3 Bft) 100,00 %
07.05.2026 01:13 12,8 °C 68 % 1011,9 hPa 0,0 l/m² 12,9 km/h (3 Bft) W-SW 247 ° 0,000 mm 7,0 °C 9,4 °C 19,3 km/h (3 Bft) 100,00 %
07.05.2026 01:12 12,8 °C 68 % 1012,0 hPa 0,0 l/m² 12,9 km/h (3 Bft) SW 225 ° 0,000 mm 7,0 °C 9,4 °C 19,3 km/h (3 Bft) 100,00 %
07.05.2026 01:11 12,8 °C 68 % 1012,0 hPa 0,0 l/m² 9,7 km/h (2 Bft) SW 225 ° 0,000 mm 7,0 °C 10,8 °C 14,5 km/h (3 Bft) 100,00 %
07.05.2026 01:10 12,8 °C 69 % 1012,0 hPa 0,0 l/m² 6,4 km/h (2 Bft) SW 225 ° 0,000 mm 7,3 °C 12,8 °C 12,9 km/h (3 Bft) 100,00 %
07.05.2026 01:09 12,8 °C 68 % 1012,0 hPa 0,0 l/m² 8,0 km/h (2 Bft) W-SW 247 ° 0,000 mm 7,0 °C 11,8 °C 14,5 km/h (3 Bft) 100,00 %
07.05.2026 01:08 12,8 °C 69 % 1012,0 hPa 0,0 l/m² 4,8 km/h (1 Bft) W-SW 247 ° 0,000 mm 7,3 °C 12,8 °C 9,7 km/h (2 Bft) 100,00 %
07.05.2026 01:07 12,8 °C 69 % 1011,9 hPa 0,0 l/m² 4,8 km/h (1 Bft) SW 225 ° 0,000 mm 7,3 °C 12,8 °C 8,0 km/h (2 Bft) 100,00 %
07.05.2026 01:06 12,8 °C 68 % 1012,0 hPa 0,0 l/m² 6,4 km/h (2 Bft) SW 225 ° 0,000 mm 7,0 °C 12,8 °C 14,5 km/h (3 Bft) 100,00 %
07.05.2026 01:05 12,8 °C 69 % 1012,0 hPa 0,0 l/m² 3,2 km/h (1 Bft) W-SW 247 ° 0,000 mm 7,3 °C 12,8 °C 8,0 km/h (2 Bft) 95,65 %
07.05.2026 01:04 12,8 °C 69 % 1011,9 hPa 0,0 l/m² 6,4 km/h (2 Bft) SW 225 ° 0,000 mm 7,3 °C 12,8 °C 17,7 km/h (3 Bft) 100,00 %
07.05.2026 01:03 12,8 °C 69 % 1011,8 hPa 0,0 l/m² 11,3 km/h (2 Bft) W-SW 247 ° 0,000 mm 7,3 °C 10,1 °C 17,7 km/h (3 Bft) 100,00 %
07.05.2026 01:02 12,8 °C 68 % 1011,8 hPa 0,0 l/m² 9,7 km/h (2 Bft) W-SW 247 ° 0,000 mm 7,0 °C 10,8 °C 17,7 km/h (3 Bft) 100,00 %
07.05.2026 01:01 12,8 °C 69 % 1011,9 hPa 0,0 l/m² 11,3 km/h (2 Bft) SW 225 ° 0,000 mm 7,3 °C 10,1 °C 19,3 km/h (3 Bft) 100,00 %
07.05.2026 01:00 12,8 °C 68 % 1011,9 hPa 0,0 l/m² 11,3 km/h (2 Bft) W-SW 247 ° 0,000 mm 7,0 °C 10,1 °C 19,3 km/h (3 Bft) 100,00 %
07.05.2026 00:59 12,8 °C 69 % 1011,8 hPa 0,0 l/m² 8,0 km/h (2 Bft) W 270 ° 0,000 mm 7,3 °C 11,8 °C 16,1 km/h (3 Bft) 100,00 %
07.05.2026 00:58 12,8 °C 69 % 1011,9 hPa 0,0 l/m² 9,7 km/h (2 Bft) W-SW 247 ° 0,000 mm 7,3 °C 10,8 °C 22,5 km/h (4 Bft) 100,00 %
07.05.2026 00:57 12,8 °C 69 % 1011,9 hPa 0,0 l/m² 12,9 km/h (3 Bft) W-SW 247 ° 0,000 mm 7,3 °C 9,4 °C 20,9 km/h (4 Bft) 100,00 %
07.05.2026 00:56 12,8 °C 69 % 1011,9 hPa 0,0 l/m² 8,0 km/h (2 Bft) W-SW 247 ° 0,000 mm 7,3 °C 11,8 °C 14,5 km/h (3 Bft) 100,00 %
07.05.2026 00:55 12,8 °C 69 % 1011,8 hPa 0,0 l/m² 8,0 km/h (2 Bft) W-SW 247 ° 0,000 mm 7,3 °C 11,8 °C 14,5 km/h (3 Bft) 100,00 %
07.05.2026 00:54 12,7 °C 69 % 1011,8 hPa 0,0 l/m² 9,7 km/h (2 Bft) SW 225 ° 0,000 mm 7,2 °C 10,7 °C 19,3 km/h (3 Bft) 100,00 %
07.05.2026 00:53 12,8 °C 69 % 1011,9 hPa 0,0 l/m² 8,0 km/h (2 Bft) W-SW 247 ° 0,000 mm 7,3 °C 11,8 °C 14,5 km/h (3 Bft) 100,00 %
07.05.2026 00:52 12,8 °C 69 % 1011,9 hPa 0,0 l/m² 6,4 km/h (2 Bft) SW 225 ° 0,000 mm 7,3 °C 12,8 °C 12,9 km/h (3 Bft) 100,00 %
07.05.2026 00:51 12,8 °C 69 % 1011,9 hPa 0,0 l/m² 6,4 km/h (2 Bft) W-SW 247 ° 0,000 mm 7,3 °C 12,8 °C 11,3 km/h (2 Bft) 95,65 %
07.05.2026 00:50 12,8 °C 69 % 1011,8 hPa 0,0 l/m² 3,2 km/h (1 Bft) W-SW 247 ° 0,000 mm 7,3 °C 12,8 °C 8,0 km/h (2 Bft) 100,00 %
07.05.2026 00:49 12,8 °C 69 % 1011,8 hPa 0,0 l/m² 11,3 km/h (2 Bft) W-SW 247 ° 0,000 mm 7,3 °C 10,1 °C 20,9 km/h (4 Bft) 100,00 %
07.05.2026 00:48 12,8 °C 69 % 1011,8 hPa 0,0 l/m² 9,7 km/h (2 Bft) SW 225 ° 0,000 mm 7,3 °C 10,8 °C 19,3 km/h (3 Bft) 95,65 %
07.05.2026 00:47 12,8 °C 69 % 1011,8 hPa 0,0 l/m² 11,3 km/h (2 Bft) SW 225 ° 0,000 mm 7,3 °C 10,1 °C 16,1 km/h (3 Bft) 100,00 %
07.05.2026 00:46 12,8 °C 69 % 1011,8 hPa 0,0 l/m² 6,4 km/h (2 Bft) W-SW 247 ° 0,000 mm 7,3 °C 12,8 °C 12,9 km/h (3 Bft) 95,65 %
07.05.2026 00:45 12,8 °C 69 % 1011,9 hPa 0,0 l/m² 8,0 km/h (2 Bft) W-SW 247 ° 0,000 mm 7,3 °C 11,8 °C 12,9 km/h (3 Bft) 100,00 %
07.05.2026 00:44 12,8 °C 69 % 1011,7 hPa 0,0 l/m² 6,4 km/h (2 Bft) W 270 ° 0,000 mm 7,3 °C 12,8 °C 12,9 km/h (3 Bft) 100,00 %
07.05.2026 00:43 12,8 °C 69 % 1011,8 hPa 0,0 l/m² 11,3 km/h (2 Bft) W-SW 247 ° 0,000 mm 7,3 °C 10,1 °C 19,3 km/h (3 Bft) 95,65 %
07.05.2026 00:42 12,8 °C 70 % 1011,8 hPa 0,0 l/m² 11,3 km/h (2 Bft) W-SW 247 ° 0,000 mm 7,5 °C 10,1 °C 17,7 km/h (3 Bft) 100,00 %
07.05.2026 00:41 12,8 °C 69 % 1011,7 hPa 0,0 l/m² 12,9 km/h (3 Bft) SW 225 ° 0,000 mm 7,3 °C 9,4 °C 20,9 km/h (4 Bft) 95,65 %
07.05.2026 00:40 12,7 °C 70 % 1011,7 hPa 0,0 l/m² 12,9 km/h (3 Bft) SW 225 ° 0,000 mm 7,4 °C 9,2 °C 20,9 km/h (4 Bft) 100,00 %
07.05.2026 00:39 12,7 °C 70 % 1011,6 hPa 0,0 l/m² 8,0 km/h (2 Bft) SW 225 ° 0,000 mm 7,4 °C 11,7 °C 12,9 km/h (3 Bft) 100,00 %
07.05.2026 00:38 12,7 °C 70 % 1011,7 hPa 0,0 l/m² 14,5 km/h (3 Bft) S-SW 202 ° 0,000 mm 7,4 °C 8,6 °C 25,7 km/h (4 Bft) 100,00 %
07.05.2026 00:37 12,7 °C 71 % 1011,5 hPa 0,0 l/m² 14,5 km/h (3 Bft) W-SW 247 ° 0,000 mm 7,6 °C 8,6 °C 25,7 km/h (4 Bft) 100,00 %
07.05.2026 00:36 12,7 °C 71 % 1011,5 hPa 0,0 l/m² 9,7 km/h (2 Bft) SW 225 ° 0,000 mm 7,6 °C 10,7 °C 14,5 km/h (3 Bft) 100,00 %
07.05.2026 00:35 12,7 °C 71 % 1011,6 hPa 0,0 l/m² 6,4 km/h (2 Bft) W-SW 247 ° 0,000 mm 7,6 °C 12,7 °C 12,9 km/h (3 Bft) 100,00 %
07.05.2026 00:34 12,7 °C 71 % 1011,6 hPa 0,0 l/m² 9,7 km/h (2 Bft) SW 225 ° 0,000 mm 7,6 °C 10,7 °C 17,7 km/h (3 Bft) 95,65 %
07.05.2026 00:33 12,7 °C 71 % 1011,5 hPa 0,0 l/m² 16,1 km/h (3 Bft) W-SW 247 ° 0,000 mm 7,6 °C 8,0 °C 24,1 km/h (4 Bft) 100,00 %
07.05.2026 00:32 12,7 °C 72 % 1011,5 hPa 0,0 l/m² 8,0 km/h (2 Bft) W-SW 247 ° 0,000 mm 7,8 °C 11,7 °C 14,5 km/h (3 Bft) 95,65 %
07.05.2026 00:31 12,7 °C 71 % 1011,6 hPa 0,0 l/m² 6,4 km/h (2 Bft) SW 225 ° 0,000 mm 7,6 °C 12,7 °C 9,7 km/h (2 Bft) 100,00 %
07.05.2026 00:30 12,7 °C 72 % 1011,6 hPa 0,0 l/m² 8,0 km/h (2 Bft) SW 225 ° 0,000 mm 7,8 °C 11,7 °C 11,3 km/h (2 Bft) 100,00 %
07.05.2026 00:29 12,7 °C 72 % 1011,5 hPa 0,0 l/m² 6,4 km/h (2 Bft) W-SW 247 ° 0,000 mm 7,8 °C 12,7 °C 12,9 km/h (3 Bft) 100,00 %
07.05.2026 00:28 12,7 °C 71 % 1011,6 hPa 0,0 l/m² 9,7 km/h (2 Bft) SW 225 ° 0,000 mm 7,6 °C 10,7 °C 17,7 km/h (3 Bft) 100,00 %
07.05.2026 00:27 12,7 °C 72 % 1011,5 hPa 0,0 l/m² 6,4 km/h (2 Bft) S-SW 202 ° 0,000 mm 7,8 °C 12,7 °C 12,9 km/h (3 Bft) 100,00 %
07.05.2026 00:26 12,7 °C 72 % 1011,5 hPa 0,0 l/m² 9,7 km/h (2 Bft) W-SW 247 ° 0,000 mm 7,8 °C 10,7 °C 14,5 km/h (3 Bft) 95,65 %
07.05.2026 00:25 12,7 °C 71 % 1011,5 hPa 0,0 l/m² 9,7 km/h (2 Bft) SW 225 ° 0,000 mm 7,6 °C 10,7 °C 17,7 km/h (3 Bft) 100,00 %
07.05.2026 00:24 12,7 °C 72 % 1011,6 hPa 0,0 l/m² 9,7 km/h (2 Bft) SW 225 ° 0,000 mm 7,8 °C 10,7 °C 14,5 km/h (3 Bft) 95,65 %
07.05.2026 00:23 12,7 °C 72 % 1011,4 hPa 0,0 l/m² 11,3 km/h (2 Bft) S-SW 202 ° 0,000 mm 7,8 °C 9,9 °C 19,3 km/h (3 Bft) 100,00 %
07.05.2026 00:22 12,7 °C 72 % 1011,4 hPa 0,0 l/m² 8,0 km/h (2 Bft) W-SW 247 ° 0,000 mm 7,8 °C 11,7 °C 11,3 km/h (2 Bft) 95,65 %
07.05.2026 00:21 12,7 °C 72 % 1011,4 hPa 0,0 l/m² 9,7 km/h (2 Bft) SW 225 ° 0,000 mm 7,8 °C 10,7 °C 17,7 km/h (3 Bft) 100,00 %
07.05.2026 00:20 12,7 °C 72 % 1011,4 hPa 0,0 l/m² 8,0 km/h (2 Bft) SW 225 ° 0,000 mm 7,8 °C 11,7 °C 11,3 km/h (2 Bft) 100,00 %
07.05.2026 00:19 12,7 °C 72 % 1011,4 hPa 0,0 l/m² 8,0 km/h (2 Bft) W-SW 247 ° 0,000 mm 7,8 °C 11,7 °C 16,1 km/h (3 Bft) 100,00 %
07.05.2026 00:18 12,7 °C 72 % 1011,4 hPa 0,0 l/m² 8,0 km/h (2 Bft) W-SW 247 ° 0,000 mm 7,8 °C 11,7 °C 17,7 km/h (3 Bft) 100,00 %
07.05.2026 00:17 12,7 °C 71 % 1011,5 hPa 0,0 l/m² 11,3 km/h (2 Bft) W-SW 247 ° 0,000 mm 7,6 °C 9,9 °C 27,4 km/h (4 Bft) 100,00 %
07.05.2026 00:16 12,7 °C 72 % 1011,4 hPa 0,0 l/m² 8,0 km/h (2 Bft) SW 225 ° 0,000 mm 7,8 °C 11,7 °C 12,9 km/h (3 Bft) 100,00 %
07.05.2026 00:15 12,7 °C 72 % 1011,3 hPa 0,0 l/m² 8,0 km/h (2 Bft) W-SW 247 ° 0,000 mm 7,8 °C 11,7 °C 9,7 km/h (2 Bft) 100,00 %
07.05.2026 00:14 12,7 °C 72 % 1011,4 hPa 0,0 l/m² 6,4 km/h (2 Bft) SW 225 ° 0,000 mm 7,8 °C 12,7 °C 14,5 km/h (3 Bft) 95,65 %
07.05.2026 00:13 12,7 °C 72 % 1011,4 hPa 0,0 l/m² 8,0 km/h (2 Bft) W-SW 247 ° 0,000 mm 7,8 °C 11,7 °C 11,3 km/h (2 Bft) 100,00 %
07.05.2026 00:12 12,7 °C 72 % 1011,4 hPa 0,0 l/m² 8,0 km/h (2 Bft) W-SW 247 ° 0,000 mm 7,8 °C 11,7 °C 17,7 km/h (3 Bft) 100,00 %
07.05.2026 00:11 12,7 °C 72 % 1011,4 hPa 0,0 l/m² 14,5 km/h (3 Bft) SW 225 ° 0,000 mm 7,8 °C 8,6 °C 25,7 km/h (4 Bft) 100,00 %
07.05.2026 00:10 12,7 °C 72 % 1011,5 hPa 0,0 l/m² 12,9 km/h (3 Bft) S-SW 202 ° 0,000 mm 7,8 °C 9,2 °C 20,9 km/h (4 Bft) 100,00 %
07.05.2026 00:09 12,7 °C 72 % 1011,4 hPa 0,0 l/m² 14,5 km/h (3 Bft) SW 225 ° 0,000 mm 7,8 °C 8,6 °C 22,5 km/h (4 Bft) 100,00 %
07.05.2026 00:08 12,7 °C 72 % 1011,3 hPa 0,0 l/m² 9,7 km/h (2 Bft) W-SW 247 ° 0,000 mm 7,8 °C 10,7 °C 17,7 km/h (3 Bft) 100,00 %
07.05.2026 00:07 12,7 °C 72 % 1011,4 hPa 0,0 l/m² 11,3 km/h (2 Bft) S-SW 202 ° 0,000 mm 7,8 °C 9,9 °C 17,7 km/h (3 Bft) 100,00 %
07.05.2026 00:06 12,7 °C 72 % 1011,4 hPa 0,0 l/m² 11,3 km/h (2 Bft) SW 225 ° 0,000 mm 7,8 °C 9,9 °C 19,3 km/h (3 Bft) 100,00 %
07.05.2026 00:05 12,7 °C 72 % 1011,4 hPa 0,0 l/m² 11,3 km/h (2 Bft) W-SW 247 ° 0,000 mm 7,8 °C 9,9 °C 20,9 km/h (4 Bft) 100,00 %
07.05.2026 00:04 12,7 °C 73 % 1011,4 hPa 0,0 l/m² 16,1 km/h (3 Bft) SW 225 ° 0,000 mm 8,0 °C 8,0 °C 27,4 km/h (4 Bft) 100,00 %
07.05.2026 00:03 12,7 °C 73 % 1011,3 hPa 0,0 l/m² 12,9 km/h (3 Bft) W-SW 247 ° 0,000 mm 8,0 °C 9,2 °C 20,9 km/h (4 Bft) 95,65 %
07.05.2026 00:02 12,7 °C 73 % 1011,2 hPa 0,0 l/m² 19,3 km/h (3 Bft) SW 225 ° 0,000 mm 8,0 °C 7,0 °C 27,4 km/h (4 Bft) 100,00 %
07.05.2026 00:01 12,6 °C 73 % 1011,3 hPa 0,0 l/m² 12,9 km/h (3 Bft) SW 225 ° 0,000 mm 7,9 °C 9,1 °C 29,0 km/h (5 Bft) 100,00 %
07.05.2026 00:00 12,6 °C 74 % 1011,2 hPa 0,0 l/m² 16,1 km/h (3 Bft) W-SW 247 ° 0,000 mm 8,1 °C 7,9 °C 25,7 km/h (4 Bft) 100,00 %
06.05.2026 23:59 12,6 °C 74 % 1011,3 hPa 0,0 l/m² 9,7 km/h (2 Bft) SW 225 ° 0,000 mm 8,1 °C 10,6 °C 16,1 km/h (3 Bft) 100,00 %
06.05.2026 23:58 12,6 °C 74 % 1011,3 hPa 0,0 l/m² 17,7 km/h (3 Bft) SW 225 ° 0,000 mm 8,1 °C 7,3 °C 25,7 km/h (4 Bft) 100,00 %
06.05.2026 23:57 12,6 °C 75 % 1011,2 hPa 0,2 l/m² 17,7 km/h (3 Bft) SW 225 ° 0,000 mm 8,3 °C 7,3 °C 35,4 km/h (5 Bft) 100,00 %
06.05.2026 23:56 12,6 °C 76 % 1011,2 hPa 0,0 l/m² 11,3 km/h (2 Bft) S-SW 202 ° 0,000 mm 8,5 °C 9,8 °C 22,5 km/h (4 Bft) 100,00 %
06.05.2026 23:55 12,6 °C 76 % 1011,2 hPa 0,0 l/m² 8,0 km/h (2 Bft) SW 225 ° 0,000 mm 8,5 °C 11,6 °C 11,3 km/h (2 Bft) 95,65 %
06.05.2026 23:54 12,7 °C 76 % 1011,2 hPa 0,0 l/m² 11,3 km/h (2 Bft) W-SW 247 ° 0,000 mm 8,6 °C 9,9 °C 20,9 km/h (4 Bft) 100,00 %
06.05.2026 23:53 12,7 °C 76 % 1011,3 hPa 0,0 l/m² 9,7 km/h (2 Bft) SW 225 ° 0,000 mm 8,6 °C 10,7 °C 17,7 km/h (3 Bft) 100,00 %
06.05.2026 23:52 12,7 °C 76 % 1011,2 hPa 0,0 l/m² 9,7 km/h (2 Bft) SW 225 ° 0,000 mm 8,6 °C 10,7 °C 14,5 km/h (3 Bft) 95,65 %
06.05.2026 23:51 12,7 °C 76 % 1011,1 hPa 0,0 l/m² 14,5 km/h (3 Bft) SW 225 ° 0,000 mm 8,6 °C 8,6 °C 22,5 km/h (4 Bft) 100,00 %
06.05.2026 23:50 12,7 °C 77 % 1011,2 hPa 0,0 l/m² 12,9 km/h (3 Bft) W-SW 247 ° 0,000 mm 8,8 °C 9,2 °C 24,1 km/h (4 Bft) 100,00 %
06.05.2026 23:49 12,7 °C 77 % 1011,1 hPa 0,0 l/m² 12,9 km/h (3 Bft) SW 225 ° 0,000 mm 8,8 °C 9,2 °C 19,3 km/h (3 Bft) 100,00 %
06.05.2026 23:48 12,7 °C 78 % 1011,2 hPa 0,0 l/m² 14,5 km/h (3 Bft) SW 225 ° 0,000 mm 9,0 °C 8,6 °C 24,1 km/h (4 Bft) 100,00 %
06.05.2026 23:47 12,8 °C 79 % 1011,3 hPa 0,0 l/m² 11,3 km/h (2 Bft) SW 225 ° 0,000 mm 9,2 °C 10,1 °C 19,3 km/h (3 Bft) 95,65 %
06.05.2026 23:46 12,8 °C 79 % 1011,2 hPa 0,0 l/m² 6,4 km/h (2 Bft) SW 225 ° 0,000 mm 9,2 °C 12,8 °C 12,9 km/h (3 Bft) 100,00 %
06.05.2026 23:45 12,8 °C 79 % 1011,1 hPa 0,0 l/m² 6,4 km/h (2 Bft) SW 225 ° 0,000 mm 9,2 °C 12,8 °C 14,5 km/h (3 Bft) 100,00 %
06.05.2026 23:44 12,8 °C 79 % 1011,2 hPa 0,0 l/m² 9,7 km/h (2 Bft) SW 225 ° 0,000 mm 9,2 °C 10,8 °C 16,1 km/h (3 Bft) 100,00 %
06.05.2026 23:43 12,8 °C 79 % 1011,1 hPa 0,0 l/m² 17,7 km/h (3 Bft) SW 225 ° 0,000 mm 9,2 °C 7,6 °C 27,4 km/h (4 Bft) 100,00 %
06.05.2026 23:42 12,8 °C 80 % 1011,2 hPa 0,0 l/m² 14,5 km/h (3 Bft) W-SW 247 ° 0,000 mm 9,4 °C 8,7 °C 29,0 km/h (5 Bft) 100,00 %
06.05.2026 23:41 12,8 °C 80 % 1011,1 hPa 0,0 l/m² 12,9 km/h (3 Bft) SW 225 ° 0,000 mm 9,4 °C 9,4 °C 20,9 km/h (4 Bft) 100,00 %
06.05.2026 23:40 12,9 °C 81 % 1011,1 hPa 0,0 l/m² 6,4 km/h (2 Bft) SW 225 ° 0,000 mm 9,7 °C 12,9 °C 12,9 km/h (3 Bft) 100,00 %
06.05.2026 23:39 12,9 °C 81 % 1011,0 hPa 0,0 l/m² 4,8 km/h (1 Bft) W-SW 247 ° 0,000 mm 9,7 °C 12,9 °C 9,7 km/h (2 Bft) 100,00 %
06.05.2026 23:38 12,9 °C 81 % 1011,0 hPa 0,0 l/m² 11,3 km/h (2 Bft) S-SW 202 ° 0,000 mm 9,7 °C 10,2 °C 19,3 km/h (3 Bft) 100,00 %
06.05.2026 23:37 12,9 °C 81 % 1011,0 hPa 0,0 l/m² 4,8 km/h (1 Bft) S-SW 202 ° 0,000 mm 9,7 °C 12,9 °C 9,7 km/h (2 Bft) 100,00 %
06.05.2026 23:36 12,9 °C 80 % 1010,9 hPa 0,0 l/m² 9,7 km/h (2 Bft) W-SW 247 ° 0,000 mm 9,5 °C 11,0 °C 14,5 km/h (3 Bft) 95,65 %
06.05.2026 23:35 12,9 °C 80 % 1011,0 hPa 0,0 l/m² 14,5 km/h (3 Bft) W-SW 247 ° 0,000 mm 9,5 °C 8,8 °C 25,7 km/h (4 Bft) 100,00 %
06.05.2026 23:34 12,9 °C 81 % 1010,9 hPa 0,0 l/m² 11,3 km/h (2 Bft) W 270 ° 0,000 mm 9,7 °C 10,2 °C 19,3 km/h (3 Bft) 100,00 %
06.05.2026 23:33 13,0 °C 80 % 1010,9 hPa 0,0 l/m² 11,3 km/h (2 Bft) SW 225 ° 0,000 mm 9,6 °C 10,3 °C 20,9 km/h (4 Bft) 100,00 %
06.05.2026 23:32 13,0 °C 80 % 1011,0 hPa 0,0 l/m² 11,3 km/h (2 Bft) SW 225 ° 0,000 mm 9,6 °C 10,3 °C 19,3 km/h (3 Bft) 100,00 %
06.05.2026 23:31 13,0 °C 81 % 1010,9 hPa 0,0 l/m² 14,5 km/h (3 Bft) S-SW 202 ° 0,000 mm 9,8 °C 9,0 °C 19,3 km/h (3 Bft) 95,65 %
06.05.2026 23:30 13,1 °C 80 % 1011,0 hPa 0,0 l/m² 8,0 km/h (2 Bft) W-SW 247 ° 0,000 mm 9,7 °C 12,1 °C 17,7 km/h (3 Bft) 100,00 %
06.05.2026 23:29 13,1 °C 80 % 1011,0 hPa 0,0 l/m² 9,7 km/h (2 Bft) S-SW 202 ° 0,000 mm 9,7 °C 11,2 °C 17,7 km/h (3 Bft) 100,00 %
06.05.2026 23:28 13,1 °C 80 % 1011,0 hPa 0,0 l/m² 11,3 km/h (2 Bft) SW 225 ° 0,000 mm 9,7 °C 10,4 °C 16,1 km/h (3 Bft) 100,00 %
06.05.2026 23:27 13,1 °C 79 % 1011,0 hPa 0,0 l/m² 9,7 km/h (2 Bft) W-SW 247 ° 0,000 mm 9,5 °C 11,2 °C 17,7 km/h (3 Bft) 100,00 %
06.05.2026 23:26 13,1 °C 79 % 1011,0 hPa 0,0 l/m² 9,7 km/h (2 Bft) W-SW 247 ° 0,000 mm 9,5 °C 11,2 °C 17,7 km/h (3 Bft) 100,00 %
06.05.2026 23:25 13,2 °C 79 % 1010,9 hPa 0,0 l/m² 11,3 km/h (2 Bft) W-SW 247 ° 0,000 mm 9,6 °C 10,5 °C 20,9 km/h (4 Bft) 100,00 %
06.05.2026 23:24 13,2 °C 78 % 1011,0 hPa 0,0 l/m² 14,5 km/h (3 Bft) SW 225 ° 0,000 mm 9,4 °C 9,2 °C 20,9 km/h (4 Bft) 100,00 %
06.05.2026 23:23 13,2 °C 78 % 1011,0 hPa 0,0 l/m² 11,3 km/h (2 Bft) SW 225 ° 0,000 mm 9,4 °C 10,5 °C 20,9 km/h (4 Bft) 100,00 %
06.05.2026 23:22 13,2 °C 77 % 1011,0 hPa 0,0 l/m² 14,5 km/h (3 Bft) W-SW 247 ° 0,000 mm 9,3 °C 9,2 °C 22,5 km/h (4 Bft) 100,00 %
06.05.2026 23:21 13,2 °C 77 % 1011,0 hPa 0,0 l/m² 9,7 km/h (2 Bft) SW 225 ° 0,000 mm 9,3 °C 11,3 °C 16,1 km/h (3 Bft) 100,00 %
06.05.2026 23:20 13,2 °C 77 % 1011,0 hPa 0,0 l/m² 11,3 km/h (2 Bft) W-SW 247 ° 0,000 mm 9,3 °C 10,5 °C 20,9 km/h (4 Bft) 100,00 %
06.05.2026 23:19 13,3 °C 76 % 1011,0 hPa 0,0 l/m² 11,3 km/h (2 Bft) SW 225 ° 0,000 mm 9,2 °C 10,6 °C 16,1 km/h (3 Bft) 100,00 %
06.05.2026 23:18 13,3 °C 76 % 1011,0 hPa 0,0 l/m² 19,3 km/h (3 Bft) W-SW 247 ° 0,000 mm 9,2 °C 7,7 °C 25,7 km/h (4 Bft) 100,00 %
06.05.2026 23:17 13,3 °C 76 % 1010,9 hPa 0,0 l/m² 12,9 km/h (3 Bft) W-SW 247 ° 0,000 mm 9,2 °C 9,9 °C 22,5 km/h (4 Bft) 100,00 %
06.05.2026 23:16 13,3 °C 75 % 1010,9 hPa 0,2 l/m² 11,3 km/h (2 Bft) S-SW 202 ° 0,000 mm 9,0 °C 10,6 °C 17,7 km/h (3 Bft) 100,00 %
06.05.2026 23:15 13,3 °C 75 % 1010,8 hPa 0,0 l/m² 19,3 km/h (3 Bft) SW 225 ° 0,000 mm 9,0 °C 7,7 °C 29,0 km/h (5 Bft) 100,00 %
06.05.2026 23:14 13,3 °C 76 % 1010,8 hPa 0,0 l/m² 14,5 km/h (3 Bft) S-SW 202 ° 0,000 mm 9,2 °C 9,3 °C 25,7 km/h (4 Bft) 95,65 %
06.05.2026 23:13 13,3 °C 76 % 1010,9 hPa 0,0 l/m² 12,9 km/h (3 Bft) W-SW 247 ° 0,000 mm 9,2 °C 9,9 °C 24,1 km/h (4 Bft) 100,00 %
06.05.2026 23:12 13,3 °C 76 % 1010,8 hPa 0,0 l/m² 14,5 km/h (3 Bft) W-SW 247 ° 0,000 mm 9,2 °C 9,3 °C 24,1 km/h (4 Bft) 100,00 %
06.05.2026 23:11 13,3 °C 76 % 1010,8 hPa 0,0 l/m² 12,9 km/h (3 Bft) SW 225 ° 0,000 mm 9,2 °C 9,9 °C 27,4 km/h (4 Bft) 100,00 %
06.05.2026 23:10 13,3 °C 77 % 1010,9 hPa 0,0 l/m² 12,9 km/h (3 Bft) W-SW 247 ° 0,000 mm 9,4 °C 9,9 °C 24,1 km/h (4 Bft) 100,00 %
06.05.2026 23:09 13,3 °C 78 % 1010,9 hPa 0,0 l/m² 12,9 km/h (3 Bft) W-SW 247 ° 0,000 mm 9,5 °C 9,9 °C 24,1 km/h (4 Bft) 95,65 %
06.05.2026 23:08 13,3 °C 78 % 1010,8 hPa 0,0 l/m² 11,3 km/h (2 Bft) SW 225 ° 0,000 mm 9,5 °C 10,6 °C 20,9 km/h (4 Bft) 100,00 %
06.05.2026 23:07 13,3 °C 78 % 1010,8 hPa 0,0 l/m² 11,3 km/h (2 Bft) S-SW 202 ° 0,000 mm 9,5 °C 10,6 °C 25,7 km/h (4 Bft) 100,00 %
06.05.2026 23:06 13,3 °C 78 % 1010,8 hPa 0,0 l/m² 12,9 km/h (3 Bft) W-SW 247 ° 0,000 mm 9,5 °C 9,9 °C 19,3 km/h (3 Bft) 100,00 %
06.05.2026 23:05 13,3 °C 78 % 1010,8 hPa 0,0 l/m² 11,3 km/h (2 Bft) W-SW 247 ° 0,000 mm 9,5 °C 10,6 °C 17,7 km/h (3 Bft) 100,00 %
06.05.2026 23:04 13,3 °C 79 % 1010,8 hPa 0,0 l/m² 12,9 km/h (3 Bft) W-SW 247 ° 0,000 mm 9,7 °C 9,9 °C 24,1 km/h (4 Bft) 100,00 %
06.05.2026 23:03 13,3 °C 79 % 1010,8 hPa 0,0 l/m² 16,1 km/h (3 Bft) SW 225 ° 0,000 mm 9,7 °C 8,7 °C 25,7 km/h (4 Bft) 100,00 %
06.05.2026 23:02 13,3 °C 79 % 1010,8 hPa 0,0 l/m² 11,3 km/h (2 Bft) SW 225 ° 0,000 mm 9,7 °C 10,6 °C 17,7 km/h (3 Bft) 95,65 %
06.05.2026 23:01 13,3 °C 79 % 1010,8 hPa 0,0 l/m² 9,7 km/h (2 Bft) SW 225 ° 0,000 mm 9,7 °C 11,4 °C 16,1 km/h (3 Bft) 100,00 %
06.05.2026 23:00 13,3 °C 79 % 1010,7 hPa 0,0 l/m² 11,3 km/h (2 Bft) S 180 ° 0,000 mm 9,7 °C 10,6 °C 17,7 km/h (3 Bft) 100,00 %
06.05.2026 22:59 13,4 °C 79 % 1010,8 hPa 0,0 l/m² 4,8 km/h (1 Bft) SW 225 ° 0,000 mm 9,8 °C 13,4 °C 9,7 km/h (2 Bft) 100,00 %
06.05.2026 22:58 13,4 °C 79 % 1010,8 hPa 0,0 l/m² 4,8 km/h (1 Bft) W 270 ° 0,000 mm 9,8 °C 13,4 °C 8,0 km/h (2 Bft) 100,00 %
06.05.2026 22:57 13,4 °C 79 % 1010,7 hPa 0,0 l/m² 8,0 km/h (2 Bft) S-SW 202 ° 0,000 mm 9,8 °C 12,4 °C 11,3 km/h (2 Bft) 100,00 %
06.05.2026 22:56 13,4 °C 79 % 1010,7 hPa 0,0 l/m² 11,3 km/h (2 Bft) SW 225 ° 0,000 mm 9,8 °C 10,7 °C 16,1 km/h (3 Bft) 100,00 %
06.05.2026 22:55 13,4 °C 79 % 1010,7 hPa 0,0 l/m² 14,5 km/h (3 Bft) S-SW 202 ° 0,000 mm 9,8 °C 9,4 °C 20,9 km/h (4 Bft) 100,00 %
06.05.2026 22:54 13,4 °C 79 % 1010,7 hPa 0,0 l/m² 9,7 km/h (2 Bft) SW 225 ° 0,000 mm 9,8 °C 11,5 °C 22,5 km/h (4 Bft) 95,65 %
06.05.2026 22:53 13,4 °C 79 % 1010,7 hPa 0,0 l/m² 16,1 km/h (3 Bft) W-SW 247 ° 0,000 mm 9,8 °C 8,9 °C 25,7 km/h (4 Bft) 100,00 %
06.05.2026 22:52 13,4 °C 79 % 1010,6 hPa 0,0 l/m² 8,0 km/h (2 Bft) W-SW 247 ° 0,000 mm 9,8 °C 12,4 °C 14,5 km/h (3 Bft) 100,00 %
06.05.2026 22:51 13,5 °C 78 % 1010,6 hPa 0,0 l/m² 8,0 km/h (2 Bft) S 180 ° 0,000 mm 9,7 °C 12,5 °C 16,1 km/h (3 Bft) 100,00 %
06.05.2026 22:50 13,5 °C 78 % 1010,7 hPa 0,0 l/m² 11,3 km/h (2 Bft) SW 225 ° 0,000 mm 9,7 °C 10,9 °C 16,1 km/h (3 Bft) 100,00 %
06.05.2026 22:49 13,6 °C 78 % 1010,5 hPa 0,0 l/m² 9,7 km/h (2 Bft) SW 225 ° 0,000 mm 9,8 °C 11,7 °C 19,3 km/h (3 Bft) 95,65 %
06.05.2026 22:48 13,6 °C 78 % 1010,5 hPa 0,0 l/m² 8,0 km/h (2 Bft) SW 225 ° 0,000 mm 9,8 °C 12,6 °C 12,9 km/h (3 Bft) 100,00 %
06.05.2026 22:47 13,6 °C 78 % 1010,6 hPa 0,0 l/m² 11,3 km/h (2 Bft) S-SW 202 ° 0,000 mm 9,8 °C 11,0 °C 29,0 km/h (5 Bft) 100,00 %
06.05.2026 22:46 13,7 °C 78 % 1010,5 hPa 0,0 l/m² 9,7 km/h (2 Bft) W-SW 247 ° 0,000 mm 9,9 °C 11,8 °C 16,1 km/h (3 Bft) 100,00 %
06.05.2026 22:45 13,7 °C 78 % 1010,5 hPa 0,0 l/m² 9,7 km/h (2 Bft) SW 225 ° 0,000 mm 9,9 °C 11,8 °C 11,3 km/h (2 Bft) 100,00 %
06.05.2026 22:44 13,8 °C 78 % 1010,6 hPa 0,0 l/m² 12,9 km/h (3 Bft) SW 225 ° 0,000 mm 10,0 °C 10,5 °C 19,3 km/h (3 Bft) 100,00 %
06.05.2026 22:43 13,8 °C 78 % 1010,4 hPa 0,0 l/m² 8,0 km/h (2 Bft) S-SW 202 ° 0,000 mm 10,0 °C 12,8 °C 16,1 km/h (3 Bft) 100,00 %
06.05.2026 22:42 13,9 °C 78 % 1010,4 hPa 0,0 l/m² 8,0 km/h (2 Bft) SW 225 ° 0,000 mm 10,1 °C 12,9 °C 19,3 km/h (3 Bft) 95,65 %
06.05.2026 22:41 13,9 °C 77 % 1010,4 hPa 0,0 l/m² 8,0 km/h (2 Bft) SW 225 ° 0,000 mm 9,9 °C 12,9 °C 14,5 km/h (3 Bft) 100,00 %
06.05.2026 22:40 14,0 °C 77 % 1010,4 hPa 0,0 l/m² 12,9 km/h (3 Bft) W-SW 247 ° 0,000 mm 10,0 °C 10,8 °C 16,1 km/h (3 Bft) 100,00 %
06.05.2026 22:39 14,1 °C 76 % 1010,3 hPa 0,0 l/m² 6,4 km/h (2 Bft) SW 225 ° 0,000 mm 9,9 °C 14,1 °C 12,9 km/h (3 Bft) 95,65 %
06.05.2026 22:38 14,1 °C 76 % 1010,3 hPa 0,0 l/m² 9,7 km/h (2 Bft) SW 225 ° 0,000 mm 9,9 °C 12,3 °C 14,5 km/h (3 Bft) 100,00 %
06.05.2026 22:37 14,2 °C 76 % 1010,3 hPa 0,0 l/m² 11,3 km/h (2 Bft) W-SW 247 ° 0,000 mm 10,0 °C 11,6 °C 16,1 km/h (3 Bft) 100,00 %
06.05.2026 22:36 14,2 °C 76 % 1010,2 hPa 0,0 l/m² 11,3 km/h (2 Bft) SW 225 ° 0,000 mm 10,0 °C 11,6 °C 19,3 km/h (3 Bft) 100,00 %
06.05.2026 22:35 14,2 °C 75 % 1010,2 hPa 0,0 l/m² 14,5 km/h (3 Bft) SW 225 ° 0,000 mm 9,8 °C 10,4 °C 22,5 km/h (4 Bft) 95,65 %
06.05.2026 22:34 14,3 °C 75 % 1010,1 hPa 0,0 l/m² 16,1 km/h (3 Bft) W-SW 247 ° 0,000 mm 9,9 °C 10,0 °C 20,9 km/h (4 Bft) 100,00 %
06.05.2026 22:33 14,3 °C 76 % 1010,2 hPa 0,0 l/m² 11,3 km/h (2 Bft) W-SW 247 ° 0,000 mm 10,1 °C 11,8 °C 24,1 km/h (4 Bft) 100,00 %
06.05.2026 22:32 14,4 °C 76 % 1010,1 hPa 0,0 l/m² 6,4 km/h (2 Bft) W-SW 247 ° 0,000 mm 10,2 °C 14,4 °C 12,9 km/h (3 Bft) 100,00 %
06.05.2026 22:31 14,4 °C 76 % 1010,1 hPa 0,0 l/m² 6,4 km/h (2 Bft) S-SW 202 ° 0,000 mm 10,2 °C 14,4 °C 11,3 km/h (2 Bft) 100,00 %
06.05.2026 22:30 14,5 °C 75 % 1010,0 hPa 0,0 l/m² 16,1 km/h (3 Bft) W-SW 247 ° 0,000 mm 10,1 °C 10,2 °C 27,4 km/h (4 Bft) 95,65 %
06.05.2026 22:29 14,6 °C 75 % 1010,0 hPa 0,0 l/m² 11,3 km/h (2 Bft) SW 225 ° 0,000 mm 10,2 °C 12,1 °C 17,7 km/h (3 Bft) 100,00 %
06.05.2026 22:28 14,6 °C 75 % 1010,0 hPa 0,0 l/m² 4,8 km/h (1 Bft) SW 225 ° 0,000 mm 10,2 °C 14,6 °C 12,9 km/h (3 Bft) 100,00 %
06.05.2026 22:27 14,6 °C 75 % 1010,0 hPa 0,0 l/m² 11,3 km/h (2 Bft) S-SW 202 ° 0,000 mm 10,2 °C 12,1 °C 20,9 km/h (4 Bft) 100,00 %
06.05.2026 22:26 14,6 °C 75 % 1010,0 hPa 0,0 l/m² 11,3 km/h (2 Bft) SW 225 ° 0,000 mm 10,2 °C 12,1 °C 17,7 km/h (3 Bft) 95,65 %
06.05.2026 22:25 14,6 °C 75 % 1010,0 hPa 0,0 l/m² 11,3 km/h (2 Bft) W-SW 247 ° 0,000 mm 10,2 °C 12,1 °C 16,1 km/h (3 Bft) 100,00 %
06.05.2026 22:24 14,7 °C 75 % 1010,0 hPa 0,0 l/m² 19,3 km/h (3 Bft) SW 225 ° 0,000 mm 10,3 °C 9,5 °C 32,2 km/h (5 Bft) 100,00 %
06.05.2026 22:23 14,7 °C 75 % 1010,0 hPa 0,0 l/m² 14,5 km/h (3 Bft) SW 225 ° 0,000 mm 10,3 °C 11,0 °C 22,5 km/h (4 Bft) 95,65 %
06.05.2026 22:22 14,8 °C 75 % 1009,9 hPa 0,0 l/m² 12,9 km/h (3 Bft) SW 225 ° 0,000 mm 10,4 °C 11,7 °C 17,7 km/h (3 Bft) 100,00 %
06.05.2026 22:21 14,8 °C 75 % 1009,8 hPa 0,0 l/m² 19,3 km/h (3 Bft) W-SW 247 ° 0,000 mm 10,4 °C 9,7 °C 27,4 km/h (4 Bft) 100,00 %
06.05.2026 22:20 14,8 °C 75 % 1009,8 hPa 0,0 l/m² 14,5 km/h (3 Bft) S-SW 202 ° 0,000 mm 10,4 °C 11,1 °C 30,6 km/h (5 Bft) 100,00 %
06.05.2026 22:19 14,8 °C 75 % 1009,8 hPa 0,0 l/m² 8,0 km/h (2 Bft) S-SW 202 ° 0,000 mm 10,4 °C 13,9 °C 16,1 km/h (3 Bft) 100,00 %
06.05.2026 22:18 14,8 °C 75 % 1009,8 hPa 0,0 l/m² 9,7 km/h (2 Bft) W 270 ° 0,000 mm 10,4 °C 13,0 °C 19,3 km/h (3 Bft) 100,00 %
06.05.2026 22:17 14,8 °C 75 % 1009,8 hPa 0,0 l/m² 9,7 km/h (2 Bft) W-SW 247 ° 0,000 mm 10,4 °C 13,0 °C 24,1 km/h (4 Bft) 100,00 %
06.05.2026 22:16 14,9 °C 75 % 1009,6 hPa 0,0 l/m² 9,7 km/h (2 Bft) SW 225 ° 0,000 mm 10,5 °C 13,1 °C 17,7 km/h (3 Bft) 100,00 %
06.05.2026 22:15 14,9 °C 74 % 1009,6 hPa 0,0 l/m² 12,9 km/h (3 Bft) SW 225 ° 0,000 mm 10,3 °C 11,8 °C 20,9 km/h (4 Bft) 100,00 %
06.05.2026 22:14 14,9 °C 74 % 1009,5 hPa 0,0 l/m² 14,5 km/h (3 Bft) SW 225 ° 0,000 mm 10,3 °C 11,2 °C 27,4 km/h (4 Bft) 100,00 %
06.05.2026 22:13 14,9 °C 74 % 1009,6 hPa 0,0 l/m² 14,5 km/h (3 Bft) W-SW 247 ° 0,000 mm 10,3 °C 11,2 °C 22,5 km/h (4 Bft) 100,00 %
06.05.2026 22:12 14,9 °C 74 % 1009,5 hPa 0,0 l/m² 14,5 km/h (3 Bft) W-SW 247 ° 0,000 mm 10,3 °C 11,2 °C 19,3 km/h (3 Bft) 100,00 %
06.05.2026 22:11 15,0 °C 74 % 1009,5 hPa 0,0 l/m² 16,1 km/h (3 Bft) SW 225 ° 0,000 mm 10,4 °C 10,8 °C 22,5 km/h (4 Bft) 100,00 %
06.05.2026 22:10 14,9 °C 74 % 1009,5 hPa 0,0 l/m² 8,0 km/h (2 Bft) W-SW 247 ° 0,000 mm 10,3 °C 14,0 °C 12,9 km/h (3 Bft) 100,00 %
06.05.2026 22:09 15,1 °C 74 % 1009,5 hPa 0,0 l/m² 11,3 km/h (2 Bft) SW 225 ° 0,000 mm 10,5 °C 12,7 °C 17,7 km/h (3 Bft) 100,00 %
06.05.2026 22:08 15,1 °C 74 % 1009,5 hPa 0,0 l/m² 12,9 km/h (3 Bft) SW 225 ° 0,000 mm 10,5 °C 12,0 °C 22,5 km/h (4 Bft) 100,00 %
06.05.2026 22:07 15,1 °C 74 % 1009,5 hPa 0,0 l/m² 9,7 km/h (2 Bft) W-SW 247 ° 0,000 mm 10,5 °C 13,4 °C 14,5 km/h (3 Bft) 100,00 %
06.05.2026 22:06 15,0 °C 74 % 1009,5 hPa 0,0 l/m² 9,7 km/h (2 Bft) S-SW 202 ° 0,000 mm 10,4 °C 13,3 °C 12,9 km/h (3 Bft) 95,65 %
06.05.2026 22:05 15,1 °C 74 % 1009,4 hPa 0,0 l/m² 9,7 km/h (2 Bft) W-SW 247 ° 0,000 mm 10,5 °C 13,4 °C 19,3 km/h (3 Bft) 100,00 %
06.05.2026 22:04 15,1 °C 74 % 1009,5 hPa 0,0 l/m² 12,9 km/h (3 Bft) S-SW 202 ° 0,000 mm 10,5 °C 12,0 °C 20,9 km/h (4 Bft) 100,00 %
06.05.2026 22:03 15,1 °C 74 % 1009,5 hPa 0,0 l/m² 8,0 km/h (2 Bft) SW 225 ° 0,000 mm 10,5 °C 14,2 °C 17,7 km/h (3 Bft) 100,00 %
06.05.2026 22:02 15,1 °C 74 % 1009,4 hPa 0,0 l/m² 9,7 km/h (2 Bft) SW 225 ° 0,000 mm 10,5 °C 13,4 °C 14,5 km/h (3 Bft) 100,00 %
06.05.2026 22:01 15,1 °C 74 % 1009,5 hPa 0,0 l/m² 6,4 km/h (2 Bft) W 270 ° 0,000 mm 10,5 °C 15,1 °C 12,9 km/h (3 Bft) 100,00 %
06.05.2026 22:00 15,1 °C 74 % 1009,4 hPa 0,0 l/m² 11,3 km/h (2 Bft) SW 225 ° 0,000 mm 10,5 °C 12,7 °C 19,3 km/h (3 Bft) 100,00 %
06.05.2026 21:59 15,1 °C 74 % 1009,4 hPa 0,0 l/m² 8,0 km/h (2 Bft) W-SW 247 ° 0,000 mm 10,5 °C 14,2 °C 20,9 km/h (4 Bft) 100,00 %
06.05.2026 21:58 15,1 °C 73 % 1009,5 hPa 0,0 l/m² 8,0 km/h (2 Bft) W-SW 247 ° 0,000 mm 10,3 °C 14,2 °C 20,9 km/h (4 Bft) 100,00 %
06.05.2026 21:57 15,1 °C 73 % 1009,3 hPa 0,0 l/m² 6,4 km/h (2 Bft) W-SW 247 ° 0,000 mm 10,3 °C 15,1 °C 14,5 km/h (3 Bft) 100,00 %
06.05.2026 21:56 15,1 °C 73 % 1009,4 hPa 0,0 l/m² 11,3 km/h (2 Bft) SW 225 ° 0,000 mm 10,3 °C 12,7 °C 19,3 km/h (3 Bft) 100,00 %
06.05.2026 21:55 15,1 °C 73 % 1009,2 hPa 0,0 l/m² 9,7 km/h (2 Bft) W 270 ° 0,000 mm 10,3 °C 13,4 °C 20,9 km/h (4 Bft) 100,00 %
06.05.2026 21:54 15,1 °C 73 % 1009,2 hPa 0,0 l/m² 8,0 km/h (2 Bft) S-SW 202 ° 0,000 mm 10,3 °C 14,2 °C 17,7 km/h (3 Bft) 95,65 %
06.05.2026 21:53 15,1 °C 73 % 1009,3 hPa 0,0 l/m² 11,3 km/h (2 Bft) S-SW 202 ° 0,000 mm 10,3 °C 12,7 °C 22,5 km/h (4 Bft) 100,00 %
06.05.2026 21:52 15,1 °C 72 % 1009,3 hPa 0,0 l/m² 4,8 km/h (1 Bft) SW 225 ° 0,000 mm 10,1 °C 15,1 °C 12,9 km/h (3 Bft) 100,00 %
06.05.2026 21:51 15,1 °C 72 % 1009,3 hPa 0,0 l/m² 9,7 km/h (2 Bft) W-SW 247 ° 0,000 mm 10,1 °C 13,4 °C 16,1 km/h (3 Bft) 100,00 %
06.05.2026 21:50 15,2 °C 72 % 1009,3 hPa 0,0 l/m² 11,3 km/h (2 Bft) SW 225 ° 0,000 mm 10,2 °C 12,8 °C 25,7 km/h (4 Bft) 100,00 %
06.05.2026 21:49 15,2 °C 72 % 1009,2 hPa 0,0 l/m² 6,4 km/h (2 Bft) W-SW 247 ° 0,000 mm 10,2 °C 15,2 °C 9,7 km/h (2 Bft) 100,00 %
06.05.2026 21:48 15,2 °C 72 % 1009,2 hPa 0,0 l/m² 6,4 km/h (2 Bft) S-SW 202 ° 0,000 mm 10,2 °C 15,2 °C 12,9 km/h (3 Bft) 100,00 %
06.05.2026 21:47 15,2 °C 72 % 1009,3 hPa 0,0 l/m² 4,8 km/h (1 Bft) W-SW 247 ° 0,000 mm 10,2 °C 15,2 °C 8,0 km/h (2 Bft) 100,00 %
06.05.2026 21:46 15,2 °C 72 % 1009,1 hPa 0,0 l/m² 6,4 km/h (2 Bft) W-SW 247 ° 0,000 mm 10,2 °C 15,2 °C 14,5 km/h (3 Bft) 100,00 %
06.05.2026 21:45 15,2 °C 71 % 1009,1 hPa 0,0 l/m² 12,9 km/h (3 Bft) W-SW 247 ° 0,000 mm 10,0 °C 12,2 °C 22,5 km/h (4 Bft) 100,00 %
06.05.2026 21:44 15,2 °C 71 % 1009,1 hPa 0,0 l/m² 8,0 km/h (2 Bft) W-SW 247 ° 0,000 mm 10,0 °C 14,3 °C 11,3 km/h (2 Bft) 95,65 %
06.05.2026 21:43 15,3 °C 71 % 1009,1 hPa 0,0 l/m² 9,7 km/h (2 Bft) W-SW 247 ° 0,000 mm 10,1 °C 13,6 °C 19,3 km/h (3 Bft) 100,00 %
06.05.2026 21:42 15,3 °C 70 % 1009,1 hPa 0,0 l/m² 8,0 km/h (2 Bft) W-SW 247 ° 0,000 mm 9,9 °C 14,4 °C 14,5 km/h (3 Bft) 100,00 %
06.05.2026 21:41 15,3 °C 70 % 1009,0 hPa 0,0 l/m² 11,3 km/h (2 Bft) W-SW 247 ° 0,000 mm 9,9 °C 12,9 °C 19,3 km/h (3 Bft) 100,00 %
06.05.2026 21:40 15,3 °C 70 % 1009,0 hPa 0,0 l/m² 11,3 km/h (2 Bft) W-SW 247 ° 0,000 mm 9,9 °C 12,9 °C 17,7 km/h (3 Bft) 100,00 %
06.05.2026 21:39 15,4 °C 70 % 1009,0 hPa 0,0 l/m² 8,0 km/h (2 Bft) W-SW 247 ° 0,000 mm 10,0 °C 14,5 °C 12,9 km/h (3 Bft) 100,00 %
06.05.2026 21:38 15,3 °C 69 % 1008,9 hPa 0,0 l/m² 11,3 km/h (2 Bft) W-SW 247 ° 0,000 mm 9,6 °C 12,9 °C 16,1 km/h (3 Bft) 100,00 %
06.05.2026 21:37 15,4 °C 69 % 1008,9 hPa 0,0 l/m² 6,4 km/h (2 Bft) SW 225 ° 0,000 mm 9,7 °C 15,4 °C 14,5 km/h (3 Bft) 100,00 %
06.05.2026 21:36 15,4 °C 68 % 1008,9 hPa 0,0 l/m² 6,4 km/h (2 Bft) W-SW 247 ° 0,000 mm 9,5 °C 15,4 °C 8,0 km/h (2 Bft) 100,00 %
06.05.2026 21:35 15,4 °C 68 % 1008,9 hPa 0,0 l/m² 8,0 km/h (2 Bft) SW 225 ° 0,000 mm 9,5 °C 14,5 °C 12,9 km/h (3 Bft) 95,65 %
06.05.2026 21:34 15,4 °C 68 % 1008,8 hPa 0,0 l/m² 8,0 km/h (2 Bft) SW 225 ° 0,000 mm 9,5 °C 14,5 °C 14,5 km/h (3 Bft) 100,00 %
06.05.2026 21:33 15,4 °C 68 % 1008,8 hPa 0,0 l/m² 9,7 km/h (2 Bft) SW 225 ° 0,000 mm 9,5 °C 13,7 °C 16,1 km/h (3 Bft) 100,00 %
06.05.2026 21:32 15,4 °C 68 % 1008,7 hPa 0,0 l/m² 6,4 km/h (2 Bft) S-SW 202 ° 0,000 mm 9,5 °C 15,4 °C 12,9 km/h (3 Bft) 95,65 %
06.05.2026 21:31 15,4 °C 68 % 1008,7 hPa 0,0 l/m² 9,7 km/h (2 Bft) SW 225 ° 0,000 mm 9,5 °C 13,7 °C 12,9 km/h (3 Bft) 100,00 %
06.05.2026 21:30 15,4 °C 68 % 1008,6 hPa 0,0 l/m² 8,0 km/h (2 Bft) S-SW 202 ° 0,000 mm 9,5 °C 14,5 °C 17,7 km/h (3 Bft) 100,00 %
06.05.2026 21:29 15,4 °C 68 % 1008,7 hPa 0,0 l/m² 12,9 km/h (3 Bft) SW 225 ° 0,000 mm 9,5 °C 12,4 °C 19,3 km/h (3 Bft) 100,00 %
06.05.2026 21:28 15,4 °C 68 % 1008,6 hPa 0,0 l/m² 12,9 km/h (3 Bft) SW 225 ° 0,000 mm 9,5 °C 12,4 °C 24,1 km/h (4 Bft) 100,00 %
06.05.2026 21:27 15,4 °C 68 % 1008,6 hPa 0,0 l/m² 9,7 km/h (2 Bft) SW 225 ° 0,000 mm 9,5 °C 13,7 °C 22,5 km/h (4 Bft) 100,00 %
06.05.2026 21:26 15,4 °C 68 % 1008,5 hPa 0,0 l/m² 4,8 km/h (1 Bft) S-SW 202 ° 0,000 mm 9,5 °C 15,4 °C 8,0 km/h (2 Bft) 100,00 %
06.05.2026 21:25 15,4 °C 68 % 1008,5 hPa 0,0 l/m² 6,4 km/h (2 Bft) W-SW 247 ° 0,000 mm 9,5 °C 15,4 °C 11,3 km/h (2 Bft) 100,00 %
06.05.2026 21:24 15,4 °C 68 % 1008,5 hPa 0,0 l/m² 8,0 km/h (2 Bft) S-SW 202 ° 0,000 mm 9,5 °C 14,5 °C 12,9 km/h (3 Bft) 100,00 %
06.05.2026 21:23 15,4 °C 68 % 1008,4 hPa 0,0 l/m² 4,8 km/h (1 Bft) W-SW 247 ° 0,000 mm 9,5 °C 15,4 °C 6,4 km/h (2 Bft) 100,00 %
06.05.2026 21:22 15,4 °C 68 % 1008,5 hPa 0,0 l/m² 6,4 km/h (2 Bft) W-SW 247 ° 0,000 mm 9,5 °C 15,4 °C 8,0 km/h (2 Bft) 100,00 %
06.05.2026 21:21 15,4 °C 67 % 1008,4 hPa 0,0 l/m² 4,8 km/h (1 Bft) W-SW 247 ° 0,000 mm 9,3 °C 15,4 °C 8,0 km/h (2 Bft) 100,00 %
06.05.2026 21:20 15,4 °C 67 % 1008,5 hPa 0,0 l/m² 6,4 km/h (2 Bft) SW 225 ° 0,000 mm 9,3 °C 15,4 °C 12,9 km/h (3 Bft) 100,00 %
06.05.2026 21:19 15,4 °C 67 % 1008,4 hPa 0,0 l/m² 11,3 km/h (2 Bft) SW 225 ° 0,000 mm 9,3 °C 13,0 °C 16,1 km/h (3 Bft) 100,00 %
06.05.2026 21:18 15,4 °C 67 % 1008,3 hPa 0,0 l/m² 9,7 km/h (2 Bft) W-SW 247 ° 0,000 mm 9,3 °C 13,7 °C 14,5 km/h (3 Bft) 100,00 %
06.05.2026 21:17 15,5 °C 67 % 1008,3 hPa 0,0 l/m² 8,0 km/h (2 Bft) W 270 ° 0,000 mm 9,4 °C 14,6 °C 17,7 km/h (3 Bft) 100,00 %
06.05.2026 21:16 15,4 °C 67 % 1008,3 hPa 0,0 l/m² 4,8 km/h (1 Bft) SW 225 ° 0,000 mm 9,3 °C 15,4 °C 9,7 km/h (2 Bft) 100,00 %
06.05.2026 21:15 15,4 °C 67 % 1008,3 hPa 0,0 l/m² 3,2 km/h (1 Bft) W-SW 247 ° 0,000 mm 9,3 °C 15,4 °C 8,0 km/h (2 Bft) 100,00 %
06.05.2026 21:14 15,4 °C 67 % 1008,3 hPa 0,0 l/m² 1,6 km/h (1 Bft) SW 225 ° 0,000 mm 9,3 °C 15,4 °C 8,0 km/h (2 Bft) 100,00 %
06.05.2026 21:13 15,5 °C 67 % 1008,2 hPa 0,0 l/m² 1,6 km/h (1 Bft) W-SW 247 ° 0,000 mm 9,4 °C 15,5 °C 4,8 km/h (1 Bft) 100,00 %
06.05.2026 21:12 15,4 °C 67 % 1008,2 hPa 0,0 l/m² 4,8 km/h (1 Bft) W-SW 247 ° 0,000 mm 9,3 °C 15,4 °C 8,0 km/h (2 Bft) 100,00 %
06.05.2026 21:11 15,4 °C 67 % 1008,3 hPa 0,0 l/m² 8,0 km/h (2 Bft) SW 225 ° 0,000 mm 9,3 °C 14,5 °C 14,5 km/h (3 Bft) 100,00 %
06.05.2026 21:10 15,4 °C 67 % 1008,3 hPa 0,0 l/m² 9,7 km/h (2 Bft) SW 225 ° 0,000 mm 9,3 °C 13,7 °C 14,5 km/h (3 Bft) 95,65 %
06.05.2026 21:09 15,4 °C 67 % 1008,3 hPa 0,0 l/m² 6,4 km/h (2 Bft) SW 225 ° 0,000 mm 9,3 °C 15,4 °C 9,7 km/h (2 Bft) 100,00 %
06.05.2026 21:08 15,4 °C 67 % 1008,3 hPa 0,0 l/m² 4,8 km/h (1 Bft) SW 225 ° 0,000 mm 9,3 °C 15,4 °C 6,4 km/h (2 Bft) 100,00 %
06.05.2026 21:07 15,4 °C 67 % 1008,0 hPa 0,0 l/m² 11,3 km/h (2 Bft) SW 225 ° 0,000 mm 9,3 °C 13,0 °C 22,5 km/h (4 Bft) 100,00 %
06.05.2026 21:06 15,4 °C 67 % 1008,1 hPa 0,0 l/m² 9,7 km/h (2 Bft) W-SW 247 ° 0,000 mm 9,3 °C 13,7 °C 14,5 km/h (3 Bft) 100,00 %
06.05.2026 21:05 15,4 °C 67 % 1008,0 hPa 0,0 l/m² 6,4 km/h (2 Bft) W-SW 247 ° 0,000 mm 9,3 °C 15,4 °C 9,7 km/h (2 Bft) 100,00 %
06.05.2026 21:04 15,4 °C 67 % 1008,0 hPa 0,0 l/m² 8,0 km/h (2 Bft) W-SW 247 ° 0,000 mm 9,3 °C 14,5 °C 12,9 km/h (3 Bft) 100,00 %
06.05.2026 21:03 15,4 °C 67 % 1007,9 hPa 0,0 l/m² 12,9 km/h (3 Bft) SW 225 ° 0,000 mm 9,3 °C 12,4 °C 22,5 km/h (4 Bft) 100,00 %
06.05.2026 21:02 15,4 °C 67 % 1007,9 hPa 0,0 l/m² 17,7 km/h (3 Bft) W-SW 247 ° 0,000 mm 9,3 °C 10,9 °C 22,5 km/h (4 Bft) 100,00 %
06.05.2026 21:01 15,3 °C 67 % 1007,8 hPa 0,0 l/m² 14,5 km/h (3 Bft) W-SW 247 ° 0,000 mm 9,2 °C 11,7 °C 30,6 km/h (5 Bft) 95,65 %
06.05.2026 21:00 15,4 °C 67 % 1007,9 hPa 0,0 l/m² 8,0 km/h (2 Bft) SW 225 ° 0,000 mm 9,3 °C 14,5 °C 12,9 km/h (3 Bft) 100,00 %
06.05.2026 20:59 15,4 °C 67 % 1007,8 hPa 0,0 l/m² 12,9 km/h (3 Bft) SW 225 ° 0,000 mm 9,3 °C 12,4 °C 20,9 km/h (4 Bft) 100,00 %
06.05.2026 20:58 15,3 °C 67 % 1007,8 hPa 0,0 l/m² 8,0 km/h (2 Bft) W-SW 247 ° 0,000 mm 9,2 °C 14,4 °C 14,5 km/h (3 Bft) 100,00 %
06.05.2026 20:57 15,3 °C 67 % 1007,7 hPa 0,0 l/m² 9,7 km/h (2 Bft) W-SW 247 ° 0,000 mm 9,2 °C 13,6 °C 16,1 km/h (3 Bft) 100,00 %
06.05.2026 20:56 15,3 °C 67 % 1007,7 hPa 0,0 l/m² 6,4 km/h (2 Bft) W-SW 247 ° 0,000 mm 9,2 °C 15,3 °C 17,7 km/h (3 Bft) 100,00 %
06.05.2026 20:55 15,3 °C 67 % 1007,7 hPa 0,0 l/m² 6,4 km/h (2 Bft) W-SW 247 ° 0,000 mm 9,2 °C 15,3 °C 8,0 km/h (2 Bft) 100,00 %
06.05.2026 20:54 15,3 °C 67 % 1007,6 hPa 0,0 l/m² 8,0 km/h (2 Bft) W-SW 247 ° 0,000 mm 9,2 °C 14,4 °C 14,5 km/h (3 Bft) 100,00 %
06.05.2026 20:53 15,3 °C 67 % 1007,6 hPa 0,0 l/m² 9,7 km/h (2 Bft) SW 225 ° 0,000 mm 9,2 °C 13,6 °C 17,7 km/h (3 Bft) 100,00 %
06.05.2026 20:52 15,3 °C 67 % 1007,6 hPa 0,0 l/m² 6,4 km/h (2 Bft) W-SW 247 ° 0,000 mm 9,2 °C 15,3 °C 11,3 km/h (2 Bft) 100,00 %
06.05.2026 20:51 15,3 °C 67 % 1007,5 hPa 0,0 l/m² 8,0 km/h (2 Bft) SW 225 ° 0,000 mm 9,2 °C 14,4 °C 12,9 km/h (3 Bft) 100,00 %
06.05.2026 20:50 15,3 °C 67 % 1007,5 hPa 0,0 l/m² 8,0 km/h (2 Bft) W-SW 247 ° 0,000 mm 9,2 °C 14,4 °C 12,9 km/h (3 Bft) 100,00 %
06.05.2026 20:49 15,3 °C 67 % 1007,4 hPa 0,0 l/m² 8,0 km/h (2 Bft) W-SW 247 ° 0,000 mm 9,2 °C 14,4 °C 9,7 km/h (2 Bft) 100,00 %
06.05.2026 20:48 15,3 °C 68 % 1007,3 hPa 0,0 l/m² 9,7 km/h (2 Bft) SW 225 ° 0,000 mm 9,4 °C 13,6 °C 16,1 km/h (3 Bft) 100,00 %
06.05.2026 20:47 15,3 °C 67 % 1007,3 hPa 0,0 l/m² 9,7 km/h (2 Bft) W-SW 247 ° 0,000 mm 9,2 °C 13,6 °C 14,5 km/h (3 Bft) 95,65 %
06.05.2026 20:46 15,3 °C 68 % 1007,3 hPa 0,0 l/m² 14,5 km/h (3 Bft) SW 225 ° 0,000 mm 9,4 °C 11,7 °C 20,9 km/h (4 Bft) 100,00 %
06.05.2026 20:45 15,3 °C 68 % 1007,2 hPa 0,0 l/m² 12,9 km/h (3 Bft) W-SW 247 ° 0,000 mm 9,4 °C 12,3 °C 20,9 km/h (4 Bft) 100,00 %
06.05.2026 20:44 15,3 °C 68 % 1007,0 hPa 0,0 l/m² 12,9 km/h (3 Bft) SW 225 ° 0,000 mm 9,4 °C 12,3 °C 19,3 km/h (3 Bft) 100,00 %
06.05.2026 20:43 15,3 °C 68 % 1007,1 hPa 0,0 l/m² 14,5 km/h (3 Bft) SW 225 ° 0,000 mm 9,4 °C 11,7 °C 20,9 km/h (4 Bft) 100,00 %
06.05.2026 20:42 15,3 °C 68 % 1007,0 hPa 0,0 l/m² 9,7 km/h (2 Bft) SW 225 ° 0,000 mm 9,4 °C 13,6 °C 12,9 km/h (3 Bft) 100,00 %
06.05.2026 20:41 15,3 °C 68 % 1007,0 hPa 0,0 l/m² 14,5 km/h (3 Bft) W-SW 247 ° 0,000 mm 9,4 °C 11,7 °C 22,5 km/h (4 Bft) 100,00 %
06.05.2026 20:40 15,3 °C 68 % 1006,9 hPa 0,0 l/m² 9,7 km/h (2 Bft) SW 225 ° 0,000 mm 9,4 °C 13,6 °C 22,5 km/h (4 Bft) 100,00 %
06.05.2026 20:39 15,3 °C 68 % 1007,0 hPa 0,0 l/m² 9,7 km/h (2 Bft) SW 225 ° 0,000 mm 9,4 °C 13,6 °C 19,3 km/h (3 Bft) 95,65 %
06.05.2026 20:38 15,3 °C 68 % 1006,8 hPa 0,0 l/m² 11,3 km/h (2 Bft) W-SW 247 ° 0,000 mm 9,4 °C 12,9 °C 16,1 km/h (3 Bft) 100,00 %
06.05.2026 20:37 15,3 °C 68 % 1006,8 hPa 0,0 l/m² 9,7 km/h (2 Bft) W-SW 247 ° 0,000 mm 9,4 °C 13,6 °C 17,7 km/h (3 Bft) 100,00 %
06.05.2026 20:36 15,3 °C 68 % 1006,8 hPa 0,0 l/m² 11,3 km/h (2 Bft) W-SW 247 ° 0,000 mm 9,4 °C 12,9 °C 17,7 km/h (3 Bft) 100,00 %
06.05.2026 20:35 15,3 °C 67 % 1006,8 hPa 0,0 l/m² 9,7 km/h (2 Bft) SW 225 ° 0,000 mm 9,2 °C 13,6 °C 22,5 km/h (4 Bft) 100,00 %
06.05.2026 20:34 15,3 °C 67 % 1006,8 hPa 0,0 l/m² 6,4 km/h (2 Bft) W-SW 247 ° 0,000 mm 9,2 °C 15,3 °C 9,7 km/h (2 Bft) 100,00 %
06.05.2026 20:33 15,3 °C 67 % 1006,7 hPa 0,0 l/m² 11,3 km/h (2 Bft) SW 225 ° 0,000 mm 9,2 °C 12,9 °C 20,9 km/h (4 Bft) 100,00 %
06.05.2026 20:32 15,4 °C 67 % 1006,6 hPa 0,0 l/m² 11,3 km/h (2 Bft) SW 225 ° 0,000 mm 9,3 °C 13,0 °C 14,5 km/h (3 Bft) 100,00 %
06.05.2026 20:31 15,4 °C 67 % 1006,6 hPa 0,0 l/m² 11,3 km/h (2 Bft) W-SW 247 ° 0,000 mm 9,3 °C 13,0 °C 24,1 km/h (4 Bft) 100,00 %
06.05.2026 20:30 15,4 °C 67 % 1006,5 hPa 0,0 l/m² 9,7 km/h (2 Bft) SW 225 ° 0,000 mm 9,3 °C 13,7 °C 14,5 km/h (3 Bft) 95,65 %
06.05.2026 20:29 15,4 °C 67 % 1006,5 hPa 0,0 l/m² 9,7 km/h (2 Bft) SW 225 ° 0,000 mm 9,3 °C 13,7 °C 17,7 km/h (3 Bft) 100,00 %
06.05.2026 20:28 15,3 °C 67 % 1006,3 hPa 0,0 l/m² 11,3 km/h (2 Bft) SW 225 ° 0,000 mm 9,2 °C 12,9 °C 19,3 km/h (3 Bft) 100,00 %
06.05.2026 20:27 15,4 °C 67 % 1006,3 hPa 0,0 l/m² 8,0 km/h (2 Bft) SW 225 ° 0,000 mm 9,3 °C 14,5 °C 12,9 km/h (3 Bft) 100,00 %
06.05.2026 20:26 15,4 °C 66 % 1006,1 hPa 0,0 l/m² 12,9 km/h (3 Bft) SW 225 ° 0,000 mm 9,1 °C 12,4 °C 20,9 km/h (4 Bft) 100,00 %
06.05.2026 20:25 15,5 °C 66 % 1006,2 hPa 0,0 l/m² 11,3 km/h (2 Bft) SW 225 ° 0,000 mm 9,2 °C 13,1 °C 19,3 km/h (3 Bft) 100,00 %
06.05.2026 20:24 15,5 °C 66 % 1006,0 hPa 0,0 l/m² 12,9 km/h (3 Bft) W-SW 247 ° 0,000 mm 9,2 °C 12,5 °C 20,9 km/h (4 Bft) 100,00 %
06.05.2026 20:23 15,6 °C 66 % 1006,0 hPa 0,0 l/m² 14,5 km/h (3 Bft) W-SW 247 ° 0,000 mm 9,3 °C 12,1 °C 25,7 km/h (4 Bft) 100,00 %
06.05.2026 20:22 15,6 °C 66 % 1005,9 hPa 0,0 l/m² 8,0 km/h (2 Bft) W-SW 247 ° 0,000 mm 9,3 °C 14,7 °C 17,7 km/h (3 Bft) 100,00 %
06.05.2026 20:21 15,7 °C 66 % 1005,9 hPa 0,0 l/m² 12,9 km/h (3 Bft) W-SW 247 ° 0,000 mm 9,4 °C 12,7 °C 20,9 km/h (4 Bft) 100,00 %
06.05.2026 20:20 15,7 °C 65 % 1005,9 hPa 0,0 l/m² 12,9 km/h (3 Bft) W-SW 247 ° 0,000 mm 9,1 °C 12,7 °C 17,7 km/h (3 Bft) 100,00 %
06.05.2026 20:19 15,8 °C 65 % 1005,8 hPa 0,0 l/m² 9,7 km/h (2 Bft) W 270 ° 0,000 mm 9,2 °C 14,1 °C 20,9 km/h (4 Bft) 100,00 %
06.05.2026 20:18 15,9 °C 65 % 1005,6 hPa 0,0 l/m² 11,3 km/h (2 Bft) W-SW 247 ° 0,000 mm 9,3 °C 13,6 °C 24,1 km/h (4 Bft) 100,00 %
06.05.2026 20:17 15,9 °C 65 % 1005,8 hPa 0,0 l/m² 6,4 km/h (2 Bft) W-SW 247 ° 0,000 mm 9,3 °C 15,9 °C 20,9 km/h (4 Bft) 100,00 %
06.05.2026 20:16 16,0 °C 64 % 1005,8 hPa 0,0 l/m² 11,3 km/h (2 Bft) W-SW 247 ° 0,000 mm 9,2 °C 13,7 °C 20,9 km/h (4 Bft) 100,00 %
06.05.2026 20:15 16,1 °C 63 % 1005,8 hPa 0,0 l/m² 14,5 km/h (3 Bft) W-SW 247 ° 0,000 mm 9,1 °C 12,7 °C 24,1 km/h (4 Bft) 100,00 %
06.05.2026 20:14 16,3 °C 63 % 1005,7 hPa 0,0 l/m² 12,9 km/h (3 Bft) W-SW 247 ° 0,000 mm 9,2 °C 13,4 °C 22,5 km/h (4 Bft) 100,00 %
06.05.2026 20:13 16,4 °C 63 % 1005,7 hPa 0,0 l/m² 12,9 km/h (3 Bft) SW 225 ° 0,000 mm 9,3 °C 13,6 °C 27,4 km/h (4 Bft) 100,00 %
06.05.2026 20:12 16,6 °C 62 % 1005,6 hPa 0,0 l/m² 12,9 km/h (3 Bft) W-SW 247 ° 0,000 mm 9,3 °C 13,8 °C 20,9 km/h (4 Bft) 100,00 %
06.05.2026 20:11 16,8 °C 62 % 1005,6 hPa 0,0 l/m² 8,0 km/h (2 Bft) W-SW 247 ° 0,000 mm 9,5 °C 16,0 °C 16,1 km/h (3 Bft) 100,00 %
06.05.2026 20:10 16,9 °C 61 % 1005,6 hPa 0,0 l/m² 12,9 km/h (3 Bft) W-NW 292 ° 0,000 mm 9,3 °C 14,2 °C 20,9 km/h (4 Bft) 100,00 %
06.05.2026 20:09 17,2 °C 60 % 1005,5 hPa 0,0 l/m² 9,7 km/h (2 Bft) W 270 ° 0,000 mm 9,4 °C 15,7 °C 22,5 km/h (4 Bft) 100,00 %
06.05.2026 20:08 17,4 °C 59 % 1005,6 hPa 0,0 l/m² 9,7 km/h (2 Bft) W 270 ° 0,000 mm 9,3 °C 15,9 °C 16,1 km/h (3 Bft) 100,00 %
06.05.2026 20:07 17,7 °C 59 % 1005,6 hPa 0,0 l/m² 6,4 km/h (2 Bft) W-SW 247 ° 0,000 mm 9,6 °C 17,7 °C 12,9 km/h (3 Bft) 100,00 %
06.05.2026 20:06 17,9 °C 58 % 1005,6 hPa 0,0 l/m² 9,7 km/h (2 Bft) W-NW 292 ° 0,000 mm 9,5 °C 16,4 °C 20,9 km/h (4 Bft) 100,00 %
06.05.2026 20:05 18,3 °C 57 % 1005,5 hPa 0,0 l/m² 4,8 km/h (1 Bft) W 270 ° 0,000 mm 9,6 °C 18,3 °C 12,9 km/h (3 Bft) 100,00 %
06.05.2026 20:04 18,6 °C 56 % 1005,5 hPa 0,0 l/m² 9,7 km/h (2 Bft) W-SW 247 ° 0,000 mm 9,6 °C 17,2 °C 17,7 km/h (3 Bft) 100,00 %
06.05.2026 20:03 19,0 °C 54 % 1005,4 hPa 0,0 l/m² 12,9 km/h (3 Bft) SW 225 ° 0,000 mm 9,5 °C 16,6 °C 27,4 km/h (4 Bft) 95,65 %
06.05.2026 20:02 19,4 °C 53 % 1005,4 hPa 0,0 l/m² 11,3 km/h (2 Bft) W 270 ° 0,000 mm 9,6 °C 17,6 °C 19,3 km/h (3 Bft) 100,00 %
06.05.2026 20:01 19,8 °C 52 % 1005,2 hPa 0,0 l/m² 9,7 km/h (2 Bft) W-NW 292 ° 0,000 mm 9,7 °C 18,5 °C 19,3 km/h (3 Bft) 95,65 %
06.05.2026 20:00 20,2 °C 50 % 1005,2 hPa 0,0 l/m² 12,9 km/h (3 Bft) W 270 ° 0,000 mm 9,4 °C 18,0 °C 27,4 km/h (4 Bft) 100,00 %
06.05.2026 19:59 20,6 °C 48 % 1004,9 hPa 0,0 l/m² 12,9 km/h (3 Bft) W 270 ° 0,000 mm 9,2 °C 18,5 °C 29,0 km/h (5 Bft) 100,00 %
06.05.2026 19:58 21,0 °C 46 % 1004,8 hPa 0,0 l/m² 8,0 km/h (2 Bft) SW 225 ° 0,000 mm 8,9 °C 20,4 °C 16,1 km/h (3 Bft) 100,00 %
06.05.2026 19:57 21,3 °C 44 % 1005,0 hPa 0,0 l/m² 12,9 km/h (3 Bft) W-SW 247 ° 0,000 mm 8,5 °C 19,3 °C 22,5 km/h (4 Bft) 100,00 %
06.05.2026 19:56 21,5 °C 43 % 1004,9 hPa 0,0 l/m² 11,3 km/h (2 Bft) W 270 ° 0,000 mm 8,4 °C 19,9 °C 24,1 km/h (4 Bft) 100,00 %
06.05.2026 19:55 21,6 °C 42 % 1004,7 hPa 0,0 l/m² 14,5 km/h (3 Bft) W-SW 247 ° 0,000 mm 8,1 °C 19,3 °C 20,9 km/h (4 Bft) 100,00 %
06.05.2026 19:54 21,6 °C 42 % 1004,5 hPa 0,0 l/m² 16,1 km/h (3 Bft) W-SW 247 ° 0,000 mm 8,1 °C 19,0 °C 24,1 km/h (4 Bft) 95,65 %
06.05.2026 19:53 21,7 °C 42 % 1004,3 hPa 0,0 l/m² 11,3 km/h (2 Bft) W-SW 247 ° 0,000 mm 8,2 °C 20,2 °C 19,3 km/h (3 Bft) 100,00 %
06.05.2026 19:52 21,7 °C 42 % 1004,0 hPa 0,0 l/m² 12,9 km/h (3 Bft) SW 225 ° 0,000 mm 8,2 °C 19,8 °C 22,5 km/h (4 Bft) 100,00 %
06.05.2026 19:51 21,7 °C 41 % 1003,8 hPa 0,0 l/m² 12,9 km/h (3 Bft) S 180 ° 0,000 mm 7,9 °C 19,8 °C 19,3 km/h (3 Bft) 100,00 %
06.05.2026 19:50 21,7 °C 41 % 1003,7 hPa 0,0 l/m² 11,3 km/h (2 Bft) S 180 ° 0,000 mm 7,9 °C 20,2 °C 24,1 km/h (4 Bft) 100,00 %
06.05.2026 19:49 21,7 °C 41 % 1003,7 hPa 0,0 l/m² 11,3 km/h (2 Bft) S 180 ° 0,000 mm 7,9 °C 20,2 °C 17,7 km/h (3 Bft) 100,00 %
06.05.2026 19:48 21,7 °C 41 % 1003,6 hPa 0,0 l/m² 12,9 km/h (3 Bft) S 180 ° 0,000 mm 7,9 °C 19,8 °C 17,7 km/h (3 Bft) 100,00 %
06.05.2026 19:47 21,7 °C 41 % 1003,5 hPa 0,0 l/m² 12,9 km/h (3 Bft) S 180 ° 0,000 mm 7,9 °C 19,8 °C 24,1 km/h (4 Bft) 100,00 %
06.05.2026 19:46 21,7 °C 41 % 1003,4 hPa 0,0 l/m² 9,7 km/h (2 Bft) S-SO 157 ° 0,000 mm 7,9 °C 20,6 °C 16,1 km/h (3 Bft) 100,00 %
06.05.2026 19:45 21,7 °C 41 % 1003,4 hPa 0,0 l/m² 14,5 km/h (3 Bft) O-SO 112 ° 0,000 mm 7,9 °C 19,4 °C 22,5 km/h (4 Bft) 100,00 %
06.05.2026 19:44 21,7 °C 42 % 1003,3 hPa 0,0 l/m² 16,1 km/h (3 Bft) S 180 ° 0,000 mm 8,2 °C 19,1 °C 22,5 km/h (4 Bft) 95,65 %
06.05.2026 19:43 21,7 °C 42 % 1003,3 hPa 0,0 l/m² 9,7 km/h (2 Bft) S-SO 157 ° 0,000 mm 8,2 °C 20,6 °C 16,1 km/h (3 Bft) 100,00 %
06.05.2026 19:42 21,7 °C 42 % 1003,2 hPa 0,0 l/m² 11,3 km/h (2 Bft) O-SO 112 ° 0,000 mm 8,2 °C 20,2 °C 17,7 km/h (3 Bft) 95,65 %
06.05.2026 19:41 21,7 °C 41 % 1003,1 hPa 0,0 l/m² 16,1 km/h (3 Bft) S 180 ° 0,000 mm 7,9 °C 19,1 °C 25,7 km/h (4 Bft) 100,00 %
06.05.2026 19:40 21,7 °C 41 % 1003,2 hPa 0,0 l/m² 14,5 km/h (3 Bft) O-SO 112 ° 0,000 mm 7,9 °C 19,4 °C 22,5 km/h (4 Bft) 100,00 %
06.05.2026 19:39 21,8 °C 42 % 1003,0 hPa 0,0 l/m² 12,9 km/h (3 Bft) S 180 ° 0,000 mm 8,3 °C 19,9 °C 19,3 km/h (3 Bft) 100,00 %
06.05.2026 19:38 21,8 °C 42 % 1003,1 hPa 0,0 l/m² 9,7 km/h (2 Bft) O-SO 112 ° 0,000 mm 8,3 °C 20,7 °C 17,7 km/h (3 Bft) 100,00 %
06.05.2026 19:37 21,8 °C 42 % 1003,1 hPa 0,0 l/m² 16,1 km/h (3 Bft) O-SO 112 ° 0,000 mm 8,3 °C 19,2 °C 20,9 km/h (4 Bft) 100,00 %
06.05.2026 19:36 21,8 °C 42 % 1003,1 hPa 0,0 l/m² 14,5 km/h (3 Bft) O-SO 112 ° 0,000 mm 8,3 °C 19,5 °C 22,5 km/h (4 Bft) 95,65 %
06.05.2026 19:35 21,8 °C 42 % 1003,1 hPa 0,0 l/m² 16,1 km/h (3 Bft) S-SO 157 ° 0,000 mm 8,3 °C 19,2 °C 22,5 km/h (4 Bft) 100,00 %
06.05.2026 19:34 21,8 °C 42 % 1003,0 hPa 0,0 l/m² 16,1 km/h (3 Bft) S-SO 157 ° 0,000 mm 8,3 °C 19,2 °C 24,1 km/h (4 Bft) 95,65 %
06.05.2026 19:33 21,8 °C 42 % 1003,0 hPa 0,0 l/m² 11,3 km/h (2 Bft) S 180 ° 0,000 mm 8,3 °C 20,3 °C 17,7 km/h (3 Bft) 100,00 %
06.05.2026 19:32 21,8 °C 42 % 1002,9 hPa 0,0 l/m² 12,9 km/h (3 Bft) S 180 ° 0,000 mm 8,3 °C 19,9 °C 19,3 km/h (3 Bft) 100,00 %
06.05.2026 19:31 21,9 °C 42 % 1002,8 hPa 0,0 l/m² 11,3 km/h (2 Bft) O-SO 112 ° 0,000 mm 8,4 °C 20,4 °C 16,1 km/h (3 Bft) 100,00 %
06.05.2026 19:30 21,9 °C 42 % 1002,9 hPa 0,0 l/m² 11,3 km/h (2 Bft) S-SO 157 ° 0,000 mm 8,4 °C 20,4 °C 17,7 km/h (3 Bft) 100,00 %
06.05.2026 19:29 21,9 °C 42 % 1002,8 hPa 0,0 l/m² 9,7 km/h (2 Bft) S-SO 157 ° 0,000 mm 8,4 °C 20,8 °C 12,9 km/h (3 Bft) 100,00 %
06.05.2026 19:28 22,0 °C 41 % 1002,9 hPa 0,0 l/m² 11,3 km/h (2 Bft) SO 135 ° 0,000 mm 8,1 °C 20,5 °C 17,7 km/h (3 Bft) 100,00 %
06.05.2026 19:27 22,0 °C 41 % 1002,8 hPa 0,0 l/m² 12,9 km/h (3 Bft) O 90 ° 0,000 mm 8,1 °C 20,1 °C 20,9 km/h (4 Bft) 100,00 %
06.05.2026 19:26 22,0 °C 41 % 1002,8 hPa 0,0 l/m² 12,9 km/h (3 Bft) S 180 ° 0,000 mm 8,1 °C 20,1 °C 19,3 km/h (3 Bft) 100,00 %
06.05.2026 19:25 22,1 °C 41 % 1002,9 hPa 0,0 l/m² 12,9 km/h (3 Bft) S 180 ° 0,000 mm 8,2 °C 20,2 °C 19,3 km/h (3 Bft) 95,65 %
06.05.2026 19:24 22,1 °C 41 % 1002,8 hPa 0,0 l/m² 9,7 km/h (2 Bft) O-SO 112 ° 0,000 mm 8,2 °C 21,0 °C 11,3 km/h (2 Bft) 100,00 %
06.05.2026 19:23 22,1 °C 41 % 1002,7 hPa 0,0 l/m² 12,9 km/h (3 Bft) S-SO 157 ° 0,000 mm 8,2 °C 20,2 °C 20,9 km/h (4 Bft) 100,00 %
06.05.2026 19:22 22,2 °C 41 % 1002,7 hPa 0,0 l/m² 12,9 km/h (3 Bft) SO 135 ° 0,000 mm 8,3 °C 20,4 °C 17,7 km/h (3 Bft) 95,65 %
06.05.2026 19:21 22,2 °C 41 % 1002,6 hPa 0,0 l/m² 14,5 km/h (3 Bft) SO 135 ° 0,000 mm 8,3 °C 20,0 °C 22,5 km/h (4 Bft) 100,00 %
06.05.2026 19:20 22,2 °C 40 % 1002,6 hPa 0,0 l/m² 16,1 km/h (3 Bft) O-SO 112 ° 0,000 mm 8,0 °C 19,7 °C 24,1 km/h (4 Bft) 100,00 %
06.05.2026 19:19 22,2 °C 41 % 1002,5 hPa 0,0 l/m² 19,3 km/h (3 Bft) O-SO 112 ° 0,000 mm 8,3 °C 19,2 °C 30,6 km/h (5 Bft) 100,00 %
06.05.2026 19:18 22,3 °C 40 % 1002,5 hPa 0,0 l/m² 19,3 km/h (3 Bft) S-SO 157 ° 0,000 mm 8,0 °C 19,3 °C 33,8 km/h (5 Bft) 95,65 %
06.05.2026 19:17 22,3 °C 40 % 1002,3 hPa 0,0 l/m² 19,3 km/h (3 Bft) SO 135 ° 0,000 mm 8,0 °C 19,3 °C 27,4 km/h (4 Bft) 100,00 %
06.05.2026 19:16 22,3 °C 40 % 1002,4 hPa 0,0 l/m² 14,5 km/h (3 Bft) S-SO 157 ° 0,000 mm 8,0 °C 20,1 °C 22,5 km/h (4 Bft) 100,00 %
06.05.2026 19:15 22,4 °C 40 % 1002,4 hPa 0,0 l/m² 22,5 km/h (4 Bft) SO 135 ° 0,000 mm 8,1 °C 19,0 °C 29,0 km/h (5 Bft) 95,65 %
06.05.2026 19:14 22,4 °C 40 % 1002,4 hPa 0,0 l/m² 14,5 km/h (3 Bft) SO 135 ° 0,000 mm 8,1 °C 20,3 °C 24,1 km/h (4 Bft) 100,00 %
06.05.2026 19:13 22,5 °C 40 % 1002,4 hPa 0,0 l/m² 17,7 km/h (3 Bft) O-SO 112 ° 0,000 mm 8,2 °C 19,8 °C 25,7 km/h (4 Bft) 100,00 %
06.05.2026 19:12 22,6 °C 40 % 1002,4 hPa 0,0 l/m² 24,1 km/h (4 Bft) SO 135 ° 0,000 mm 8,3 °C 19,0 °C 33,8 km/h (5 Bft) 100,00 %
06.05.2026 19:11 22,7 °C 40 % 1002,4 hPa 0,0 l/m² 20,9 km/h (4 Bft) O-SO 112 ° 0,000 mm 8,4 °C 19,6 °C 30,6 km/h (5 Bft) 100,00 %
06.05.2026 19:10 22,7 °C 40 % 1002,5 hPa 0,0 l/m² 24,1 km/h (4 Bft) SO 135 ° 0,000 mm 8,4 °C 19,1 °C 33,8 km/h (5 Bft) 95,65 %
06.05.2026 19:09 22,8 °C 40 % 1002,5 hPa 0,0 l/m² 19,3 km/h (3 Bft) SO 135 ° 0,000 mm 8,5 °C 19,9 °C 33,8 km/h (5 Bft) 100,00 %
06.05.2026 19:08 22,9 °C 40 % 1002,4 hPa 0,0 l/m² 14,5 km/h (3 Bft) SO 135 ° 0,000 mm 8,6 °C 20,9 °C 19,3 km/h (3 Bft) 100,00 %
06.05.2026 19:07 23,1 °C 39 % 1002,4 hPa 0,0 l/m² 16,1 km/h (3 Bft) S 180 ° 0,000 mm 8,4 °C 20,8 °C 27,4 km/h (4 Bft) 100,00 %
06.05.2026 19:06 23,2 °C 39 % 1002,4 hPa 0,0 l/m² 20,9 km/h (4 Bft) O-SO 112 ° 0,000 mm 8,5 °C 20,2 °C 30,6 km/h (5 Bft) 100,00 %
06.05.2026 19:05 23,3 °C 39 % 1002,4 hPa 0,0 l/m² 25,7 km/h (4 Bft) O-SO 112 ° 0,000 mm 8,6 °C 19,8 °C 35,4 km/h (5 Bft) 100,00 %
06.05.2026 19:04 23,4 °C 39 % 1002,4 hPa 0,0 l/m² 17,7 km/h (3 Bft) SO 135 ° 0,000 mm 8,6 °C 20,9 °C 35,4 km/h (5 Bft) 100,00 %
06.05.2026 19:03 23,4 °C 39 % 1002,5 hPa 0,0 l/m² 19,3 km/h (3 Bft) O-SO 112 ° 0,000 mm 8,6 °C 20,7 °C 25,7 km/h (4 Bft) 95,65 %
06.05.2026 19:02 23,6 °C 39 % 1002,6 hPa 0,0 l/m² 16,1 km/h (3 Bft) SO 135 ° 0,000 mm 8,8 °C 21,4 °C 30,6 km/h (5 Bft) 100,00 %
06.05.2026 19:01 23,6 °C 39 % 1002,5 hPa 0,0 l/m² 11,3 km/h (2 Bft) S-SO 157 ° 0,000 mm 8,8 °C 22,3 °C 30,6 km/h (5 Bft) 100,00 %
06.05.2026 19:00 23,6 °C 39 % 1002,6 hPa 0,0 l/m² 16,1 km/h (3 Bft) SO 135 ° 0,000 mm 8,8 °C 21,4 °C 25,7 km/h (4 Bft) 95,65 %
06.05.2026 18:59 23,6 °C 39 % 1002,5 hPa 0,0 l/m² 12,9 km/h (3 Bft) SO 135 ° 0,000 mm 8,8 °C 22,0 °C 19,3 km/h (3 Bft) 100,00 %
06.05.2026 18:58 23,7 °C 39 % 1002,5 hPa 0,0 l/m² 11,3 km/h (2 Bft) S-SO 157 ° 0,000 mm 8,9 °C 22,4 °C 19,3 km/h (3 Bft) 100,00 %
06.05.2026 18:57 23,7 °C 38 % 1002,6 hPa 0,0 l/m² 14,5 km/h (3 Bft) O-SO 112 ° 0,000 mm 8,5 °C 21,8 °C 20,9 km/h (4 Bft) 100,00 %
06.05.2026 18:56 23,7 °C 38 % 1002,6 hPa 0,0 l/m² 16,1 km/h (3 Bft) SO 135 ° 0,000 mm 8,5 °C 21,6 °C 22,5 km/h (4 Bft) 100,00 %
06.05.2026 18:55 23,7 °C 39 % 1002,6 hPa 0,0 l/m² 9,7 km/h (2 Bft) S-SO 157 ° 0,000 mm 8,9 °C 22,8 °C 16,1 km/h (3 Bft) 100,00 %
06.05.2026 18:54 23,7 °C 39 % 1002,7 hPa 0,0 l/m² 6,4 km/h (2 Bft) S 180 ° 0,000 mm 8,9 °C 23,7 °C 11,3 km/h (2 Bft) 100,00 %
06.05.2026 18:53 23,7 °C 38 % 1002,6 hPa 0,0 l/m² 12,9 km/h (3 Bft) S-SO 157 ° 0,000 mm 8,5 °C 22,1 °C 16,1 km/h (3 Bft) 100,00 %
06.05.2026 18:52 23,7 °C 38 % 1002,7 hPa 0,0 l/m² 9,7 km/h (2 Bft) SO 135 ° 0,000 mm 8,5 °C 22,8 °C 12,9 km/h (3 Bft) 100,00 %
06.05.2026 18:51 23,8 °C 39 % 1002,6 hPa 0,0 l/m² 9,7 km/h (2 Bft) O-SO 112 ° 0,000 mm 9,0 °C 22,9 °C 19,3 km/h (3 Bft) 100,00 %
06.05.2026 18:50 23,8 °C 39 % 1002,7 hPa 0,0 l/m² 11,3 km/h (2 Bft) SO 135 ° 0,000 mm 9,0 °C 22,6 °C 14,5 km/h (3 Bft) 100,00 %
06.05.2026 18:49 23,8 °C 38 % 1002,8 hPa 0,0 l/m² 11,3 km/h (2 Bft) O-SO 112 ° 0,000 mm 8,6 °C 22,6 °C 16,1 km/h (3 Bft) 95,65 %
06.05.2026 18:48 23,8 °C 38 % 1002,8 hPa 0,0 l/m² 11,3 km/h (2 Bft) SO 135 ° 0,000 mm 8,6 °C 22,6 °C 14,5 km/h (3 Bft) 100,00 %
06.05.2026 18:47 23,8 °C 37 % 1002,9 hPa 0,0 l/m² 11,3 km/h (2 Bft) O-SO 112 ° 0,000 mm 8,2 °C 22,6 °C 17,7 km/h (3 Bft) 100,00 %
06.05.2026 18:46 23,9 °C 38 % 1002,9 hPa 0,0 l/m² 19,3 km/h (3 Bft) O-SO 112 ° 0,000 mm 8,7 °C 21,3 °C 25,7 km/h (4 Bft) 100,00 %
06.05.2026 18:45 23,9 °C 39 % 1002,9 hPa 0,0 l/m² 12,9 km/h (3 Bft) SO 135 ° 0,000 mm 9,1 °C 22,3 °C 20,9 km/h (4 Bft) 100,00 %
06.05.2026 18:44 23,9 °C 39 % 1003,0 hPa 0,0 l/m² 8,0 km/h (2 Bft) S 180 ° 0,000 mm 9,1 °C 23,4 °C 12,9 km/h (3 Bft) 95,65 %
06.05.2026 18:43 23,9 °C 39 % 1003,2 hPa 0,0 l/m² 6,4 km/h (2 Bft) S-SW 202 ° 0,000 mm 9,1 °C 23,9 °C 11,3 km/h (2 Bft) 100,00 %
06.05.2026 18:42 23,9 °C 38 % 1003,1 hPa 0,0 l/m² 4,8 km/h (1 Bft) O 90 ° 0,000 mm 8,7 °C 23,9 °C 11,3 km/h (2 Bft) 100,00 %
06.05.2026 18:41 23,8 °C 38 % 1003,1 hPa 0,0 l/m² 6,4 km/h (2 Bft) S 180 ° 0,000 mm 8,6 °C 23,8 °C 11,3 km/h (2 Bft) 100,00 %
06.05.2026 18:40 23,8 °C 38 % 1003,1 hPa 0,0 l/m² 6,4 km/h (2 Bft) S-SO 157 ° 0,000 mm 8,6 °C 23,8 °C 11,3 km/h (2 Bft) 100,00 %
06.05.2026 18:39 23,7 °C 38 % 1003,2 hPa 0,0 l/m² 4,8 km/h (1 Bft) S-SW 202 ° 0,000 mm 8,5 °C 23,7 °C 8,0 km/h (2 Bft) 100,00 %
06.05.2026 18:38 23,7 °C 38 % 1003,3 hPa 0,0 l/m² 8,0 km/h (2 Bft) O-SO 112 ° 0,000 mm 8,5 °C 23,2 °C 12,9 km/h (3 Bft) 100,00 %
06.05.2026 18:37 23,7 °C 38 % 1003,2 hPa 0,0 l/m² 12,9 km/h (3 Bft) S-SO 157 ° 0,000 mm 8,5 °C 22,1 °C 17,7 km/h (3 Bft) 95,65 %
06.05.2026 18:36 23,7 °C 38 % 1003,2 hPa 0,0 l/m² 14,5 km/h (3 Bft) SO 135 ° 0,000 mm 8,5 °C 21,8 °C 19,3 km/h (3 Bft) 100,00 %
06.05.2026 18:35 23,7 °C 38 % 1003,3 hPa 0,0 l/m² 11,3 km/h (2 Bft) O-SO 112 ° 0,000 mm 8,5 °C 22,4 °C 19,3 km/h (3 Bft) 100,00 %
06.05.2026 18:34 23,7 °C 39 % 1003,3 hPa 0,0 l/m² 14,5 km/h (3 Bft) O-SO 112 ° 0,000 mm 8,9 °C 21,8 °C 24,1 km/h (4 Bft) 100,00 %
06.05.2026 18:33 23,7 °C 38 % 1003,3 hPa 0,0 l/m² 12,9 km/h (3 Bft) S-SO 157 ° 0,000 mm 8,5 °C 22,1 °C 22,5 km/h (4 Bft) 100,00 %
06.05.2026 18:32 23,7 °C 38 % 1003,3 hPa 0,0 l/m² 14,5 km/h (3 Bft) O-SO 112 ° 0,000 mm 8,5 °C 21,8 °C 20,9 km/h (4 Bft) 100,00 %
06.05.2026 18:31 23,7 °C 39 % 1003,4 hPa 0,0 l/m² 11,3 km/h (2 Bft) S-SO 157 ° 0,000 mm 8,9 °C 22,4 °C 16,1 km/h (3 Bft) 100,00 %
06.05.2026 18:30 23,7 °C 38 % 1003,3 hPa 0,0 l/m² 11,3 km/h (2 Bft) S-SO 157 ° 0,000 mm 8,5 °C 22,4 °C 16,1 km/h (3 Bft) 100,00 %
06.05.2026 18:29 23,6 °C 39 % 1003,3 hPa 0,0 l/m² 6,4 km/h (2 Bft) S-SO 157 ° 0,000 mm 8,8 °C 23,6 °C 11,3 km/h (2 Bft) 95,65 %
06.05.2026 18:28 23,6 °C 38 % 1003,3 hPa 0,0 l/m² 12,9 km/h (3 Bft) SO 135 ° 0,000 mm 8,4 °C 22,0 °C 17,7 km/h (3 Bft) 100,00 %
06.05.2026 18:27 23,6 °C 39 % 1003,3 hPa 0,0 l/m² 12,9 km/h (3 Bft) O-SO 112 ° 0,000 mm 8,8 °C 22,0 °C 19,3 km/h (3 Bft) 100,00 %
06.05.2026 18:26 23,6 °C 39 % 1003,3 hPa 0,0 l/m² 9,7 km/h (2 Bft) SO 135 ° 0,000 mm 8,8 °C 22,7 °C 19,3 km/h (3 Bft) 100,00 %
06.05.2026 18:25 23,6 °C 39 % 1003,3 hPa 0,0 l/m² 11,3 km/h (2 Bft) O-SO 112 ° 0,000 mm 8,8 °C 22,3 °C 16,1 km/h (3 Bft) 100,00 %
06.05.2026 18:24 23,6 °C 39 % 1003,4 hPa 0,0 l/m² 11,3 km/h (2 Bft) SO 135 ° 0,000 mm 8,8 °C 22,3 °C 16,1 km/h (3 Bft) 100,00 %
06.05.2026 18:23 23,6 °C 39 % 1003,4 hPa 0,0 l/m² 9,7 km/h (2 Bft) S 180 ° 0,000 mm 8,8 °C 22,7 °C 17,7 km/h (3 Bft) 100,00 %
06.05.2026 18:22 23,6 °C 38 % 1003,3 hPa 0,0 l/m² 12,9 km/h (3 Bft) SO 135 ° 0,000 mm 8,4 °C 22,0 °C 19,3 km/h (3 Bft) 100,00 %
06.05.2026 18:21 23,6 °C 38 % 1003,3 hPa 0,0 l/m² 12,9 km/h (3 Bft) S 180 ° 0,000 mm 8,4 °C 22,0 °C 24,1 km/h (4 Bft) 100,00 %
06.05.2026 18:20 23,6 °C 38 % 1003,1 hPa 0,0 l/m² 14,5 km/h (3 Bft) SO 135 ° 0,000 mm 8,4 °C 21,7 °C 19,3 km/h (3 Bft) 91,30 %
06.05.2026 18:19 23,6 °C 38 % 1003,2 hPa 0,0 l/m² 17,7 km/h (3 Bft) O-SO 112 ° 0,000 mm 8,4 °C 21,2 °C 25,7 km/h (4 Bft) 100,00 %
06.05.2026 18:18 23,6 °C 37 % 1003,4 hPa 0,0 l/m² 19,3 km/h (3 Bft) O-SO 112 ° 0,000 mm 8,0 °C 21,0 °C 25,7 km/h (4 Bft) 100,00 %
06.05.2026 18:17 23,7 °C 38 % 1003,3 hPa 0,0 l/m² 12,9 km/h (3 Bft) SO 135 ° 0,000 mm 8,5 °C 22,1 °C 19,3 km/h (3 Bft) 100,00 %
06.05.2026 18:16 23,7 °C 38 % 1003,4 hPa 0,0 l/m² 16,1 km/h (3 Bft) SO 135 ° 0,000 mm 8,5 °C 21,6 °C 22,5 km/h (4 Bft) 100,00 %
06.05.2026 18:15 23,7 °C 38 % 1003,3 hPa 0,0 l/m² 16,1 km/h (3 Bft) SO 135 ° 0,000 mm 8,5 °C 21,6 °C 24,1 km/h (4 Bft) 100,00 %
06.05.2026 18:14 23,7 °C 38 % 1003,4 hPa 0,0 l/m² 12,9 km/h (3 Bft) O-SO 112 ° 0,000 mm 8,5 °C 22,1 °C 20,9 km/h (4 Bft) 100,00 %
06.05.2026 18:13 23,7 °C 38 % 1003,4 hPa 0,0 l/m² 12,9 km/h (3 Bft) S-SO 157 ° 0,000 mm 8,5 °C 22,1 °C 20,9 km/h (4 Bft) 100,00 %
06.05.2026 18:12 23,7 °C 38 % 1003,4 hPa 0,0 l/m² 12,9 km/h (3 Bft) SO 135 ° 0,000 mm 8,5 °C 22,1 °C 17,7 km/h (3 Bft) 100,00 %
06.05.2026 18:11 23,7 °C 39 % 1003,3 hPa 0,0 l/m² 14,5 km/h (3 Bft) O-SO 112 ° 0,000 mm 8,9 °C 21,8 °C 19,3 km/h (3 Bft) 100,00 %
06.05.2026 18:10 23,7 °C 38 % 1003,3 hPa 0,0 l/m² 16,1 km/h (3 Bft) S-SO 157 ° 0,000 mm 8,5 °C 21,6 °C 27,4 km/h (4 Bft) 100,00 %
06.05.2026 18:09 23,7 °C 38 % 1003,4 hPa 0,0 l/m² 12,9 km/h (3 Bft) SO 135 ° 0,000 mm 8,5 °C 22,1 °C 25,7 km/h (4 Bft) 100,00 %
06.05.2026 18:08 23,7 °C 38 % 1003,4 hPa 0,0 l/m² 14,5 km/h (3 Bft) S-SO 157 ° 0,000 mm 8,5 °C 21,8 °C 20,9 km/h (4 Bft) 95,65 %
06.05.2026 18:07 23,8 °C 38 % 1003,6 hPa 0,0 l/m² 17,7 km/h (3 Bft) O-SO 112 ° 0,000 mm 8,6 °C 21,4 °C 25,7 km/h (4 Bft) 100,00 %
06.05.2026 18:06 23,8 °C 38 % 1003,4 hPa 0,0 l/m² 16,1 km/h (3 Bft) O-SO 112 ° 0,000 mm 8,6 °C 21,7 °C 19,3 km/h (3 Bft) 100,00 %
06.05.2026 18:05 23,8 °C 38 % 1003,3 hPa 0,0 l/m² 12,9 km/h (3 Bft) O-SO 112 ° 0,000 mm 8,6 °C 22,2 °C 19,3 km/h (3 Bft) 95,65 %
06.05.2026 18:04 23,9 °C 37 % 1003,4 hPa 0,0 l/m² 17,7 km/h (3 Bft) S-SO 157 ° 0,000 mm 8,3 °C 21,6 °C 25,7 km/h (4 Bft) 100,00 %
06.05.2026 18:03 23,9 °C 38 % 1003,4 hPa 0,0 l/m² 9,7 km/h (2 Bft) S 180 ° 0,000 mm 8,7 °C 23,0 °C 16,1 km/h (3 Bft) 100,00 %
06.05.2026 18:02 23,9 °C 39 % 1003,5 hPa 0,0 l/m² 8,0 km/h (2 Bft) S 180 ° 0,000 mm 9,1 °C 23,4 °C 12,9 km/h (3 Bft) 100,00 %
06.05.2026 18:01 23,9 °C 38 % 1003,5 hPa 0,0 l/m² 11,3 km/h (2 Bft) O-SO 112 ° 0,000 mm 8,7 °C 22,7 °C 14,5 km/h (3 Bft) 95,65 %
06.05.2026 18:00 23,9 °C 38 % 1003,5 hPa 0,0 l/m² 9,7 km/h (2 Bft) S-SO 157 ° 0,000 mm 8,7 °C 23,0 °C 14,5 km/h (3 Bft) 100,00 %
06.05.2026 17:59 23,9 °C 38 % 1003,5 hPa 0,0 l/m² 11,3 km/h (2 Bft) S-SO 157 ° 0,000 mm 8,7 °C 22,7 °C 17,7 km/h (3 Bft) 100,00 %
06.05.2026 17:58 23,9 °C 38 % 1003,5 hPa 0,0 l/m² 11,3 km/h (2 Bft) O-SO 112 ° 0,000 mm 8,7 °C 22,7 °C 17,7 km/h (3 Bft) 95,65 %
06.05.2026 17:57 23,9 °C 38 % 1003,5 hPa 0,0 l/m² 8,0 km/h (2 Bft) O-SO 112 ° 0,000 mm 8,7 °C 23,4 °C 11,3 km/h (2 Bft) 100,00 %
06.05.2026 17:56 23,9 °C 38 % 1003,6 hPa 0,0 l/m² 8,0 km/h (2 Bft) S-SO 157 ° 0,000 mm 8,7 °C 23,4 °C 12,9 km/h (3 Bft) 100,00 %
06.05.2026 17:55 23,9 °C 38 % 1003,6 hPa 0,0 l/m² 11,3 km/h (2 Bft) O-SO 112 ° 0,000 mm 8,7 °C 22,7 °C 14,5 km/h (3 Bft) 100,00 %
06.05.2026 17:54 23,9 °C 38 % 1003,5 hPa 0,0 l/m² 12,9 km/h (3 Bft) SO 135 ° 0,000 mm 8,7 °C 22,3 °C 19,3 km/h (3 Bft) 100,00 %
06.05.2026 17:53 23,8 °C 38 % 1003,4 hPa 0,0 l/m² 12,9 km/h (3 Bft) O-SO 112 ° 0,000 mm 8,6 °C 22,2 °C 17,7 km/h (3 Bft) 100,00 %
06.05.2026 17:52 23,8 °C 38 % 1003,5 hPa 0,0 l/m² 9,7 km/h (2 Bft) O-SO 112 ° 0,000 mm 8,6 °C 22,9 °C 17,7 km/h (3 Bft) 100,00 %
06.05.2026 17:51 23,7 °C 38 % 1003,4 hPa 0,0 l/m² 8,0 km/h (2 Bft) S 180 ° 0,000 mm 8,5 °C 23,2 °C 12,9 km/h (3 Bft) 100,00 %
06.05.2026 17:50 23,7 °C 38 % 1003,5 hPa 0,0 l/m² 9,7 km/h (2 Bft) S-SO 157 ° 0,000 mm 8,5 °C 22,8 °C 14,5 km/h (3 Bft) 95,65 %
06.05.2026 17:49 23,6 °C 38 % 1003,4 hPa 0,0 l/m² 9,7 km/h (2 Bft) S-SO 157 ° 0,000 mm 8,4 °C 22,7 °C 14,5 km/h (3 Bft) 100,00 %
06.05.2026 17:48 23,6 °C 38 % 1003,4 hPa 0,0 l/m² 16,1 km/h (3 Bft) O-SO 112 ° 0,000 mm 8,4 °C 21,4 °C 29,0 km/h (5 Bft) 100,00 %
06.05.2026 17:47 23,6 °C 38 % 1003,4 hPa 0,0 l/m² 19,3 km/h (3 Bft) O-SO 112 ° 0,000 mm 8,4 °C 21,0 °C 29,0 km/h (5 Bft) 100,00 %
06.05.2026 17:46 23,6 °C 39 % 1003,4 hPa 0,0 l/m² 6,4 km/h (2 Bft) S 180 ° 0,000 mm 8,8 °C 23,6 °C 9,7 km/h (2 Bft) 100,00 %
06.05.2026 17:45 23,6 °C 38 % 1003,4 hPa 0,0 l/m² 8,0 km/h (2 Bft) S 180 ° 0,000 mm 8,4 °C 23,1 °C 11,3 km/h (2 Bft) 100,00 %
06.05.2026 17:44 23,7 °C 37 % 1003,4 hPa 0,0 l/m² 12,9 km/h (3 Bft) S-SO 157 ° 0,000 mm 8,1 °C 22,1 °C 20,9 km/h (4 Bft) 100,00 %
06.05.2026 17:43 23,7 °C 38 % 1003,4 hPa 0,0 l/m² 14,5 km/h (3 Bft) SO 135 ° 0,000 mm 8,5 °C 21,8 °C 24,1 km/h (4 Bft) 100,00 %
06.05.2026 17:42 23,8 °C 38 % 1003,4 hPa 0,0 l/m² 16,1 km/h (3 Bft) SO 135 ° 0,000 mm 8,6 °C 21,7 °C 22,5 km/h (4 Bft) 100,00 %
06.05.2026 17:41 23,9 °C 38 % 1003,4 hPa 0,0 l/m² 14,5 km/h (3 Bft) SO 135 ° 0,000 mm 8,7 °C 22,1 °C 20,9 km/h (4 Bft) 100,00 %
06.05.2026 17:40 23,9 °C 38 % 1003,5 hPa 0,0 l/m² 14,5 km/h (3 Bft) O-SO 112 ° 0,000 mm 8,7 °C 22,1 °C 22,5 km/h (4 Bft) 100,00 %
06.05.2026 17:39 23,9 °C 38 % 1003,4 hPa 0,0 l/m² 17,7 km/h (3 Bft) SO 135 ° 0,000 mm 8,7 °C 21,6 °C 27,4 km/h (4 Bft) 95,65 %
06.05.2026 17:38 23,9 °C 38 % 1003,5 hPa 0,0 l/m² 16,1 km/h (3 Bft) O-SO 112 ° 0,000 mm 8,7 °C 21,8 °C 22,5 km/h (4 Bft) 100,00 %
06.05.2026 17:37 24,0 °C 37 % 1003,4 hPa 0,0 l/m² 19,3 km/h (3 Bft) SO 135 ° 0,000 mm 8,4 °C 21,5 °C 25,7 km/h (4 Bft) 100,00 %
06.05.2026 17:36 24,0 °C 38 % 1003,5 hPa 0,0 l/m² 11,3 km/h (2 Bft) SO 135 ° 0,000 mm 8,8 °C 22,8 °C 17,7 km/h (3 Bft) 95,65 %
06.05.2026 17:35 24,0 °C 39 % 1003,5 hPa 0,0 l/m² 12,9 km/h (3 Bft) O-SO 112 ° 0,000 mm 9,2 °C 22,5 °C 20,9 km/h (4 Bft) 100,00 %
06.05.2026 17:34 24,0 °C 38 % 1003,5 hPa 0,0 l/m² 11,3 km/h (2 Bft) O-SO 112 ° 0,000 mm 8,8 °C 22,8 °C 19,3 km/h (3 Bft) 100,00 %
06.05.2026 17:33 24,0 °C 38 % 1003,5 hPa 0,0 l/m² 14,5 km/h (3 Bft) O-SO 112 ° 0,000 mm 8,8 °C 22,2 °C 20,9 km/h (4 Bft) 100,00 %
06.05.2026 17:32 24,0 °C 38 % 1003,6 hPa 0,0 l/m² 16,1 km/h (3 Bft) SO 135 ° 0,000 mm 8,8 °C 21,9 °C 27,4 km/h (4 Bft) 100,00 %
06.05.2026 17:31 24,1 °C 38 % 1003,6 hPa 0,0 l/m² 17,7 km/h (3 Bft) O-SO 112 ° 0,000 mm 8,9 °C 21,8 °C 27,4 km/h (4 Bft) 100,00 %
06.05.2026 17:30 24,1 °C 37 % 1003,6 hPa 0,0 l/m² 14,5 km/h (3 Bft) O-SO 112 ° 0,000 mm 8,5 °C 22,3 °C 24,1 km/h (4 Bft) 100,00 %
06.05.2026 17:29 24,1 °C 37 % 1003,6 hPa 0,0 l/m² 12,9 km/h (3 Bft) O-SO 112 ° 0,000 mm 8,5 °C 22,6 °C 17,7 km/h (3 Bft) 100,00 %
06.05.2026 17:28 24,1 °C 38 % 1003,7 hPa 0,0 l/m² 11,3 km/h (2 Bft) S 180 ° 0,000 mm 8,9 °C 22,9 °C 14,5 km/h (3 Bft) 95,65 %
06.05.2026 17:27 24,1 °C 38 % 1003,7 hPa 0,0 l/m² 9,7 km/h (2 Bft) SO 135 ° 0,000 mm 8,9 °C 23,2 °C 14,5 km/h (3 Bft) 100,00 %
06.05.2026 17:26 24,1 °C 38 % 1003,7 hPa 0,0 l/m² 12,9 km/h (3 Bft) S-SO 157 ° 0,000 mm 8,9 °C 22,6 °C 17,7 km/h (3 Bft) 100,00 %
06.05.2026 17:25 24,1 °C 37 % 1003,7 hPa 0,0 l/m² 12,9 km/h (3 Bft) O-SO 112 ° 0,000 mm 8,5 °C 22,6 °C 20,9 km/h (4 Bft) 100,00 %
06.05.2026 17:24 24,1 °C 37 % 1003,7 hPa 0,0 l/m² 16,1 km/h (3 Bft) O-SO 112 ° 0,000 mm 8,5 °C 22,0 °C 20,9 km/h (4 Bft) 100,00 %
06.05.2026 17:23 24,1 °C 38 % 1003,7 hPa 0,0 l/m² 12,9 km/h (3 Bft) S 180 ° 0,000 mm 8,9 °C 22,6 °C 22,5 km/h (4 Bft) 100,00 %
06.05.2026 17:22 24,1 °C 38 % 1003,8 hPa 0,0 l/m² 9,7 km/h (2 Bft) SO 135 ° 0,000 mm 8,9 °C 23,2 °C 20,9 km/h (4 Bft) 95,65 %
06.05.2026 17:21 24,1 °C 38 % 1003,8 hPa 0,0 l/m² 9,7 km/h (2 Bft) O-SO 112 ° 0,000 mm 8,9 °C 23,2 °C 12,9 km/h (3 Bft) 100,00 %
06.05.2026 17:20 24,1 °C 37 % 1003,8 hPa 0,0 l/m² 9,7 km/h (2 Bft) S-SO 157 ° 0,000 mm 8,5 °C 23,2 °C 16,1 km/h (3 Bft) 100,00 %
06.05.2026 17:19 24,0 °C 38 % 1003,8 hPa 0,0 l/m² 9,7 km/h (2 Bft) S-SO 157 ° 0,000 mm 8,8 °C 23,1 °C 12,9 km/h (3 Bft) 95,65 %
06.05.2026 17:18 24,0 °C 37 % 1003,9 hPa 0,0 l/m² 11,3 km/h (2 Bft) S-SO 157 ° 0,000 mm 8,4 °C 22,8 °C 14,5 km/h (3 Bft) 100,00 %
06.05.2026 17:17 23,9 °C 38 % 1003,8 hPa 0,0 l/m² 8,0 km/h (2 Bft) S-SO 157 ° 0,000 mm 8,7 °C 23,4 °C 11,3 km/h (2 Bft) 95,65 %
06.05.2026 17:16 23,9 °C 39 % 1003,8 hPa 0,0 l/m² 6,4 km/h (2 Bft) S-SO 157 ° 0,000 mm 9,1 °C 23,9 °C 8,0 km/h (2 Bft) 100,00 %
06.05.2026 17:15 23,8 °C 38 % 1003,9 hPa 0,0 l/m² 8,0 km/h (2 Bft) S-SO 157 ° 0,000 mm 8,6 °C 23,3 °C 11,3 km/h (2 Bft) 100,00 %
06.05.2026 17:14 23,8 °C 38 % 1003,9 hPa 0,0 l/m² 9,7 km/h (2 Bft) O-SO 112 ° 0,000 mm 8,6 °C 22,9 °C 12,9 km/h (3 Bft) 100,00 %
06.05.2026 17:13 23,8 °C 38 % 1003,8 hPa 0,0 l/m² 8,0 km/h (2 Bft) S 180 ° 0,000 mm 8,6 °C 23,3 °C 12,9 km/h (3 Bft) 100,00 %
06.05.2026 17:12 23,8 °C 38 % 1003,8 hPa 0,0 l/m² 9,7 km/h (2 Bft) S 180 ° 0,000 mm 8,6 °C 22,9 °C 12,9 km/h (3 Bft) 100,00 %
06.05.2026 17:11 23,8 °C 38 % 1003,8 hPa 0,0 l/m² 9,7 km/h (2 Bft) S-SO 157 ° 0,000 mm 8,6 °C 22,9 °C 12,9 km/h (3 Bft) 100,00 %
06.05.2026 17:10 23,8 °C 37 % 1003,9 hPa 0,0 l/m² 9,7 km/h (2 Bft) SO 135 ° 0,000 mm 8,2 °C 22,9 °C 14,5 km/h (3 Bft) 100,00 %
06.05.2026 17:09 23,8 °C 38 % 1003,7 hPa 0,0 l/m² 8,0 km/h (2 Bft) S 180 ° 0,000 mm 8,6 °C 23,3 °C 12,9 km/h (3 Bft) 100,00 %
06.05.2026 17:08 23,8 °C 38 % 1003,7 hPa 0,0 l/m² 11,3 km/h (2 Bft) SO 135 ° 0,000 mm 8,6 °C 22,6 °C 17,7 km/h (3 Bft) 100,00 %
06.05.2026 17:07 23,8 °C 38 % 1003,8 hPa 0,0 l/m² 9,7 km/h (2 Bft) S-SO 157 ° 0,000 mm 8,6 °C 22,9 °C 14,5 km/h (3 Bft) 100,00 %
06.05.2026 17:06 23,8 °C 37 % 1003,7 hPa 0,0 l/m² 9,7 km/h (2 Bft) O 90 ° 0,000 mm 8,2 °C 22,9 °C 14,5 km/h (3 Bft) 100,00 %
06.05.2026 17:05 23,8 °C 37 % 1003,7 hPa 0,0 l/m² 11,3 km/h (2 Bft) O-SO 112 ° 0,000 mm 8,2 °C 22,6 °C 16,1 km/h (3 Bft) 95,65 %
06.05.2026 17:04 23,9 °C 37 % 1003,8 hPa 0,0 l/m² 9,7 km/h (2 Bft) S-SO 157 ° 0,000 mm 8,3 °C 23,0 °C 14,5 km/h (3 Bft) 100,00 %
06.05.2026 17:03 23,9 °C 37 % 1003,8 hPa 0,0 l/m² 12,9 km/h (3 Bft) O-SO 112 ° 0,000 mm 8,3 °C 22,3 °C 19,3 km/h (3 Bft) 100,00 %
06.05.2026 17:02 24,0 °C 37 % 1003,8 hPa 0,0 l/m² 9,7 km/h (2 Bft) O-SO 112 ° 0,000 mm 8,4 °C 23,1 °C 14,5 km/h (3 Bft) 95,65 %
06.05.2026 17:01 23,9 °C 37 % 1003,7 hPa 0,0 l/m² 12,9 km/h (3 Bft) O-SO 112 ° 0,000 mm 8,3 °C 22,3 °C 17,7 km/h (3 Bft) 100,00 %
06.05.2026 17:00 23,9 °C 38 % 1003,7 hPa 0,0 l/m² 9,7 km/h (2 Bft) S-SO 157 ° 0,000 mm 8,7 °C 23,0 °C 12,9 km/h (3 Bft) 100,00 %
06.05.2026 16:59 23,9 °C 37 % 1003,7 hPa 0,0 l/m² 11,3 km/h (2 Bft) SO 135 ° 0,000 mm 8,3 °C 22,7 °C 14,5 km/h (3 Bft) 100,00 %
06.05.2026 16:58 23,9 °C 39 % 1003,8 hPa 0,0 l/m² 6,4 km/h (2 Bft) S-SO 157 ° 0,000 mm 9,1 °C 23,9 °C 9,7 km/h (2 Bft) 100,00 %
06.05.2026 16:57 23,8 °C 40 % 1003,8 hPa 0,0 l/m² 6,4 km/h (2 Bft) O-SO 112 ° 0,000 mm 9,4 °C 23,8 °C 9,7 km/h (2 Bft) 95,65 %
06.05.2026 16:56 23,8 °C 40 % 1003,8 hPa 0,0 l/m² 11,3 km/h (2 Bft) SO 135 ° 0,000 mm 9,4 °C 22,6 °C 17,7 km/h (3 Bft) 100,00 %
06.05.2026 16:55 23,8 °C 43 % 1003,7 hPa 0,0 l/m² 8,0 km/h (2 Bft) S-SO 157 ° 0,000 mm 10,5 °C 23,3 °C 9,7 km/h (2 Bft) 100,00 %
06.05.2026 16:54 23,8 °C 44 % 1003,7 hPa 0,0 l/m² 3,2 km/h (1 Bft) S-SW 202 ° 0,000 mm 10,8 °C 23,8 °C 6,4 km/h (2 Bft) 100,00 %
06.05.2026 16:53 23,8 °C 44 % 1003,8 hPa 0,0 l/m² 3,2 km/h (1 Bft) S-SW 202 ° 0,000 mm 10,8 °C 23,8 °C 4,8 km/h (1 Bft) 100,00 %
06.05.2026 16:52 23,7 °C 43 % 1003,7 hPa 0,0 l/m² 1,6 km/h (1 Bft) S 180 ° 0,000 mm 10,4 °C 23,7 °C 4,8 km/h (1 Bft) 100,00 %
06.05.2026 16:51 23,7 °C 43 % 1003,8 hPa 0,0 l/m² 4,8 km/h (1 Bft) SW 225 ° 0,000 mm 10,4 °C 23,7 °C 6,4 km/h (2 Bft) 100,00 %
06.05.2026 16:50 23,6 °C 44 % 1003,8 hPa 0,0 l/m² 3,2 km/h (1 Bft) N 360 ° 0,000 mm 10,6 °C 23,6 °C 4,8 km/h (1 Bft) 100,00 %
06.05.2026 16:49 23,6 °C 44 % 1003,7 hPa 0,0 l/m² 4,8 km/h (1 Bft) NO 45 ° 0,000 mm 10,6 °C 23,6 °C 9,7 km/h (2 Bft) 100,00 %
06.05.2026 16:48 23,6 °C 43 % 1003,9 hPa 0,0 l/m² 3,2 km/h (1 Bft) W 270 ° 0,000 mm 10,3 °C 23,6 °C 6,4 km/h (2 Bft) 100,00 %
06.05.2026 16:47 23,6 °C 42 % 1003,8 hPa 0,0 l/m² 3,2 km/h (1 Bft) W-NW 292 ° 0,000 mm 9,9 °C 23,6 °C 8,0 km/h (2 Bft) 100,00 %
06.05.2026 16:46 23,6 °C 43 % 1003,7 hPa 0,0 l/m² 1,6 km/h (1 Bft) W 270 ° 0,000 mm 10,3 °C 23,6 °C 6,4 km/h (2 Bft) 100,00 %
06.05.2026 16:45 23,6 °C 43 % 1003,8 hPa 0,0 l/m² 4,8 km/h (1 Bft) W 270 ° 0,000 mm 10,3 °C 23,6 °C 12,9 km/h (3 Bft) 95,65 %
06.05.2026 16:44 23,6 °C 43 % 1003,8 hPa 0,0 l/m² 11,3 km/h (2 Bft) NO 45 ° 0,000 mm 10,3 °C 22,3 °C 14,5 km/h (3 Bft) 100,00 %
06.05.2026 16:43 23,6 °C 43 % 1003,8 hPa 0,0 l/m² 9,7 km/h (2 Bft) N-NO 22 ° 0,000 mm 10,3 °C 22,7 °C 16,1 km/h (3 Bft) 100,00 %
06.05.2026 16:42 23,6 °C 42 % 1003,8 hPa 0,0 l/m² 3,2 km/h (1 Bft) N 360 ° 0,000 mm 9,9 °C 23,6 °C 8,0 km/h (2 Bft) 100,00 %
06.05.2026 16:41 23,6 °C 43 % 1003,9 hPa 0,0 l/m² 3,2 km/h (1 Bft) N 360 ° 0,000 mm 10,3 °C 23,6 °C 6,4 km/h (2 Bft) 95,65 %
06.05.2026 16:40 23,5 °C 44 % 1003,9 hPa 0,0 l/m² 6,4 km/h (2 Bft) O 90 ° 0,000 mm 10,5 °C 23,5 °C 9,7 km/h (2 Bft) 100,00 %
06.05.2026 16:39 23,5 °C 43 % 1003,9 hPa 0,0 l/m² 6,4 km/h (2 Bft) N 360 ° 0,000 mm 10,2 °C 23,5 °C 11,3 km/h (2 Bft) 100,00 %
06.05.2026 16:38 23,5 °C 43 % 1003,9 hPa 0,0 l/m² 8,0 km/h (2 Bft) NO 45 ° 0,000 mm 10,2 °C 23,0 °C 11,3 km/h (2 Bft) 100,00 %
06.05.2026 16:37 23,6 °C 43 % 1004,0 hPa 0,0 l/m² 11,3 km/h (2 Bft) N-NO 22 ° 0,000 mm 10,3 °C 22,3 °C 16,1 km/h (3 Bft) 100,00 %
06.05.2026 16:36 23,6 °C 43 % 1004,0 hPa 0,0 l/m² 6,4 km/h (2 Bft) N 360 ° 0,000 mm 10,3 °C 23,6 °C 9,7 km/h (2 Bft) 100,00 %
06.05.2026 16:35 23,6 °C 43 % 1004,0 hPa 0,0 l/m² 8,0 km/h (2 Bft) N-NO 22 ° 0,000 mm 10,3 °C 23,1 °C 16,1 km/h (3 Bft) 100,00 %
06.05.2026 16:34 23,6 °C 44 % 1003,9 hPa 0,0 l/m² 4,8 km/h (1 Bft) N-NO 22 ° 0,000 mm 10,6 °C 23,6 °C 9,7 km/h (2 Bft) 100,00 %
06.05.2026 16:33 23,6 °C 43 % 1004,0 hPa 0,0 l/m² 6,4 km/h (2 Bft) N-NO 22 ° 0,000 mm 10,3 °C 23,6 °C 12,9 km/h (3 Bft) 100,00 %
06.05.2026 16:32 23,6 °C 44 % 1003,9 hPa 0,0 l/m² 3,2 km/h (1 Bft) W 270 ° 0,000 mm 10,6 °C 23,6 °C 8,0 km/h (2 Bft) 100,00 %
06.05.2026 16:31 23,6 °C 44 % 1003,9 hPa 0,0 l/m² 4,8 km/h (1 Bft) SW 225 ° 0,000 mm 10,6 °C 23,6 °C 8,0 km/h (2 Bft) 34,78 %
06.05.2026 16:30 23,5 °C 44 % 1004,0 hPa 0,0 l/m² 11,3 km/h (2 Bft) N-NO 22 ° 0,000 mm 10,5 °C 22,2 °C 12,9 km/h (3 Bft) 43,48 %
06.05.2026 16:29 23,5 °C 44 % 1004,0 hPa 0,0 l/m² 6,4 km/h (2 Bft) N 360 ° 0,000 mm 10,5 °C 23,5 °C 11,3 km/h (2 Bft) 100,00 %
06.05.2026 16:28 23,5 °C 44 % 1004,0 hPa 0,0 l/m² 3,2 km/h (1 Bft) NW 315 ° 0,000 mm 10,5 °C 23,5 °C 6,4 km/h (2 Bft) 100,00 %
06.05.2026 16:27 23,4 °C 44 % 1004,0 hPa 0,0 l/m² 6,4 km/h (2 Bft) NO 45 ° 0,000 mm 10,4 °C 23,4 °C 11,3 km/h (2 Bft) 100,00 %
06.05.2026 16:26 23,4 °C 44 % 1003,8 hPa 0,0 l/m² 6,4 km/h (2 Bft) N-NO 22 ° 0,000 mm 10,4 °C 23,4 °C 14,5 km/h (3 Bft) 100,00 %
06.05.2026 16:25 23,5 °C 44 % 1004,0 hPa 0,0 l/m² 4,8 km/h (1 Bft) W-NW 292 ° 0,000 mm 10,5 °C 23,5 °C 8,0 km/h (2 Bft) 100,00 %
06.05.2026 16:24 23,6 °C 44 % 1003,9 hPa 0,0 l/m² 4,8 km/h (1 Bft) NO 45 ° 0,000 mm 10,6 °C 23,6 °C 11,3 km/h (2 Bft) 100,00 %
06.05.2026 16:23 23,5 °C 43 % 1003,9 hPa 0,0 l/m² 4,8 km/h (1 Bft) W-NW 292 ° 0,000 mm 10,2 °C 23,5 °C 11,3 km/h (2 Bft) 100,00 %
06.05.2026 16:22 23,6 °C 44 % 1004,0 hPa 0,0 l/m² 4,8 km/h (1 Bft) N-NO 22 ° 0,000 mm 10,6 °C 23,6 °C 9,7 km/h (2 Bft) 95,65 %
06.05.2026 16:21 23,6 °C 43 % 1004,0 hPa 0,0 l/m² 8,0 km/h (2 Bft) N 360 ° 0,000 mm 10,3 °C 23,1 °C 12,9 km/h (3 Bft) 100,00 %
06.05.2026 16:20 23,7 °C 43 % 1003,9 hPa 0,0 l/m² 9,7 km/h (2 Bft) N-NO 22 ° 0,000 mm 10,4 °C 22,8 °C 12,9 km/h (3 Bft) 100,00 %
06.05.2026 16:19 23,7 °C 45 % 1004,0 hPa 0,0 l/m² 4,8 km/h (1 Bft) N-NW 337 ° 0,000 mm 11,1 °C 23,7 °C 8,0 km/h (2 Bft) 100,00 %
06.05.2026 16:18 23,7 °C 45 % 1004,0 hPa 0,0 l/m² 1,6 km/h (1 Bft) NW 315 ° 0,000 mm 11,1 °C 23,7 °C 3,2 km/h (1 Bft) 100,00 %
06.05.2026 16:17 23,7 °C 45 % 1004,0 hPa 0,0 l/m² 1,6 km/h (1 Bft) SW 225 ° 0,000 mm 11,1 °C 23,7 °C 4,8 km/h (1 Bft) 100,00 %
06.05.2026 16:16 23,7 °C 44 % 1004,0 hPa 0,0 l/m² 3,2 km/h (1 Bft) O 90 ° 0,000 mm 10,7 °C 23,7 °C 4,8 km/h (1 Bft) 95,65 %
06.05.2026 16:15 23,7 °C 44 % 1004,0 hPa 0,0 l/m² 4,8 km/h (1 Bft) N-NW 337 ° 0,000 mm 10,7 °C 23,7 °C 8,0 km/h (2 Bft) 100,00 %
06.05.2026 16:14 23,7 °C 44 % 1004,0 hPa 0,0 l/m² 1,6 km/h (1 Bft) W-NW 292 ° 0,000 mm 10,7 °C 23,7 °C 4,8 km/h (1 Bft) 95,65 %
06.05.2026 16:13 23,7 °C 44 % 1004,0 hPa 0,0 l/m² 3,2 km/h (1 Bft) W 270 ° 0,000 mm 10,7 °C 23,7 °C 8,0 km/h (2 Bft) 100,00 %
06.05.2026 16:12 23,7 °C 44 % 1004,1 hPa 0,0 l/m² 9,7 km/h (2 Bft) NO 45 ° 0,000 mm 10,7 °C 22,8 °C 14,5 km/h (3 Bft) 100,00 %
06.05.2026 16:11 23,7 °C 44 % 1004,1 hPa 0,0 l/m² 4,8 km/h (1 Bft) W 270 ° 0,000 mm 10,7 °C 23,7 °C 9,7 km/h (2 Bft) 100,00 %
06.05.2026 16:10 23,8 °C 44 % 1004,1 hPa 0,0 l/m² 4,8 km/h (1 Bft) O 90 ° 0,000 mm 10,8 °C 23,8 °C 6,4 km/h (2 Bft) 100,00 %
06.05.2026 16:09 23,7 °C 43 % 1004,0 hPa 0,0 l/m² 6,4 km/h (2 Bft) N-NO 22 ° 0,000 mm 10,4 °C 23,7 °C 9,7 km/h (2 Bft) 100,00 %
06.05.2026 16:08 23,8 °C 43 % 1004,1 hPa 0,0 l/m² 6,4 km/h (2 Bft) O-NO 67 ° 0,000 mm 10,5 °C 23,8 °C 16,1 km/h (3 Bft) 100,00 %
06.05.2026 16:07 23,9 °C 43 % 1004,2 hPa 0,0 l/m² 9,7 km/h (2 Bft) NO 45 ° 0,000 mm 10,5 °C 23,0 °C 16,1 km/h (3 Bft) 95,65 %
06.05.2026 16:06 24,1 °C 43 % 1004,1 hPa 0,0 l/m² 8,0 km/h (2 Bft) N 360 ° 0,000 mm 10,7 °C 23,7 °C 16,1 km/h (3 Bft) 100,00 %
06.05.2026 16:05 24,2 °C 42 % 1004,2 hPa 0,0 l/m² 8,0 km/h (2 Bft) N 360 ° 0,000 mm 10,5 °C 23,8 °C 12,9 km/h (3 Bft) 95,65 %
06.05.2026 16:04 24,3 °C 42 % 1004,2 hPa 0,0 l/m² 6,4 km/h (2 Bft) N 360 ° 0,000 mm 10,6 °C 24,3 °C 11,3 km/h (2 Bft) 100,00 %
06.05.2026 16:03 24,3 °C 44 % 1004,2 hPa 0,0 l/m² 6,4 km/h (2 Bft) N 360 ° 0,000 mm 11,3 °C 24,3 °C 9,7 km/h (2 Bft) 100,00 %
06.05.2026 16:02 24,3 °C 44 % 1004,2 hPa 0,0 l/m² 3,2 km/h (1 Bft) O-NO 67 ° 0,000 mm 11,3 °C 24,3 °C 12,9 km/h (3 Bft) 100,00 %
06.05.2026 16:01 24,2 °C 44 % 1004,2 hPa 0,0 l/m² 4,8 km/h (1 Bft) W 270 ° 0,000 mm 11,2 °C 24,2 °C 8,0 km/h (2 Bft) 100,00 %
06.05.2026 16:00 24,2 °C 44 % 1004,1 hPa 0,0 l/m² 4,8 km/h (1 Bft) S-SW 202 ° 0,000 mm 11,2 °C 24,2 °C 11,3 km/h (2 Bft) 95,65 %
06.05.2026 15:59 24,3 °C 43 % 1004,1 hPa 0,0 l/m² 11,3 km/h (2 Bft) N-NO 22 ° 0,000 mm 10,9 °C 23,1 °C 19,3 km/h (3 Bft) 100,00 %
06.05.2026 15:58 24,3 °C 42 % 1004,1 hPa 0,0 l/m² 9,7 km/h (2 Bft) N 360 ° 0,000 mm 10,6 °C 23,5 °C 14,5 km/h (3 Bft) 100,00 %
06.05.2026 15:57 24,3 °C 42 % 1004,1 hPa 0,0 l/m² 8,0 km/h (2 Bft) N-NO 22 ° 0,000 mm 10,6 °C 23,9 °C 14,5 km/h (3 Bft) 95,65 %
06.05.2026 15:56 24,3 °C 43 % 1004,2 hPa 0,0 l/m² 6,4 km/h (2 Bft) O-NO 67 ° 0,000 mm 10,9 °C 24,3 °C 8,0 km/h (2 Bft) 95,65 %
06.05.2026 15:55 24,2 °C 43 % 1004,2 hPa 0,0 l/m² 6,4 km/h (2 Bft) N 360 ° 0,000 mm 10,8 °C 24,2 °C 8,0 km/h (2 Bft) 100,00 %
06.05.2026 15:54 24,2 °C 43 % 1004,2 hPa 0,0 l/m² 4,8 km/h (1 Bft) N-NO 22 ° 0,000 mm 10,8 °C 24,2 °C 11,3 km/h (2 Bft) 100,00 %
06.05.2026 15:53 24,2 °C 43 % 1004,4 hPa 0,0 l/m² 6,4 km/h (2 Bft) O-NO 67 ° 0,000 mm 10,8 °C 24,2 °C 11,3 km/h (2 Bft) 95,65 %
06.05.2026 15:52 24,1 °C 43 % 1004,3 hPa 0,0 l/m² 3,2 km/h (1 Bft) W 270 ° 0,000 mm 10,7 °C 24,1 °C 11,3 km/h (2 Bft) 100,00 %
06.05.2026 15:51 24,2 °C 43 % 1004,3 hPa 0,0 l/m² 6,4 km/h (2 Bft) NO 45 ° 0,000 mm 10,8 °C 24,2 °C 11,3 km/h (2 Bft) 100,00 %
06.05.2026 15:50 24,3 °C 42 % 1004,3 hPa 0,0 l/m² 8,0 km/h (2 Bft) NO 45 ° 0,000 mm 10,6 °C 23,9 °C 11,3 km/h (2 Bft) 100,00 %
06.05.2026 15:49 24,3 °C 41 % 1004,4 hPa 0,0 l/m² 6,4 km/h (2 Bft) N-NW 337 ° 0,000 mm 10,2 °C 24,3 °C 11,3 km/h (2 Bft) 100,00 %
06.05.2026 15:48 24,4 °C 42 % 1004,3 hPa 0,0 l/m² 3,2 km/h (1 Bft) N-NW 337 ° 0,000 mm 10,6 °C 24,4 °C 4,8 km/h (1 Bft) 100,00 %
06.05.2026 15:47 24,4 °C 42 % 1004,4 hPa 0,0 l/m² 3,2 km/h (1 Bft) W-NW 292 ° 0,000 mm 10,6 °C 24,4 °C 6,4 km/h (2 Bft) 100,00 %
06.05.2026 15:46 24,6 °C 40 % 1004,4 hPa 0,0 l/m² 4,8 km/h (1 Bft) NO 45 ° 0,000 mm 10,1 °C 24,6 °C 8,0 km/h (2 Bft) 100,00 %
06.05.2026 15:45 24,8 °C 40 % 1004,4 hPa 0,0 l/m² 9,7 km/h (2 Bft) N 360 ° 0,000 mm 10,3 °C 24,0 °C 12,9 km/h (3 Bft) 100,00 %
06.05.2026 15:44 25,0 °C 40 % 1004,3 hPa 0,0 l/m² 8,0 km/h (2 Bft) N-NO 22 ° 0,000 mm 10,4 °C 24,6 °C 11,3 km/h (2 Bft) 100,00 %
06.05.2026 15:43 25,2 °C 40 % 1004,3 hPa 0,0 l/m² 6,4 km/h (2 Bft) N 360 ° 0,000 mm 10,6 °C 25,2 °C 9,7 km/h (2 Bft) 95,65 %
06.05.2026 15:42 25,1 °C 42 % 1004,3 hPa 0,0 l/m² 1,6 km/h (1 Bft) SW 225 ° 0,000 mm 11,3 °C 25,1 °C 3,2 km/h (1 Bft) 100,00 %
06.05.2026 15:41 25,1 °C 42 % 1004,3 hPa 0,0 l/m² 4,8 km/h (1 Bft) S-SW 202 ° 0,000 mm 11,3 °C 25,1 °C 6,4 km/h (2 Bft) 95,65 %
06.05.2026 15:40 25,0 °C 42 % 1004,3 hPa 0,0 l/m² 3,2 km/h (1 Bft) N-NO 22 ° 0,000 mm 11,2 °C 25,0 °C 6,4 km/h (2 Bft) 100,00 %
06.05.2026 15:39 24,9 °C 41 % 1004,4 hPa 0,0 l/m² 3,2 km/h (1 Bft) W-SW 247 ° 0,000 mm 10,7 °C 24,9 °C 6,4 km/h (2 Bft) 100,00 %
06.05.2026 15:38 24,7 °C 41 % 1004,4 hPa 0,0 l/m² 3,2 km/h (1 Bft) NW 315 ° 0,000 mm 10,6 °C 24,7 °C 4,8 km/h (1 Bft) 100,00 %
06.05.2026 15:37 24,6 °C 42 % 1004,5 hPa 0,0 l/m² 1,6 km/h (1 Bft) S-SW 202 ° 0,000 mm 10,8 °C 24,6 °C 3,2 km/h (1 Bft) 100,00 %
06.05.2026 15:36 24,4 °C 42 % 1004,5 hPa 0,0 l/m² 3,2 km/h (1 Bft) O-SO 112 ° 0,000 mm 10,6 °C 24,4 °C 8,0 km/h (2 Bft) 100,00 %
06.05.2026 15:35 24,4 °C 41 % 1004,5 hPa 0,0 l/m² 4,8 km/h (1 Bft) O-SO 112 ° 0,000 mm 10,3 °C 24,4 °C 12,9 km/h (3 Bft) 100,00 %
06.05.2026 15:34 24,4 °C 40 % 1004,5 hPa 0,0 l/m² 4,8 km/h (1 Bft) W 270 ° 0,000 mm 9,9 °C 24,4 °C 8,0 km/h (2 Bft) 100,00 %
06.05.2026 15:33 24,4 °C 43 % 1004,5 hPa 0,0 l/m² 4,8 km/h (1 Bft) N 360 ° 0,000 mm 11,0 °C 24,4 °C 8,0 km/h (2 Bft) 100,00 %
06.05.2026 15:32 24,4 °C 42 % 1004,5 hPa 0,0 l/m² 8,0 km/h (2 Bft) NO 45 ° 0,000 mm 10,6 °C 24,0 °C 12,9 km/h (3 Bft) 100,00 %
06.05.2026 15:31 24,4 °C 42 % 1004,5 hPa 0,0 l/m² 4,8 km/h (1 Bft) W-NW 292 ° 0,000 mm 10,6 °C 24,4 °C 11,3 km/h (2 Bft) 100,00 %
06.05.2026 15:30 24,3 °C 42 % 1004,5 hPa 0,0 l/m² 3,2 km/h (1 Bft) NW 315 ° 0,000 mm 10,6 °C 24,3 °C 6,4 km/h (2 Bft) 100,00 %
06.05.2026 15:29 24,3 °C 44 % 1004,5 hPa 0,0 l/m² 3,2 km/h (1 Bft) W-NW 292 ° 0,000 mm 11,3 °C 24,3 °C 4,8 km/h (1 Bft) 95,65 %
06.05.2026 15:28 24,3 °C 43 % 1004,5 hPa 0,0 l/m² 3,2 km/h (1 Bft) O 90 ° 0,000 mm 10,9 °C 24,3 °C 6,4 km/h (2 Bft) 100,00 %
06.05.2026 15:27 24,3 °C 42 % 1004,6 hPa 0,0 l/m² 6,4 km/h (2 Bft) O-NO 67 ° 0,000 mm 10,6 °C 24,3 °C 8,0 km/h (2 Bft) 100,00 %
06.05.2026 15:26 24,3 °C 41 % 1004,6 hPa 0,0 l/m² 4,8 km/h (1 Bft) N-NW 337 ° 0,000 mm 10,2 °C 24,3 °C 9,7 km/h (2 Bft) 100,00 %
06.05.2026 15:25 24,4 °C 43 % 1004,5 hPa 0,0 l/m² 4,8 km/h (1 Bft) O-NO 67 ° 0,000 mm 11,0 °C 24,4 °C 4,8 km/h (1 Bft) 100,00 %
06.05.2026 15:24 24,4 °C 42 % 1004,7 hPa 0,0 l/m² 6,4 km/h (2 Bft) N 360 ° 0,000 mm 10,6 °C 24,4 °C 9,7 km/h (2 Bft) 100,00 %
06.05.2026 15:23 24,4 °C 43 % 1004,7 hPa 0,0 l/m² 4,8 km/h (1 Bft) N 360 ° 0,000 mm 11,0 °C 24,4 °C 9,7 km/h (2 Bft) 100,00 %
06.05.2026 15:22 24,3 °C 43 % 1004,7 hPa 0,0 l/m² 3,2 km/h (1 Bft) W-NW 292 ° 0,000 mm 10,9 °C 24,3 °C 3,2 km/h (1 Bft) 100,00 %
06.05.2026 15:21 24,2 °C 44 % 1004,7 hPa 0,0 l/m² 1,6 km/h (1 Bft) SW 225 ° 0,000 mm 11,2 °C 24,2 °C 3,2 km/h (1 Bft) 95,65 %
06.05.2026 15:20 24,0 °C 44 % 1004,9 hPa 0,0 l/m² 1,6 km/h (1 Bft) S-SW 202 ° 0,000 mm 11,0 °C 24,0 °C 3,2 km/h (1 Bft) 100,00 %
06.05.2026 15:19 23,9 °C 42 % 1004,9 hPa 0,0 l/m² 3,2 km/h (1 Bft) S-SW 202 ° 0,000 mm 10,2 °C 23,9 °C 6,4 km/h (2 Bft) 95,65 %
06.05.2026 15:18 23,9 °C 42 % 1004,8 hPa 0,0 l/m² 8,0 km/h (2 Bft) S 180 ° 0,000 mm 10,2 °C 23,4 °C 9,7 km/h (2 Bft) 100,00 %
06.05.2026 15:17 23,9 °C 42 % 1004,9 hPa 0,0 l/m² 9,7 km/h (2 Bft) SO 135 ° 0,000 mm 10,2 °C 23,0 °C 12,9 km/h (3 Bft) 100,00 %
06.05.2026 15:16 23,8 °C 45 % 1004,9 hPa 0,0 l/m² 8,0 km/h (2 Bft) NO 45 ° 0,000 mm 11,1 °C 23,3 °C 14,5 km/h (3 Bft) 100,00 %
06.05.2026 15:15 23,8 °C 44 % 1004,9 hPa 0,0 l/m² 4,8 km/h (1 Bft) O 90 ° 0,000 mm 10,8 °C 23,8 °C 8,0 km/h (2 Bft) 100,00 %
06.05.2026 15:14 23,8 °C 44 % 1004,9 hPa 0,0 l/m² 4,8 km/h (1 Bft) O-NO 67 ° 0,000 mm 10,8 °C 23,8 °C 9,7 km/h (2 Bft) 100,00 %
06.05.2026 15:13 23,8 °C 44 % 1005,0 hPa 0,0 l/m² 4,8 km/h (1 Bft) N 360 ° 0,000 mm 10,8 °C 23,8 °C 9,7 km/h (2 Bft) 100,00 %
06.05.2026 15:12 23,7 °C 44 % 1005,0 hPa 0,0 l/m² 6,4 km/h (2 Bft) W-NW 292 ° 0,000 mm 10,7 °C 23,7 °C 11,3 km/h (2 Bft) 100,00 %
06.05.2026 15:11 23,6 °C 43 % 1005,0 hPa 0,0 l/m² 1,6 km/h (1 Bft) NO 45 ° 0,000 mm 10,3 °C 23,6 °C 6,4 km/h (2 Bft) 95,65 %
06.05.2026 15:10 23,6 °C 42 % 1005,1 hPa 0,0 l/m² 1,6 km/h (1 Bft) W-NW 292 ° 0,000 mm 9,9 °C 23,6 °C 4,8 km/h (1 Bft) 100,00 %
06.05.2026 15:09 23,5 °C 43 % 1005,1 hPa 0,0 l/m² 1,6 km/h (1 Bft) SW 225 ° 0,000 mm 10,2 °C 23,5 °C 4,8 km/h (1 Bft) 100,00 %
06.05.2026 15:08 23,4 °C 43 % 1005,1 hPa 0,0 l/m² 1,6 km/h (1 Bft) N-NW 337 ° 0,000 mm 10,1 °C 23,4 °C 6,4 km/h (2 Bft) 100,00 %
06.05.2026 15:07 23,4 °C 43 % 1005,0 hPa 0,0 l/m² 3,2 km/h (1 Bft) W 270 ° 0,000 mm 10,1 °C 23,4 °C 6,4 km/h (2 Bft) 100,00 %
06.05.2026 15:06 23,4 °C 43 % 1005,1 hPa 0,0 l/m² 4,8 km/h (1 Bft) N-NW 337 ° 0,000 mm 10,1 °C 23,4 °C 9,7 km/h (2 Bft) 100,00 %
06.05.2026 15:05 23,4 °C 43 % 1005,1 hPa 0,0 l/m² 4,8 km/h (1 Bft) SW 225 ° 0,000 mm 10,1 °C 23,4 °C 8,0 km/h (2 Bft) 100,00 %
06.05.2026 15:04 23,4 °C 44 % 1005,1 hPa 0,0 l/m² 3,2 km/h (1 Bft) W-NW 292 ° 0,000 mm 10,4 °C 23,4 °C 8,0 km/h (2 Bft) 100,00 %
06.05.2026 15:03 23,4 °C 44 % 1005,1 hPa 0,0 l/m² 9,7 km/h (2 Bft) N-NO 22 ° 0,000 mm 10,4 °C 22,5 °C 12,9 km/h (3 Bft) 100,00 %
06.05.2026 15:02 23,4 °C 45 % 1005,1 hPa 0,0 l/m² 6,4 km/h (2 Bft) N 360 ° 0,000 mm 10,8 °C 23,4 °C 9,7 km/h (2 Bft) 100,00 %
06.05.2026 15:01 23,4 °C 45 % 1005,1 hPa 0,0 l/m² 3,2 km/h (1 Bft) S-SW 202 ° 0,000 mm 10,8 °C 23,4 °C 9,7 km/h (2 Bft) 100,00 %
06.05.2026 15:00 23,3 °C 44 % 1005,2 hPa 0,0 l/m² 3,2 km/h (1 Bft) O 90 ° 0,000 mm 10,4 °C 23,3 °C 4,8 km/h (1 Bft) 100,00 %
06.05.2026 14:59 23,3 °C 45 % 1005,1 hPa 0,0 l/m² 3,2 km/h (1 Bft) W-NW 292 ° 0,000 mm 10,7 °C 23,3 °C 6,4 km/h (2 Bft) 100,00 %
06.05.2026 14:58 23,2 °C 45 % 1005,2 hPa 0,0 l/m² 4,8 km/h (1 Bft) W 270 ° 0,000 mm 10,6 °C 23,2 °C 8,0 km/h (2 Bft) 100,00 %
06.05.2026 14:57 23,1 °C 45 % 1005,1 hPa 0,0 l/m² 0,0 km/h (0 Bft) S 180 ° 0,000 mm 10,5 °C 23,1 °C 1,6 km/h (1 Bft) 100,00 %
06.05.2026 14:56 23,1 °C 44 % 1005,1 hPa 0,0 l/m² 3,2 km/h (1 Bft) N-NW 337 ° 0,000 mm 10,2 °C 23,1 °C 4,8 km/h (1 Bft) 100,00 %
06.05.2026 14:55 23,1 °C 44 % 1005,2 hPa 0,0 l/m² 8,0 km/h (2 Bft) N-NO 22 ° 0,000 mm 10,2 °C 22,6 °C 9,7 km/h (2 Bft) 95,65 %
06.05.2026 14:54 23,2 °C 44 % 1005,2 hPa 0,0 l/m² 8,0 km/h (2 Bft) N 360 ° 0,000 mm 10,3 °C 22,7 °C 11,3 km/h (2 Bft) 100,00 %
06.05.2026 14:53 23,3 °C 44 % 1005,1 hPa 0,0 l/m² 9,7 km/h (2 Bft) NO 45 ° 0,000 mm 10,4 °C 22,4 °C 14,5 km/h (3 Bft) 100,00 %
06.05.2026 14:52 23,3 °C 46 % 1005,1 hPa 0,0 l/m² 9,7 km/h (2 Bft) O-NO 67 ° 0,000 mm 11,0 °C 22,4 °C 16,1 km/h (3 Bft) 100,00 %
06.05.2026 14:51 23,4 °C 46 % 1005,2 hPa 0,0 l/m² 6,4 km/h (2 Bft) W-NW 292 ° 0,000 mm 11,1 °C 23,4 °C 14,5 km/h (3 Bft) 100,00 %
06.05.2026 14:50 23,4 °C 46 % 1005,2 hPa 0,0 l/m² 3,2 km/h (1 Bft) W 270 ° 0,000 mm 11,1 °C 23,4 °C 8,0 km/h (2 Bft) 100,00 %
06.05.2026 14:49 23,3 °C 47 % 1005,2 hPa 0,0 l/m² 3,2 km/h (1 Bft) W 270 ° 0,000 mm 11,3 °C 23,3 °C 4,8 km/h (1 Bft) 100,00 %
06.05.2026 14:48 23,3 °C 47 % 1005,2 hPa 0,0 l/m² 3,2 km/h (1 Bft) W 270 ° 0,000 mm 11,3 °C 23,3 °C 8,0 km/h (2 Bft) 95,65 %
06.05.2026 14:47 23,2 °C 47 % 1005,3 hPa 0,0 l/m² 4,8 km/h (1 Bft) W-NW 292 ° 0,000 mm 11,3 °C 23,2 °C 11,3 km/h (2 Bft) 100,00 %
06.05.2026 14:46 23,2 °C 46 % 1005,3 hPa 0,0 l/m² 3,2 km/h (1 Bft) W-NW 292 ° 0,000 mm 10,9 °C 23,2 °C 6,4 km/h (2 Bft) 100,00 %
06.05.2026 14:45 23,2 °C 45 % 1005,3 hPa 0,0 l/m² 8,0 km/h (2 Bft) O-NO 67 ° 0,000 mm 10,6 °C 22,7 °C 9,7 km/h (2 Bft) 100,00 %
06.05.2026 14:44 23,2 °C 46 % 1005,4 hPa 0,0 l/m² 4,8 km/h (1 Bft) N-NO 22 ° 0,000 mm 10,9 °C 23,2 °C 11,3 km/h (2 Bft) 100,00 %
06.05.2026 14:43 23,2 °C 46 % 1005,4 hPa 0,0 l/m² 4,8 km/h (1 Bft) NW 315 ° 0,000 mm 10,9 °C 23,2 °C 9,7 km/h (2 Bft) 100,00 %
06.05.2026 14:42 23,2 °C 45 % 1005,5 hPa 0,0 l/m² 3,2 km/h (1 Bft) W-SW 247 ° 0,000 mm 10,6 °C 23,2 °C 8,0 km/h (2 Bft) 100,00 %
06.05.2026 14:41 23,3 °C 44 % 1005,3 hPa 0,0 l/m² 4,8 km/h (1 Bft) W 270 ° 0,000 mm 10,4 °C 23,3 °C 8,0 km/h (2 Bft) 100,00 %
06.05.2026 14:40 23,3 °C 44 % 1005,5 hPa 0,0 l/m² 1,6 km/h (1 Bft) W 270 ° 0,000 mm 10,4 °C 23,3 °C 4,8 km/h (1 Bft) 100,00 %
06.05.2026 14:39 23,4 °C 45 % 1005,5 hPa 0,0 l/m² 4,8 km/h (1 Bft) N-NO 22 ° 0,000 mm 10,8 °C 23,4 °C 9,7 km/h (2 Bft) 100,00 %
06.05.2026 14:38 23,4 °C 45 % 1005,6 hPa 0,0 l/m² 6,4 km/h (2 Bft) N-NO 22 ° 0,000 mm 10,8 °C 23,4 °C 11,3 km/h (2 Bft) 95,65 %
06.05.2026 14:37 23,3 °C 46 % 1005,6 hPa 0,0 l/m² 1,6 km/h (1 Bft) W 270 ° 0,000 mm 11,0 °C 23,3 °C 4,8 km/h (1 Bft) 100,00 %
06.05.2026 14:36 23,2 °C 46 % 1005,6 hPa 0,0 l/m² 0,0 km/h (0 Bft) W-SW 247 ° 0,000 mm 10,9 °C 23,2 °C 1,6 km/h (1 Bft) 100,00 %
06.05.2026 14:35 23,2 °C 45 % 1005,6 hPa 0,0 l/m² 1,6 km/h (1 Bft) SW 225 ° 0,000 mm 10,6 °C 23,2 °C 3,2 km/h (1 Bft) 95,65 %
06.05.2026 14:34 23,1 °C 46 % 1005,6 hPa 0,0 l/m² 3,2 km/h (1 Bft) SW 225 ° 0,000 mm 10,8 °C 23,1 °C 4,8 km/h (1 Bft) 100,00 %
06.05.2026 14:33 23,1 °C 45 % 1005,7 hPa 0,0 l/m² 1,6 km/h (1 Bft) W-SW 247 ° 0,000 mm 10,5 °C 23,1 °C 4,8 km/h (1 Bft) 100,00 %
06.05.2026 14:32 23,0 °C 44 % 1005,7 hPa 0,0 l/m² 6,4 km/h (2 Bft) S 180 ° 0,000 mm 10,1 °C 23,0 °C 12,9 km/h (3 Bft) 100,00 %
06.05.2026 14:31 22,9 °C 45 % 1005,6 hPa 0,0 l/m² 4,8 km/h (1 Bft) S 180 ° 0,000 mm 10,3 °C 22,9 °C 11,3 km/h (2 Bft) 100,00 %
06.05.2026 14:30 22,7 °C 47 % 1005,7 hPa 0,0 l/m² 3,2 km/h (1 Bft) SW 225 ° 0,000 mm 10,8 °C 22,7 °C 8,0 km/h (2 Bft) 91,30 %
06.05.2026 14:29 22,5 °C 50 % 1005,7 hPa 0,0 l/m² 3,2 km/h (1 Bft) SW 225 ° 0,000 mm 11,5 °C 22,5 °C 4,8 km/h (1 Bft) 100,00 %
06.05.2026 14:28 22,3 °C 50 % 1005,7 hPa 0,0 l/m² 4,8 km/h (1 Bft) O-NO 67 ° 0,000 mm 11,4 °C 22,3 °C 6,4 km/h (2 Bft) 100,00 %
06.05.2026 14:27 22,3 °C 51 % 1005,7 hPa 0,0 l/m² 3,2 km/h (1 Bft) SW 225 ° 0,000 mm 11,7 °C 22,3 °C 6,4 km/h (2 Bft) 100,00 %
06.05.2026 14:26 22,2 °C 49 % 1005,6 hPa 0,0 l/m² 4,8 km/h (1 Bft) W-NW 292 ° 0,000 mm 11,0 °C 22,2 °C 6,4 km/h (2 Bft) 100,00 %
06.05.2026 14:25 22,3 °C 49 % 1005,7 hPa 0,0 l/m² 6,4 km/h (2 Bft) W-NW 292 ° 0,000 mm 11,1 °C 22,3 °C 8,0 km/h (2 Bft) 100,00 %
06.05.2026 14:24 22,3 °C 49 % 1005,7 hPa 0,0 l/m² 8,0 km/h (2 Bft) N-NW 337 ° 0,000 mm 11,1 °C 21,8 °C 11,3 km/h (2 Bft) 100,00 %
06.05.2026 14:23 22,2 °C 50 % 1005,8 hPa 0,0 l/m² 1,6 km/h (1 Bft) W 270 ° 0,000 mm 11,3 °C 22,2 °C 3,2 km/h (1 Bft) 95,65 %
06.05.2026 14:22 22,2 °C 50 % 1005,8 hPa 0,0 l/m² 3,2 km/h (1 Bft) NW 315 ° 0,000 mm 11,3 °C 22,2 °C 4,8 km/h (1 Bft) 100,00 %
06.05.2026 14:21 22,2 °C 49 % 1005,8 hPa 0,0 l/m² 4,8 km/h (1 Bft) N-NO 22 ° 0,000 mm 11,0 °C 22,2 °C 4,8 km/h (1 Bft) 100,00 %
06.05.2026 14:20 22,2 °C 49 % 1005,8 hPa 0,0 l/m² 4,8 km/h (1 Bft) NW 315 ° 0,000 mm 11,0 °C 22,2 °C 9,7 km/h (2 Bft) 100,00 %
06.05.2026 14:19 22,2 °C 49 % 1005,8 hPa 0,0 l/m² 4,8 km/h (1 Bft) W-NW 292 ° 0,000 mm 11,0 °C 22,2 °C 8,0 km/h (2 Bft) 100,00 %
06.05.2026 14:18 22,3 °C 49 % 1005,9 hPa 0,0 l/m² 8,0 km/h (2 Bft) N-NO 22 ° 0,000 mm 11,1 °C 21,8 °C 9,7 km/h (2 Bft) 100,00 %
06.05.2026 14:17 22,3 °C 50 % 1005,9 hPa 0,0 l/m² 1,6 km/h (1 Bft) W 270 ° 0,000 mm 11,4 °C 22,3 °C 4,8 km/h (1 Bft) 100,00 %
06.05.2026 14:16 22,4 °C 48 % 1006,0 hPa 0,0 l/m² 4,8 km/h (1 Bft) N-NO 22 ° 0,000 mm 10,8 °C 22,4 °C 9,7 km/h (2 Bft) 100,00 %
06.05.2026 14:15 22,4 °C 48 % 1006,0 hPa 0,0 l/m² 8,0 km/h (2 Bft) N 360 ° 0,000 mm 10,8 °C 21,9 °C 14,5 km/h (3 Bft) 100,00 %
06.05.2026 14:14 22,4 °C 48 % 1005,9 hPa 0,0 l/m² 4,8 km/h (1 Bft) N-NW 337 ° 0,000 mm 10,8 °C 22,4 °C 8,0 km/h (2 Bft) 100,00 %
06.05.2026 14:13 22,3 °C 49 % 1005,9 hPa 0,0 l/m² 1,6 km/h (1 Bft) SW 225 ° 0,000 mm 11,1 °C 22,3 °C 3,2 km/h (1 Bft) 100,00 %
06.05.2026 14:12 22,1 °C 49 % 1005,8 hPa 0,0 l/m² 0,0 km/h (0 Bft) W-SW 247 ° 0,000 mm 10,9 °C 22,1 °C 1,6 km/h (1 Bft) 100,00 %
06.05.2026 14:11 21,9 °C 49 % 1005,9 hPa 0,0 l/m² 0,0 km/h (0 Bft) SW 225 ° 0,000 mm 10,7 °C 21,9 °C 1,6 km/h (1 Bft) 100,00 %
06.05.2026 14:10 21,8 °C 48 % 1005,9 hPa 0,0 l/m² 1,6 km/h (1 Bft) NW 315 ° 0,000 mm 10,3 °C 21,8 °C 3,2 km/h (1 Bft) 100,00 %
06.05.2026 14:09 21,8 °C 49 % 1006,0 hPa 0,0 l/m² 1,6 km/h (1 Bft) NW 315 ° 0,000 mm 10,6 °C 21,8 °C 4,8 km/h (1 Bft) 95,65 %
06.05.2026 14:08 21,8 °C 48 % 1006,0 hPa 0,0 l/m² 4,8 km/h (1 Bft) NW 315 ° 0,000 mm 10,3 °C 21,8 °C 6,4 km/h (2 Bft) 100,00 %
06.05.2026 14:07 21,8 °C 50 % 1006,0 hPa 0,0 l/m² 6,4 km/h (2 Bft) N-NO 22 ° 0,000 mm 10,9 °C 21,8 °C 12,9 km/h (3 Bft) 100,00 %
06.05.2026 14:06 21,8 °C 50 % 1006,0 hPa 0,0 l/m² 8,0 km/h (2 Bft) N-NO 22 ° 0,000 mm 10,9 °C 21,2 °C 14,5 km/h (3 Bft) 100,00 %
06.05.2026 14:05 21,8 °C 50 % 1006,1 hPa 0,0 l/m² 8,0 km/h (2 Bft) NO 45 ° 0,000 mm 10,9 °C 21,2 °C 14,5 km/h (3 Bft) 100,00 %
06.05.2026 14:04 21,8 °C 51 % 1006,1 hPa 0,0 l/m² 8,0 km/h (2 Bft) NO 45 ° 0,000 mm 11,2 °C 21,2 °C 12,9 km/h (3 Bft) 100,00 %
06.05.2026 14:03 21,9 °C 50 % 1006,1 hPa 0,0 l/m² 4,8 km/h (1 Bft) NO 45 ° 0,000 mm 11,0 °C 21,9 °C 12,9 km/h (3 Bft) 100,00 %
06.05.2026 14:02 22,0 °C 51 % 1006,0 hPa 0,0 l/m² 9,7 km/h (2 Bft) N-NO 22 ° 0,000 mm 11,4 °C 20,9 °C 19,3 km/h (3 Bft) 100,00 %
06.05.2026 14:01 21,9 °C 52 % 1006,1 hPa 0,0 l/m² 4,8 km/h (1 Bft) W-NW 292 ° 0,000 mm 11,6 °C 21,9 °C 11,3 km/h (2 Bft) 91,30 %
06.05.2026 14:00 21,9 °C 52 % 1006,1 hPa 0,0 l/m² 3,2 km/h (1 Bft) W-NW 292 ° 0,000 mm 11,6 °C 21,9 °C 4,8 km/h (1 Bft) 100,00 %
06.05.2026 13:59 21,9 °C 52 % 1006,2 hPa 0,0 l/m² 6,4 km/h (2 Bft) N 360 ° 0,000 mm 11,6 °C 21,9 °C 16,1 km/h (3 Bft) 95,65 %
06.05.2026 13:58 21,9 °C 54 % 1006,1 hPa 0,0 l/m² 6,4 km/h (2 Bft) N 360 ° 0,000 mm 12,2 °C 21,9 °C 11,3 km/h (2 Bft) 100,00 %
06.05.2026 13:57 21,8 °C 53 % 1006,2 hPa 0,0 l/m² 4,8 km/h (1 Bft) W-NW 292 ° 0,000 mm 11,8 °C 21,8 °C 9,7 km/h (2 Bft) 100,00 %
06.05.2026 13:56 21,8 °C 51 % 1006,2 hPa 0,0 l/m² 1,6 km/h (1 Bft) W-NW 292 ° 0,000 mm 11,2 °C 21,8 °C 3,2 km/h (1 Bft) 100,00 %
06.05.2026 13:55 21,8 °C 50 % 1006,2 hPa 0,0 l/m² 3,2 km/h (1 Bft) W 270 ° 0,000 mm 10,9 °C 21,8 °C 6,4 km/h (2 Bft) 100,00 %
06.05.2026 13:54 21,8 °C 52 % 1006,3 hPa 0,0 l/m² 6,4 km/h (2 Bft) N-NO 22 ° 0,000 mm 11,5 °C 21,8 °C 11,3 km/h (2 Bft) 95,65 %
06.05.2026 13:53 21,7 °C 52 % 1006,3 hPa 0,0 l/m² 3,2 km/h (1 Bft) N 360 ° 0,000 mm 11,4 °C 21,7 °C 6,4 km/h (2 Bft) 100,00 %
06.05.2026 13:52 21,7 °C 52 % 1006,2 hPa 0,0 l/m² 4,8 km/h (1 Bft) SW 225 ° 0,000 mm 11,4 °C 21,7 °C 8,0 km/h (2 Bft) 100,00 %
06.05.2026 13:51 21,7 °C 52 % 1006,3 hPa 0,0 l/m² 6,4 km/h (2 Bft) O-NO 67 ° 0,000 mm 11,4 °C 21,7 °C 9,7 km/h (2 Bft) 100,00 %
06.05.2026 13:50 21,8 °C 53 % 1006,2 hPa 0,0 l/m² 8,0 km/h (2 Bft) NO 45 ° 0,000 mm 11,8 °C 21,2 °C 12,9 km/h (3 Bft) 95,65 %
06.05.2026 13:49 21,7 °C 54 % 1006,2 hPa 0,0 l/m² 3,2 km/h (1 Bft) W-NW 292 ° 0,000 mm 12,0 °C 21,7 °C 6,4 km/h (2 Bft) 100,00 %
06.05.2026 13:48 21,6 °C 54 % 1006,3 hPa 0,0 l/m² 4,8 km/h (1 Bft) NO 45 ° 0,000 mm 11,9 °C 21,6 °C 6,4 km/h (2 Bft) 100,00 %
06.05.2026 13:47 21,6 °C 53 % 1006,3 hPa 0,0 l/m² 3,2 km/h (1 Bft) NW 315 ° 0,000 mm 11,6 °C 21,6 °C 3,2 km/h (1 Bft) 100,00 %
06.05.2026 13:46 21,6 °C 52 % 1006,2 hPa 0,0 l/m² 4,8 km/h (1 Bft) N-NW 337 ° 0,000 mm 11,3 °C 21,6 °C 9,7 km/h (2 Bft) 100,00 %
06.05.2026 13:45 21,6 °C 55 % 1006,3 hPa 0,0 l/m² 3,2 km/h (1 Bft) NO 45 ° 0,000 mm 12,2 °C 21,6 °C 9,7 km/h (2 Bft) 95,65 %
06.05.2026 13:44 21,4 °C 54 % 1006,3 hPa 0,0 l/m² 1,6 km/h (1 Bft) W-NW 292 ° 0,000 mm 11,7 °C 21,4 °C 3,2 km/h (1 Bft) 100,00 %
06.05.2026 13:43 21,3 °C 54 % 1006,3 hPa 0,0 l/m² 1,6 km/h (1 Bft) W-NW 292 ° 0,000 mm 11,6 °C 21,3 °C 3,2 km/h (1 Bft) 100,00 %
06.05.2026 13:42 21,2 °C 54 % 1006,4 hPa 0,0 l/m² 6,4 km/h (2 Bft) N 360 ° 0,000 mm 11,5 °C 21,2 °C 9,7 km/h (2 Bft) 100,00 %
06.05.2026 13:41 21,2 °C 55 % 1006,3 hPa 0,0 l/m² 4,8 km/h (1 Bft) N-NO 22 ° 0,000 mm 11,8 °C 21,2 °C 9,7 km/h (2 Bft) 100,00 %
06.05.2026 13:40 21,1 °C 55 % 1006,3 hPa 0,0 l/m² 4,8 km/h (1 Bft) N-NW 337 ° 0,000 mm 11,7 °C 21,1 °C 9,7 km/h (2 Bft) 100,00 %
06.05.2026 13:39 21,1 °C 55 % 1006,4 hPa 0,0 l/m² 4,8 km/h (1 Bft) N 360 ° 0,000 mm 11,7 °C 21,1 °C 9,7 km/h (2 Bft) 100,00 %
06.05.2026 13:38 21,1 °C 54 % 1006,4 hPa 0,0 l/m² 9,7 km/h (2 Bft) N-NO 22 ° 0,000 mm 11,4 °C 19,9 °C 12,9 km/h (3 Bft) 100,00 %
06.05.2026 13:37 21,1 °C 54 % 1006,5 hPa 0,0 l/m² 8,0 km/h (2 Bft) N-NO 22 ° 0,000 mm 11,4 °C 20,5 °C 12,9 km/h (3 Bft) 100,00 %
06.05.2026 13:36 21,2 °C 54 % 1006,5 hPa 0,0 l/m² 9,7 km/h (2 Bft) N-NO 22 ° 0,000 mm 11,5 °C 20,1 °C 14,5 km/h (3 Bft) 100,00 %
06.05.2026 13:35 21,3 °C 54 % 1006,4 hPa 0,0 l/m² 8,0 km/h (2 Bft) N-NW 337 ° 0,000 mm 11,6 °C 20,7 °C 12,9 km/h (3 Bft) 100,00 %
06.05.2026 13:34 21,4 °C 54 % 1006,5 hPa 0,0 l/m² 6,4 km/h (2 Bft) N 360 ° 0,000 mm 11,7 °C 21,4 °C 9,7 km/h (2 Bft) 100,00 %
06.05.2026 13:33 21,3 °C 56 % 1006,6 hPa 0,0 l/m² 4,8 km/h (1 Bft) N 360 ° 0,000 mm 12,2 °C 21,3 °C 11,3 km/h (2 Bft) 100,00 %
06.05.2026 13:32 21,2 °C 55 % 1006,6 hPa 0,0 l/m² 4,8 km/h (1 Bft) W 270 ° 0,000 mm 11,8 °C 21,2 °C 9,7 km/h (2 Bft) 100,00 %
06.05.2026 13:31 21,1 °C 57 % 1006,6 hPa 0,0 l/m² 4,8 km/h (1 Bft) NO 45 ° 0,000 mm 12,2 °C 21,1 °C 6,4 km/h (2 Bft) 100,00 %
06.05.2026 13:30 21,0 °C 56 % 1006,6 hPa 0,0 l/m² 1,6 km/h (1 Bft) W 270 ° 0,000 mm 11,9 °C 21,0 °C 3,2 km/h (1 Bft) 100,00 %
06.05.2026 13:29 20,8 °C 56 % 1006,6 hPa 0,0 l/m² 1,6 km/h (1 Bft) W-NW 292 ° 0,000 mm 11,7 °C 20,8 °C 3,2 km/h (1 Bft) 100,00 %
06.05.2026 13:28 20,8 °C 56 % 1006,6 hPa 0,0 l/m² 1,6 km/h (1 Bft) W-NW 292 ° 0,000 mm 11,7 °C 20,8 °C 4,8 km/h (1 Bft) 95,65 %
06.05.2026 13:27 20,8 °C 55 % 1006,6 hPa 0,0 l/m² 4,8 km/h (1 Bft) NW 315 ° 0,000 mm 11,4 °C 20,8 °C 8,0 km/h (2 Bft) 100,00 %
06.05.2026 13:26 20,7 °C 55 % 1006,7 hPa 0,0 l/m² 4,8 km/h (1 Bft) N-NW 337 ° 0,000 mm 11,3 °C 20,7 °C 9,7 km/h (2 Bft) 100,00 %
06.05.2026 13:25 20,7 °C 56 % 1006,6 hPa 0,0 l/m² 3,2 km/h (1 Bft) W 270 ° 0,000 mm 11,6 °C 20,7 °C 8,0 km/h (2 Bft) 100,00 %
06.05.2026 13:24 20,6 °C 55 % 1006,7 hPa 0,0 l/m² 3,2 km/h (1 Bft) W-NW 292 ° 0,000 mm 11,2 °C 20,6 °C 6,4 km/h (2 Bft) 100,00 %
06.05.2026 13:23 20,7 °C 55 % 1006,8 hPa 0,0 l/m² 6,4 km/h (2 Bft) N 360 ° 0,000 mm 11,3 °C 20,7 °C 11,3 km/h (2 Bft) 100,00 %
06.05.2026 13:22 20,8 °C 55 % 1006,9 hPa 0,0 l/m² 4,8 km/h (1 Bft) W 270 ° 0,000 mm 11,4 °C 20,8 °C 11,3 km/h (2 Bft) 100,00 %
06.05.2026 13:21 20,8 °C 55 % 1006,9 hPa 0,0 l/m² 3,2 km/h (1 Bft) NW 315 ° 0,000 mm 11,4 °C 20,8 °C 6,4 km/h (2 Bft) 100,00 %
06.05.2026 13:20 21,0 °C 54 % 1006,7 hPa 0,0 l/m² 8,0 km/h (2 Bft) NO 45 ° 0,000 mm 11,3 °C 20,4 °C 11,3 km/h (2 Bft) 95,65 %
06.05.2026 13:19 21,1 °C 55 % 1006,8 hPa 0,0 l/m² 9,7 km/h (2 Bft) N-NO 22 ° 0,000 mm 11,7 °C 19,9 °C 12,9 km/h (3 Bft) 100,00 %
06.05.2026 13:18 21,1 °C 55 % 1006,9 hPa 0,0 l/m² 3,2 km/h (1 Bft) N-NO 22 ° 0,000 mm 11,7 °C 21,1 °C 9,7 km/h (2 Bft) 100,00 %
06.05.2026 13:17 21,2 °C 55 % 1007,0 hPa 0,0 l/m² 6,4 km/h (2 Bft) N 360 ° 0,000 mm 11,8 °C 21,2 °C 9,7 km/h (2 Bft) 100,00 %
06.05.2026 13:16 21,2 °C 55 % 1006,9 hPa 0,0 l/m² 3,2 km/h (1 Bft) W-SW 247 ° 0,000 mm 11,8 °C 21,2 °C 6,4 km/h (2 Bft) 95,65 %
06.05.2026 13:15 21,1 °C 55 % 1006,9 hPa 0,0 l/m² 3,2 km/h (1 Bft) S-SO 157 ° 0,000 mm 11,7 °C 21,1 °C 8,0 km/h (2 Bft) 100,00 %
06.05.2026 13:14 21,1 °C 55 % 1007,0 hPa 0,0 l/m² 3,2 km/h (1 Bft) O 90 ° 0,000 mm 11,7 °C 21,1 °C 8,0 km/h (2 Bft) 100,00 %
06.05.2026 13:13 21,2 °C 56 % 1007,0 hPa 0,0 l/m² 6,4 km/h (2 Bft) O-NO 67 ° 0,000 mm 12,1 °C 21,2 °C 9,7 km/h (2 Bft) 100,00 %
06.05.2026 13:12 21,2 °C 55 % 1006,9 hPa 0,0 l/m² 3,2 km/h (1 Bft) N 360 ° 0,000 mm 11,8 °C 21,2 °C 4,8 km/h (1 Bft) 100,00 %
06.05.2026 13:11 21,1 °C 56 % 1007,1 hPa 0,0 l/m² 3,2 km/h (1 Bft) O-NO 67 ° 0,000 mm 12,0 °C 21,1 °C 8,0 km/h (2 Bft) 95,65 %
06.05.2026 13:10 20,9 °C 56 % 1007,0 hPa 0,0 l/m² 3,2 km/h (1 Bft) O 90 ° 0,000 mm 11,8 °C 20,9 °C 4,8 km/h (1 Bft) 100,00 %
06.05.2026 13:09 20,8 °C 56 % 1007,1 hPa 0,0 l/m² 6,4 km/h (2 Bft) O-SO 112 ° 0,000 mm 11,7 °C 20,8 °C 9,7 km/h (2 Bft) 100,00 %
06.05.2026 13:08 20,8 °C 56 % 1007,1 hPa 0,0 l/m² 6,4 km/h (2 Bft) O-SO 112 ° 0,000 mm 11,7 °C 20,8 °C 11,3 km/h (2 Bft) 95,65 %
06.05.2026 13:07 20,7 °C 57 % 1007,0 hPa 0,0 l/m² 3,2 km/h (1 Bft) O-SO 112 ° 0,000 mm 11,9 °C 20,7 °C 6,4 km/h (2 Bft) 100,00 %
06.05.2026 13:06 20,6 °C 57 % 1007,1 hPa 0,0 l/m² 1,6 km/h (1 Bft) W 270 ° 0,000 mm 11,8 °C 20,6 °C 3,2 km/h (1 Bft) 95,65 %
06.05.2026 13:05 20,4 °C 56 % 1007,2 hPa 0,0 l/m² 1,6 km/h (1 Bft) W-NW 292 ° 0,000 mm 11,3 °C 20,4 °C 3,2 km/h (1 Bft) 100,00 %
06.05.2026 13:04 20,4 °C 57 % 1007,2 hPa 0,0 l/m² 3,2 km/h (1 Bft) W 270 ° 0,000 mm 11,6 °C 20,4 °C 4,8 km/h (1 Bft) 95,65 %
06.05.2026 13:03 20,3 °C 57 % 1007,2 hPa 0,0 l/m² 3,2 km/h (1 Bft) W 270 ° 0,000 mm 11,5 °C 20,3 °C 6,4 km/h (2 Bft) 100,00 %
06.05.2026 13:02 20,3 °C 57 % 1007,2 hPa 0,0 l/m² 3,2 km/h (1 Bft) NW 315 ° 0,000 mm 11,5 °C 20,3 °C 6,4 km/h (2 Bft) 100,00 %
06.05.2026 13:01 20,4 °C 57 % 1007,3 hPa 0,0 l/m² 8,0 km/h (2 Bft) N-NW 337 ° 0,000 mm 11,6 °C 19,8 °C 9,7 km/h (2 Bft) 100,00 %
06.05.2026 13:00 20,4 °C 57 % 1007,2 hPa 0,0 l/m² 3,2 km/h (1 Bft) W 270 ° 0,000 mm 11,6 °C 20,4 °C 6,4 km/h (2 Bft) 100,00 %
06.05.2026 12:59 20,4 °C 56 % 1007,2 hPa 0,0 l/m² 1,6 km/h (1 Bft) W-NW 292 ° 0,000 mm 11,3 °C 20,4 °C 4,8 km/h (1 Bft) 100,00 %
06.05.2026 12:58 20,5 °C 56 % 1007,2 hPa 0,0 l/m² 1,6 km/h (1 Bft) N 360 ° 0,000 mm 11,4 °C 20,5 °C 6,4 km/h (2 Bft) 100,00 %
06.05.2026 12:57 20,6 °C 55 % 1007,2 hPa 0,0 l/m² 6,4 km/h (2 Bft) NW 315 ° 0,000 mm 11,2 °C 20,6 °C 9,7 km/h (2 Bft) 100,00 %
06.05.2026 12:56 20,8 °C 55 % 1007,2 hPa 0,0 l/m² 4,8 km/h (1 Bft) N-NW 337 ° 0,000 mm 11,4 °C 20,8 °C 9,7 km/h (2 Bft) 100,00 %
06.05.2026 12:55 20,9 °C 55 % 1007,2 hPa 0,0 l/m² 4,8 km/h (1 Bft) NW 315 ° 0,000 mm 11,5 °C 20,9 °C 6,4 km/h (2 Bft) 95,65 %
06.05.2026 12:54 20,9 °C 55 % 1007,2 hPa 0,0 l/m² 3,2 km/h (1 Bft) W 270 ° 0,000 mm 11,5 °C 20,9 °C 6,4 km/h (2 Bft) 100,00 %
06.05.2026 12:53 20,9 °C 55 % 1007,2 hPa 0,0 l/m² 4,8 km/h (1 Bft) N 360 ° 0,000 mm 11,5 °C 20,9 °C 9,7 km/h (2 Bft) 100,00 %
06.05.2026 12:52 20,9 °C 56 % 1007,3 hPa 0,0 l/m² 4,8 km/h (1 Bft) NO 45 ° 0,000 mm 11,8 °C 20,9 °C 11,3 km/h (2 Bft) 100,00 %
06.05.2026 12:51 20,9 °C 56 % 1007,3 hPa 0,0 l/m² 1,6 km/h (1 Bft) W-SW 247 ° 0,000 mm 11,8 °C 20,9 °C 4,8 km/h (1 Bft) 91,30 %
06.05.2026 12:50 20,7 °C 56 % 1007,3 hPa 0,0 l/m² 1,6 km/h (1 Bft) S-SW 202 ° 0,000 mm 11,6 °C 20,7 °C 4,8 km/h (1 Bft) 100,00 %
06.05.2026 12:49 20,6 °C 56 % 1007,4 hPa 0,0 l/m² 1,6 km/h (1 Bft) N 360 ° 0,000 mm 11,5 °C 20,6 °C 3,2 km/h (1 Bft) 100,00 %
06.05.2026 12:48 20,4 °C 56 % 1007,4 hPa 0,0 l/m² 1,6 km/h (1 Bft) W-SW 247 ° 0,000 mm 11,3 °C 20,4 °C 3,2 km/h (1 Bft) 100,00 %
06.05.2026 12:47 20,3 °C 56 % 1007,5 hPa 0,0 l/m² 1,6 km/h (1 Bft) SW 225 ° 0,000 mm 11,2 °C 20,3 °C 3,2 km/h (1 Bft) 100,00 %
06.05.2026 12:46 20,3 °C 55 % 1007,6 hPa 0,0 l/m² 3,2 km/h (1 Bft) O 90 ° 0,000 mm 11,0 °C 20,3 °C 8,0 km/h (2 Bft) 100,00 %
06.05.2026 12:45 20,3 °C 56 % 1007,5 hPa 0,0 l/m² 0,0 km/h (0 Bft) N 360 ° 0,000 mm 11,2 °C 20,3 °C 6,4 km/h (2 Bft) 100,00 %
06.05.2026 12:44 20,2 °C 57 % 1007,5 hPa 0,0 l/m² 1,6 km/h (1 Bft) N 360 ° 0,000 mm 11,4 °C 20,2 °C 4,8 km/h (1 Bft) 100,00 %
06.05.2026 12:43 20,1 °C 57 % 1007,4 hPa 0,0 l/m² 1,6 km/h (1 Bft) W-NW 292 ° 0,000 mm 11,3 °C 20,1 °C 3,2 km/h (1 Bft) 100,00 %
06.05.2026 12:42 19,9 °C 57 % 1007,5 hPa 0,0 l/m² 3,2 km/h (1 Bft) W 270 ° 0,000 mm 11,1 °C 19,9 °C 4,8 km/h (1 Bft) 100,00 %
06.05.2026 12:41 19,8 °C 58 % 1007,3 hPa 0,0 l/m² 0,0 km/h (0 Bft) SW 225 ° 0,000 mm 11,3 °C 19,8 °C 1,6 km/h (1 Bft) 100,00 %
06.05.2026 12:40 19,7 °C 57 % 1007,6 hPa 0,0 l/m² 1,6 km/h (1 Bft) W-NW 292 ° 0,000 mm 10,9 °C 19,7 °C 4,8 km/h (1 Bft) 100,00 %
06.05.2026 12:39 19,7 °C 57 % 1007,5 hPa 0,0 l/m² 4,8 km/h (1 Bft) N-NO 22 ° 0,000 mm 10,9 °C 19,7 °C 6,4 km/h (2 Bft) 100,00 %
06.05.2026 12:38 19,7 °C 58 % 1007,6 hPa 0,0 l/m² 6,4 km/h (2 Bft) N-NO 22 ° 0,000 mm 11,2 °C 19,7 °C 9,7 km/h (2 Bft) 100,00 %
06.05.2026 12:37 19,6 °C 57 % 1007,6 hPa 0,0 l/m² 4,8 km/h (1 Bft) NW 315 ° 0,000 mm 10,8 °C 19,6 °C 6,4 km/h (2 Bft) 95,65 %
06.05.2026 12:36 19,6 °C 57 % 1007,7 hPa 0,0 l/m² 3,2 km/h (1 Bft) W-NW 292 ° 0,000 mm 10,8 °C 19,6 °C 6,4 km/h (2 Bft) 100,00 %
06.05.2026 12:35 19,6 °C 57 % 1007,6 hPa 0,0 l/m² 1,6 km/h (1 Bft) NW 315 ° 0,000 mm 10,8 °C 19,6 °C 3,2 km/h (1 Bft) 100,00 %
06.05.2026 12:34 19,6 °C 56 % 1007,6 hPa 0,0 l/m² 3,2 km/h (1 Bft) W-SW 247 ° 0,000 mm 10,6 °C 19,6 °C 6,4 km/h (2 Bft) 100,00 %
06.05.2026 12:33 19,6 °C 57 % 1007,6 hPa 0,0 l/m² 4,8 km/h (1 Bft) W-NW 292 ° 0,000 mm 10,8 °C 19,6 °C 9,7 km/h (2 Bft) 100,00 %
06.05.2026 12:32 19,7 °C 57 % 1007,6 hPa 0,0 l/m² 1,6 km/h (1 Bft) N 360 ° 0,000 mm 10,9 °C 19,7 °C 6,4 km/h (2 Bft) 100,00 %
06.05.2026 12:31 19,6 °C 57 % 1007,7 hPa 0,0 l/m² 1,6 km/h (1 Bft) W-SW 247 ° 0,000 mm 10,8 °C 19,6 °C 1,6 km/h (1 Bft) 100,00 %
06.05.2026 12:30 19,6 °C 57 % 1007,7 hPa 0,0 l/m² 1,6 km/h (1 Bft) W-NW 292 ° 0,000 mm 10,8 °C 19,6 °C 3,2 km/h (1 Bft) 100,00 %
06.05.2026 12:29 19,6 °C 58 % 1007,7 hPa 0,0 l/m² 1,6 km/h (1 Bft) N-NO 22 ° 0,000 mm 11,1 °C 19,6 °C 6,4 km/h (2 Bft) 100,00 %
06.05.2026 12:28 19,6 °C 57 % 1007,6 hPa 0,0 l/m² 3,2 km/h (1 Bft) W 270 ° 0,000 mm 10,8 °C 19,6 °C 6,4 km/h (2 Bft) 100,00 %
06.05.2026 12:27 19,6 °C 57 % 1007,6 hPa 0,0 l/m² 0,0 km/h (0 Bft) W-SW 247 ° 0,000 mm 10,8 °C 19,6 °C 1,6 km/h (1 Bft) 100,00 %
06.05.2026 12:26 19,6 °C 57 % 1007,6 hPa 0,0 l/m² 4,8 km/h (1 Bft) N 360 ° 0,000 mm 10,8 °C 19,6 °C 6,4 km/h (2 Bft) 100,00 %
06.05.2026 12:25 19,7 °C 57 % 1007,7 hPa 0,0 l/m² 3,2 km/h (1 Bft) O 90 ° 0,000 mm 10,9 °C 19,7 °C 8,0 km/h (2 Bft) 100,00 %
06.05.2026 12:24 19,7 °C 57 % 1007,7 hPa 0,0 l/m² 3,2 km/h (1 Bft) W-NW 292 ° 0,000 mm 10,9 °C 19,7 °C 6,4 km/h (2 Bft) 100,00 %
06.05.2026 12:23 19,7 °C 57 % 1007,7 hPa 0,0 l/m² 1,6 km/h (1 Bft) W-NW 292 ° 0,000 mm 10,9 °C 19,7 °C 6,4 km/h (2 Bft) 100,00 %
06.05.2026 12:22 19,7 °C 56 % 1007,7 hPa 0,0 l/m² 3,2 km/h (1 Bft) N-NW 337 ° 0,000 mm 10,7 °C 19,7 °C 6,4 km/h (2 Bft) 100,00 %
06.05.2026 12:21 19,7 °C 57 % 1007,6 hPa 0,0 l/m² 0,0 km/h (0 Bft) W-NW 292 ° 0,000 mm 10,9 °C 19,7 °C 3,2 km/h (1 Bft) 100,00 %
06.05.2026 12:20 19,6 °C 56 % 1007,7 hPa 0,0 l/m² 1,6 km/h (1 Bft) W-NW 292 ° 0,000 mm 10,6 °C 19,6 °C 3,2 km/h (1 Bft) 95,65 %
06.05.2026 12:19 19,7 °C 56 % 1007,7 hPa 0,0 l/m² 0,0 km/h (0 Bft) W-NW 292 ° 0,000 mm 10,7 °C 19,7 °C 3,2 km/h (1 Bft) 100,00 %
06.05.2026 12:18 19,7 °C 56 % 1007,8 hPa 0,0 l/m² 3,2 km/h (1 Bft) NW 315 ° 0,000 mm 10,7 °C 19,7 °C 4,8 km/h (1 Bft) 100,00 %
06.05.2026 12:17 19,7 °C 56 % 1007,8 hPa 0,0 l/m² 4,8 km/h (1 Bft) NO 45 ° 0,000 mm 10,7 °C 19,7 °C 6,4 km/h (2 Bft) 100,00 %
06.05.2026 12:16 19,8 °C 57 % 1007,8 hPa 0,0 l/m² 3,2 km/h (1 Bft) O-NO 67 ° 0,000 mm 11,0 °C 19,8 °C 6,4 km/h (2 Bft) 100,00 %
06.05.2026 12:15 19,9 °C 56 % 1007,8 hPa 0,0 l/m² 4,8 km/h (1 Bft) N 360 ° 0,000 mm 10,9 °C 19,9 °C 8,0 km/h (2 Bft) 100,00 %
06.05.2026 12:14 20,0 °C 56 % 1007,9 hPa 0,0 l/m² 4,8 km/h (1 Bft) O-NO 67 ° 0,000 mm 11,0 °C 20,0 °C 9,7 km/h (2 Bft) 100,00 %
06.05.2026 12:13 20,1 °C 56 % 1007,8 hPa 0,0 l/m² 3,2 km/h (1 Bft) W 270 ° 0,000 mm 11,0 °C 20,1 °C 4,8 km/h (1 Bft) 100,00 %
06.05.2026 12:12 20,2 °C 57 % 1007,8 hPa 0,0 l/m² 3,2 km/h (1 Bft) N 360 ° 0,000 mm 11,4 °C 20,2 °C 8,0 km/h (2 Bft) 100,00 %
06.05.2026 12:11 20,2 °C 56 % 1007,9 hPa 0,0 l/m² 3,2 km/h (1 Bft) SO 135 ° 0,000 mm 11,1 °C 20,2 °C 9,7 km/h (2 Bft) 100,00 %
06.05.2026 12:10 20,1 °C 56 % 1007,8 hPa 0,0 l/m² 0,0 km/h (0 Bft) SW 225 ° 0,000 mm 11,0 °C 20,1 °C 1,6 km/h (1 Bft) 95,65 %
06.05.2026 12:09 20,0 °C 56 % 1007,8 hPa 0,0 l/m² 0,0 km/h (0 Bft) SW 225 ° 0,000 mm 11,0 °C 20,0 °C 3,2 km/h (1 Bft) 100,00 %
06.05.2026 12:08 19,9 °C 56 % 1008,0 hPa 0,0 l/m² 0,0 km/h (0 Bft) W 270 ° 0,000 mm 10,9 °C 19,9 °C 1,6 km/h (1 Bft) 100,00 %
06.05.2026 12:07 19,8 °C 57 % 1008,0 hPa 0,0 l/m² 1,6 km/h (1 Bft) W 270 ° 0,000 mm 11,0 °C 19,8 °C 3,2 km/h (1 Bft) 100,00 %
06.05.2026 12:06 19,8 °C 57 % 1008,1 hPa 0,0 l/m² 1,6 km/h (1 Bft) S 180 ° 0,000 mm 11,0 °C 19,8 °C 3,2 km/h (1 Bft) 100,00 %
06.05.2026 12:05 19,7 °C 57 % 1008,2 hPa 0,0 l/m² 1,6 km/h (1 Bft) W-SW 247 ° 0,000 mm 10,9 °C 19,7 °C 3,2 km/h (1 Bft) 100,00 %
06.05.2026 12:04 19,6 °C 57 % 1008,1 hPa 0,0 l/m² 1,6 km/h (1 Bft) SW 225 ° 0,000 mm 10,8 °C 19,6 °C 1,6 km/h (1 Bft) 100,00 %
06.05.2026 12:03 19,4 °C 57 % 1008,1 hPa 0,0 l/m² 1,6 km/h (1 Bft) W-SW 247 ° 0,000 mm 10,7 °C 19,4 °C 3,2 km/h (1 Bft) 95,65 %
06.05.2026 12:02 19,3 °C 57 % 1008,1 hPa 0,0 l/m² 1,6 km/h (1 Bft) W-SW 247 ° 0,000 mm 10,6 °C 19,3 °C 1,6 km/h (1 Bft) 100,00 %
06.05.2026 12:01 19,2 °C 57 % 1008,0 hPa 0,0 l/m² 1,6 km/h (1 Bft) W 270 ° 0,000 mm 10,5 °C 19,2 °C 3,2 km/h (1 Bft) 100,00 %
06.05.2026 12:00 19,2 °C 57 % 1008,2 hPa 0,0 l/m² 1,6 km/h (1 Bft) NW 315 ° 0,000 mm 10,5 °C 19,2 °C 3,2 km/h (1 Bft) 100,00 %
06.05.2026 11:59 19,2 °C 57 % 1008,1 hPa 0,0 l/m² 1,6 km/h (1 Bft) W 270 ° 0,000 mm 10,5 °C 19,2 °C 3,2 km/h (1 Bft) 100,00 %
06.05.2026 11:58 19,2 °C 57 % 1008,1 hPa 0,0 l/m² 0,0 km/h (0 Bft) N 0 ° 0,000 mm 10,5 °C 19,2 °C 0,0 km/h (0 Bft) 100,00 %
06.05.2026 11:57 19,2 °C 57 % 1008,1 hPa 0,0 l/m² 0,0 km/h (0 Bft) W 270 ° 0,000 mm 10,5 °C 19,2 °C 1,6 km/h (1 Bft) 100,00 %
06.05.2026 11:56 19,1 °C 57 % 1008,2 hPa 0,0 l/m² 1,6 km/h (1 Bft) W 270 ° 0,000 mm 10,4 °C 19,1 °C 3,2 km/h (1 Bft) 100,00 %
06.05.2026 11:55 19,0 °C 57 % 1008,1 hPa 0,0 l/m² 1,6 km/h (1 Bft) W-NW 292 ° 0,000 mm 10,3 °C 19,0 °C 3,2 km/h (1 Bft) 100,00 %
06.05.2026 11:54 18,9 °C 57 % 1008,2 hPa 0,0 l/m² 1,6 km/h (1 Bft) W 270 ° 0,000 mm 10,2 °C 18,9 °C 1,6 km/h (1 Bft) 95,65 %
06.05.2026 11:53 18,9 °C 57 % 1008,2 hPa 0,0 l/m² 0,0 km/h (0 Bft) W 270 ° 0,000 mm 10,2 °C 18,9 °C 1,6 km/h (1 Bft) 100,00 %
06.05.2026 11:52 18,9 °C 57 % 1008,1 hPa 0,0 l/m² 0,0 km/h (0 Bft) NW 315 ° 0,000 mm 10,2 °C 18,9 °C 3,2 km/h (1 Bft) 100,00 %
06.05.2026 11:51 19,1 °C 56 % 1008,1 hPa 0,0 l/m² 4,8 km/h (1 Bft) N 360 ° 0,000 mm 10,1 °C 19,1 °C 6,4 km/h (2 Bft) 100,00 %
06.05.2026 11:50 19,2 °C 57 % 1008,1 hPa 0,0 l/m² 4,8 km/h (1 Bft) NW 315 ° 0,000 mm 10,5 °C 19,2 °C 8,0 km/h (2 Bft) 100,00 %
06.05.2026 11:49 19,2 °C 57 % 1008,2 hPa 0,0 l/m² 4,8 km/h (1 Bft) NW 315 ° 0,000 mm 10,5 °C 19,2 °C 9,7 km/h (2 Bft) 100,00 %
06.05.2026 11:48 19,3 °C 57 % 1008,1 hPa 0,0 l/m² 3,2 km/h (1 Bft) N-NW 337 ° 0,000 mm 10,6 °C 19,3 °C 6,4 km/h (2 Bft) 100,00 %
06.05.2026 11:47 19,4 °C 57 % 1008,2 hPa 0,0 l/m² 6,4 km/h (2 Bft) N 360 ° 0,000 mm 10,7 °C 19,4 °C 12,9 km/h (3 Bft) 100,00 %
06.05.2026 11:46 19,5 °C 56 % 1008,2 hPa 0,0 l/m² 4,8 km/h (1 Bft) N 360 ° 0,000 mm 10,5 °C 19,5 °C 12,9 km/h (3 Bft) 95,65 %
06.05.2026 11:45 19,4 °C 57 % 1008,3 hPa 0,0 l/m² 1,6 km/h (1 Bft) W 270 ° 0,000 mm 10,7 °C 19,4 °C 3,2 km/h (1 Bft) 100,00 %
06.05.2026 11:44 19,4 °C 56 % 1008,2 hPa 0,0 l/m² 0,0 km/h (0 Bft) W 270 ° 0,000 mm 10,4 °C 19,4 °C 1,6 km/h (1 Bft) 100,00 %
06.05.2026 11:43 19,4 °C 56 % 1008,2 hPa 0,0 l/m² 0,0 km/h (0 Bft) N 0 ° 0,000 mm 10,4 °C 19,4 °C 0,0 km/h (0 Bft) 100,00 %
06.05.2026 11:42 19,4 °C 56 % 1008,2 hPa 0,0 l/m² 1,6 km/h (1 Bft) W-NW 292 ° 0,000 mm 10,4 °C 19,4 °C 3,2 km/h (1 Bft) 100,00 %
06.05.2026 11:41 19,4 °C 56 % 1008,4 hPa 0,0 l/m² 1,6 km/h (1 Bft) W-NW 292 ° 0,000 mm 10,4 °C 19,4 °C 3,2 km/h (1 Bft) 100,00 %
06.05.2026 11:40 19,4 °C 56 % 1008,3 hPa 0,0 l/m² 3,2 km/h (1 Bft) S 180 ° 0,000 mm 10,4 °C 19,4 °C 3,2 km/h (1 Bft) 95,65 %
06.05.2026 11:39 19,3 °C 58 % 1008,2 hPa 0,0 l/m² 1,6 km/h (1 Bft) SW 225 ° 0,000 mm 10,8 °C 19,3 °C 3,2 km/h (1 Bft) 100,00 %
06.05.2026 11:38 19,3 °C 57 % 1008,3 hPa 0,0 l/m² 3,2 km/h (1 Bft) S 180 ° 0,000 mm 10,6 °C 19,3 °C 6,4 km/h (2 Bft) 100,00 %
06.05.2026 11:37 19,3 °C 57 % 1008,4 hPa 0,0 l/m² 1,6 km/h (1 Bft) S-SW 202 ° 0,000 mm 10,6 °C 19,3 °C 4,8 km/h (1 Bft) 91,30 %
06.05.2026 11:36 19,3 °C 57 % 1008,4 hPa 0,0 l/m² 1,6 km/h (1 Bft) S-SW 202 ° 0,000 mm 10,6 °C 19,3 °C 3,2 km/h (1 Bft) 100,00 %
06.05.2026 11:35 19,3 °C 57 % 1008,4 hPa 0,0 l/m² 3,2 km/h (1 Bft) S-SW 202 ° 0,000 mm 10,6 °C 19,3 °C 4,8 km/h (1 Bft) 100,00 %
06.05.2026 11:34 19,2 °C 57 % 1008,5 hPa 0,0 l/m² 4,8 km/h (1 Bft) SW 225 ° 0,000 mm 10,5 °C 19,2 °C 6,4 km/h (2 Bft) 100,00 %
06.05.2026 11:33 19,3 °C 57 % 1008,4 hPa 0,0 l/m² 1,6 km/h (1 Bft) W-NW 292 ° 0,000 mm 10,6 °C 19,3 °C 4,8 km/h (1 Bft) 100,00 %
06.05.2026 11:32 19,3 °C 56 % 1008,5 hPa 0,0 l/m² 1,6 km/h (1 Bft) NW 315 ° 0,000 mm 10,3 °C 19,3 °C 4,8 km/h (1 Bft) 100,00 %
06.05.2026 11:31 19,3 °C 57 % 1008,4 hPa 0,0 l/m² 1,6 km/h (1 Bft) N-NW 337 ° 0,000 mm 10,6 °C 19,3 °C 4,8 km/h (1 Bft) 100,00 %
06.05.2026 11:30 19,2 °C 57 % 1008,4 hPa 0,0 l/m² 1,6 km/h (1 Bft) NW 315 ° 0,000 mm 10,5 °C 19,2 °C 3,2 km/h (1 Bft) 100,00 %
06.05.2026 11:29 19,2 °C 57 % 1008,4 hPa 0,0 l/m² 1,6 km/h (1 Bft) N-NW 337 ° 0,000 mm 10,5 °C 19,2 °C 6,4 km/h (2 Bft) 95,65 %
06.05.2026 11:28 19,1 °C 58 % 1008,4 hPa 0,0 l/m² 1,6 km/h (1 Bft) S-SW 202 ° 0,000 mm 10,6 °C 19,1 °C 3,2 km/h (1 Bft) 100,00 %
06.05.2026 11:27 19,1 °C 57 % 1008,5 hPa 0,0 l/m² 3,2 km/h (1 Bft) S 180 ° 0,000 mm 10,4 °C 19,1 °C 6,4 km/h (2 Bft) 100,00 %
06.05.2026 11:26 19,0 °C 57 % 1008,5 hPa 0,0 l/m² 3,2 km/h (1 Bft) S-SW 202 ° 0,000 mm 10,3 °C 19,0 °C 4,8 km/h (1 Bft) 100,00 %
06.05.2026 11:25 19,0 °C 57 % 1008,4 hPa 0,0 l/m² 1,6 km/h (1 Bft) SW 225 ° 0,000 mm 10,3 °C 19,0 °C 1,6 km/h (1 Bft) 100,00 %
06.05.2026 11:24 18,9 °C 58 % 1008,4 hPa 0,0 l/m² 1,6 km/h (1 Bft) SW 225 ° 0,000 mm 10,5 °C 18,9 °C 3,2 km/h (1 Bft) 100,00 %
06.05.2026 11:23 18,9 °C 57 % 1008,4 hPa 0,0 l/m² 0,0 km/h (0 Bft) W 270 ° 0,000 mm 10,2 °C 18,9 °C 1,6 km/h (1 Bft) 100,00 %
06.05.2026 11:22 18,9 °C 57 % 1008,3 hPa 0,0 l/m² 1,6 km/h (1 Bft) N-NW 337 ° 0,000 mm 10,2 °C 18,9 °C 4,8 km/h (1 Bft) 100,00 %
06.05.2026 11:21 18,9 °C 57 % 1008,3 hPa 0,0 l/m² 1,6 km/h (1 Bft) SW 225 ° 0,000 mm 10,2 °C 18,9 °C 3,2 km/h (1 Bft) 100,00 %
06.05.2026 11:20 18,9 °C 57 % 1008,2 hPa 0,0 l/m² 1,6 km/h (1 Bft) N 360 ° 0,000 mm 10,2 °C 18,9 °C 4,8 km/h (1 Bft) 100,00 %
06.05.2026 11:19 18,9 °C 57 % 1008,4 hPa 0,0 l/m² 4,8 km/h (1 Bft) O-NO 67 ° 0,000 mm 10,2 °C 18,9 °C 8,0 km/h (2 Bft) 100,00 %
06.05.2026 11:18 19,0 °C 57 % 1008,2 hPa 0,0 l/m² 1,6 km/h (1 Bft) NO 45 ° 0,000 mm 10,3 °C 19,0 °C 8,0 km/h (2 Bft) 100,00 %
06.05.2026 11:17 19,1 °C 57 % 1008,2 hPa 0,0 l/m² 1,6 km/h (1 Bft) NO 45 ° 0,000 mm 10,4 °C 19,1 °C 4,8 km/h (1 Bft) 100,00 %
06.05.2026 11:16 19,0 °C 57 % 1008,2 hPa 0,0 l/m² 3,2 km/h (1 Bft) W-SW 247 ° 0,000 mm 10,3 °C 19,0 °C 8,0 km/h (2 Bft) 100,00 %
06.05.2026 11:15 18,9 °C 56 % 1008,3 hPa 0,0 l/m² 0,0 km/h (0 Bft) W-SW 247 ° 0,000 mm 9,9 °C 18,9 °C 1,6 km/h (1 Bft) 95,65 %
06.05.2026 11:14 18,9 °C 56 % 1008,2 hPa 0,0 l/m² 1,6 km/h (1 Bft) NW 315 ° 0,000 mm 9,9 °C 18,9 °C 3,2 km/h (1 Bft) 100,00 %
06.05.2026 11:13 18,9 °C 58 % 1008,2 hPa 0,0 l/m² 1,6 km/h (1 Bft) W-SW 247 ° 0,000 mm 10,5 °C 18,9 °C 4,8 km/h (1 Bft) 100,00 %
06.05.2026 11:12 18,8 °C 57 % 1008,2 hPa 0,0 l/m² 3,2 km/h (1 Bft) S-SW 202 ° 0,000 mm 10,1 °C 18,8 °C 4,8 km/h (1 Bft) 100,00 %
06.05.2026 11:11 18,7 °C 57 % 1008,2 hPa 0,0 l/m² 1,6 km/h (1 Bft) O 90 ° 0,000 mm 10,0 °C 18,7 °C 3,2 km/h (1 Bft) 100,00 %
06.05.2026 11:10 18,7 °C 57 % 1008,3 hPa 0,0 l/m² 3,2 km/h (1 Bft) O 90 ° 0,000 mm 10,0 °C 18,7 °C 4,8 km/h (1 Bft) 100,00 %
06.05.2026 11:09 18,6 °C 57 % 1008,2 hPa 0,0 l/m² 1,6 km/h (1 Bft) W-NW 292 ° 0,000 mm 9,9 °C 18,6 °C 3,2 km/h (1 Bft) 100,00 %
06.05.2026 11:08 18,6 °C 56 % 1008,4 hPa 0,0 l/m² 1,6 km/h (1 Bft) W 270 ° 0,000 mm 9,6 °C 18,6 °C 6,4 km/h (2 Bft) 100,00 %
06.05.2026 11:07 18,6 °C 56 % 1008,3 hPa 0,0 l/m² 1,6 km/h (1 Bft) O-NO 67 ° 0,000 mm 9,6 °C 18,6 °C 1,6 km/h (1 Bft) 100,00 %
06.05.2026 11:06 18,7 °C 56 % 1008,3 hPa 0,0 l/m² 3,2 km/h (1 Bft) O-NO 67 ° 0,000 mm 9,7 °C 18,7 °C 4,8 km/h (1 Bft) 95,65 %
06.05.2026 11:05 18,8 °C 56 % 1008,4 hPa 0,0 l/m² 3,2 km/h (1 Bft) NW 315 ° 0,000 mm 9,8 °C 18,8 °C 6,4 km/h (2 Bft) 100,00 %
06.05.2026 11:04 18,8 °C 55 % 1008,3 hPa 0,0 l/m² 6,4 km/h (2 Bft) N-NO 22 ° 0,000 mm 9,6 °C 18,8 °C 8,0 km/h (2 Bft) 100,00 %
06.05.2026 11:03 19,0 °C 55 % 1008,4 hPa 0,0 l/m² 4,8 km/h (1 Bft) N-NW 337 ° 0,000 mm 9,8 °C 19,0 °C 6,4 km/h (2 Bft) 91,30 %
06.05.2026 11:02 19,1 °C 55 % 1008,4 hPa 0,0 l/m² 6,4 km/h (2 Bft) N 360 ° 0,000 mm 9,8 °C 19,1 °C 9,7 km/h (2 Bft) 100,00 %
06.05.2026 11:01 19,2 °C 56 % 1008,3 hPa 0,0 l/m² 4,8 km/h (1 Bft) NW 315 ° 0,000 mm 10,2 °C 19,2 °C 8,0 km/h (2 Bft) 95,65 %
06.05.2026 11:00 19,3 °C 55 % 1008,4 hPa 0,0 l/m² 4,8 km/h (1 Bft) N-NW 337 ° 0,000 mm 10,0 °C 19,3 °C 6,4 km/h (2 Bft) 100,00 %
06.05.2026 10:59 19,4 °C 56 % 1008,4 hPa 0,0 l/m² 3,2 km/h (1 Bft) SW 225 ° 0,000 mm 10,4 °C 19,4 °C 6,4 km/h (2 Bft) 100,00 %
06.05.2026 10:58 19,4 °C 56 % 1008,4 hPa 0,0 l/m² 1,6 km/h (1 Bft) W-NW 292 ° 0,000 mm 10,4 °C 19,4 °C 3,2 km/h (1 Bft) 100,00 %
06.05.2026 10:57 19,3 °C 57 % 1008,5 hPa 0,0 l/m² 1,6 km/h (1 Bft) S-SW 202 ° 0,000 mm 10,6 °C 19,3 °C 4,8 km/h (1 Bft) 100,00 %
06.05.2026 10:56 19,2 °C 57 % 1008,4 hPa 0,0 l/m² 0,0 km/h (0 Bft) N 0 ° 0,000 mm 10,5 °C 19,2 °C 0,0 km/h (0 Bft) 100,00 %
06.05.2026 10:55 19,1 °C 57 % 1008,4 hPa 0,0 l/m² 0,0 km/h (0 Bft) NW 315 ° 0,000 mm 10,4 °C 19,1 °C 3,2 km/h (1 Bft) 100,00 %
06.05.2026 10:54 19,1 °C 57 % 1008,4 hPa 0,0 l/m² 3,2 km/h (1 Bft) S-SW 202 ° 0,000 mm 10,4 °C 19,1 °C 6,4 km/h (2 Bft) 95,65 %
06.05.2026 10:53 19,1 °C 57 % 1008,4 hPa 0,0 l/m² 3,2 km/h (1 Bft) SW 225 ° 0,000 mm 10,4 °C 19,1 °C 4,8 km/h (1 Bft) 100,00 %
06.05.2026 10:52 19,1 °C 56 % 1008,5 hPa 0,0 l/m² 4,8 km/h (1 Bft) S-SW 202 ° 0,000 mm 10,1 °C 19,1 °C 8,0 km/h (2 Bft) 100,00 %
06.05.2026 10:51 19,1 °C 55 % 1008,6 hPa 0,0 l/m² 3,2 km/h (1 Bft) S-SW 202 ° 0,000 mm 9,8 °C 19,1 °C 6,4 km/h (2 Bft) 100,00 %
06.05.2026 10:50 19,2 °C 55 % 1008,5 hPa 0,0 l/m² 4,8 km/h (1 Bft) S-SO 157 ° 0,000 mm 9,9 °C 19,2 °C 8,0 km/h (2 Bft) 100,00 %
06.05.2026 10:49 19,2 °C 55 % 1008,6 hPa 0,0 l/m² 6,4 km/h (2 Bft) S-SO 157 ° 0,000 mm 9,9 °C 19,2 °C 8,0 km/h (2 Bft) 100,00 %
06.05.2026 10:48 19,3 °C 55 % 1008,6 hPa 0,0 l/m² 6,4 km/h (2 Bft) S-SO 157 ° 0,000 mm 10,0 °C 19,3 °C 8,0 km/h (2 Bft) 100,00 %
06.05.2026 10:47 19,3 °C 56 % 1008,6 hPa 0,0 l/m² 3,2 km/h (1 Bft) S 180 ° 0,000 mm 10,3 °C 19,3 °C 6,4 km/h (2 Bft) 100,00 %
06.05.2026 10:46 19,3 °C 56 % 1008,7 hPa 0,0 l/m² 4,8 km/h (1 Bft) S 180 ° 0,000 mm 10,3 °C 19,3 °C 4,8 km/h (1 Bft) 100,00 %
06.05.2026 10:45 19,2 °C 57 % 1008,6 hPa 0,0 l/m² 1,6 km/h (1 Bft) O 90 ° 0,000 mm 10,5 °C 19,2 °C 1,6 km/h (1 Bft) 100,00 %
06.05.2026 10:44 19,1 °C 58 % 1008,5 hPa 0,0 l/m² 1,6 km/h (1 Bft) O 90 ° 0,000 mm 10,6 °C 19,1 °C 3,2 km/h (1 Bft) 95,65 %
06.05.2026 10:43 18,9 °C 58 % 1008,6 hPa 0,0 l/m² 3,2 km/h (1 Bft) SW 225 ° 0,000 mm 10,5 °C 18,9 °C 4,8 km/h (1 Bft) 100,00 %
06.05.2026 10:42 18,9 °C 58 % 1008,6 hPa 0,0 l/m² 1,6 km/h (1 Bft) W 270 ° 0,000 mm 10,5 °C 18,9 °C 3,2 km/h (1 Bft) 95,65 %
06.05.2026 10:41 18,8 °C 59 % 1008,6 hPa 0,0 l/m² 0,0 km/h (0 Bft) W-NW 292 ° 0,000 mm 10,6 °C 18,8 °C 1,6 km/h (1 Bft) 95,65 %
06.05.2026 10:40 18,8 °C 59 % 1008,6 hPa 0,0 l/m² 4,8 km/h (1 Bft) N 360 ° 0,000 mm 10,6 °C 18,8 °C 8,0 km/h (2 Bft) 100,00 %
06.05.2026 10:39 18,8 °C 58 % 1008,6 hPa 0,0 l/m² 1,6 km/h (1 Bft) W-SW 247 ° 0,000 mm 10,4 °C 18,8 °C 4,8 km/h (1 Bft) 100,00 %
06.05.2026 10:38 18,8 °C 58 % 1008,6 hPa 0,0 l/m² 3,2 km/h (1 Bft) NW 315 ° 0,000 mm 10,4 °C 18,8 °C 4,8 km/h (1 Bft) 100,00 %
06.05.2026 10:37 18,8 °C 58 % 1008,6 hPa 0,0 l/m² 1,6 km/h (1 Bft) W-SW 247 ° 0,000 mm 10,4 °C 18,8 °C 4,8 km/h (1 Bft) 100,00 %
06.05.2026 10:36 18,8 °C 57 % 1008,6 hPa 0,0 l/m² 3,2 km/h (1 Bft) O-NO 67 ° 0,000 mm 10,1 °C 18,8 °C 6,4 km/h (2 Bft) 100,00 %
06.05.2026 10:35 18,8 °C 57 % 1008,6 hPa 0,0 l/m² 1,6 km/h (1 Bft) S 180 ° 0,000 mm 10,1 °C 18,8 °C 4,8 km/h (1 Bft) 100,00 %
06.05.2026 10:34 18,7 °C 58 % 1008,7 hPa 0,0 l/m² 1,6 km/h (1 Bft) W-SW 247 ° 0,000 mm 10,3 °C 18,7 °C 3,2 km/h (1 Bft) 100,00 %
06.05.2026 10:33 18,6 °C 58 % 1008,6 hPa 0,0 l/m² 1,6 km/h (1 Bft) S-SW 202 ° 0,000 mm 10,2 °C 18,6 °C 3,2 km/h (1 Bft) 100,00 %
06.05.2026 10:32 18,6 °C 58 % 1008,7 hPa 0,0 l/m² 3,2 km/h (1 Bft) SO 135 ° 0,000 mm 10,2 °C 18,6 °C 4,8 km/h (1 Bft) 100,00 %
06.05.2026 10:31 18,4 °C 58 % 1008,8 hPa 0,0 l/m² 1,6 km/h (1 Bft) W-NW 292 ° 0,000 mm 10,0 °C 18,4 °C 4,8 km/h (1 Bft) 100,00 %
06.05.2026 10:30 18,4 °C 58 % 1008,7 hPa 0,0 l/m² 0,0 km/h (0 Bft) W-SW 247 ° 0,000 mm 10,0 °C 18,4 °C 1,6 km/h (1 Bft) 95,65 %
06.05.2026 10:29 18,5 °C 58 % 1008,7 hPa 0,0 l/m² 3,2 km/h (1 Bft) NW 315 ° 0,000 mm 10,1 °C 18,5 °C 4,8 km/h (1 Bft) 100,00 %
06.05.2026 10:28 18,6 °C 57 % 1008,7 hPa 0,0 l/m² 3,2 km/h (1 Bft) W 270 ° 0,000 mm 9,9 °C 18,6 °C 6,4 km/h (2 Bft) 100,00 %
06.05.2026 10:27 18,6 °C 58 % 1008,9 hPa 0,0 l/m² 3,2 km/h (1 Bft) N-NW 337 ° 0,000 mm 10,2 °C 18,6 °C 4,8 km/h (1 Bft) 95,65 %
06.05.2026 10:26 18,6 °C 59 % 1008,7 hPa 0,0 l/m² 1,6 km/h (1 Bft) SW 225 ° 0,000 mm 10,4 °C 18,6 °C 4,8 km/h (1 Bft) 100,00 %
06.05.2026 10:25 18,5 °C 58 % 1008,8 hPa 0,0 l/m² 0,0 km/h (0 Bft) W-NW 292 ° 0,000 mm 10,1 °C 18,5 °C 3,2 km/h (1 Bft) 100,00 %
06.05.2026 10:24 18,6 °C 58 % 1008,6 hPa 0,0 l/m² 3,2 km/h (1 Bft) W-NW 292 ° 0,000 mm 10,2 °C 18,6 °C 6,4 km/h (2 Bft) 100,00 %
06.05.2026 10:23 18,5 °C 58 % 1008,7 hPa 0,0 l/m² 3,2 km/h (1 Bft) W-NW 292 ° 0,000 mm 10,1 °C 18,5 °C 6,4 km/h (2 Bft) 100,00 %
06.05.2026 10:22 18,5 °C 58 % 1008,6 hPa 0,0 l/m² 1,6 km/h (1 Bft) W-NW 292 ° 0,000 mm 10,1 °C 18,5 °C 3,2 km/h (1 Bft) 100,00 %
06.05.2026 10:21 18,5 °C 58 % 1008,6 hPa 0,0 l/m² 1,6 km/h (1 Bft) NW 315 ° 0,000 mm 10,1 °C 18,5 °C 3,2 km/h (1 Bft) 100,00 %
06.05.2026 10:20 18,4 °C 58 % 1008,6 hPa 0,0 l/m² 3,2 km/h (1 Bft) SW 225 ° 0,000 mm 10,0 °C 18,4 °C 3,2 km/h (1 Bft) 100,00 %
06.05.2026 10:19 18,4 °C 58 % 1008,6 hPa 0,0 l/m² 1,6 km/h (1 Bft) W-NW 292 ° 0,000 mm 10,0 °C 18,4 °C 3,2 km/h (1 Bft) 100,00 %
06.05.2026 10:18 18,3 °C 58 % 1008,7 hPa 0,0 l/m² 1,6 km/h (1 Bft) W-NW 292 ° 0,000 mm 9,9 °C 18,3 °C 1,6 km/h (1 Bft) 100,00 %
06.05.2026 10:17 18,3 °C 57 % 1008,7 hPa 0,0 l/m² 1,6 km/h (1 Bft) W-NW 292 ° 0,000 mm 9,6 °C 18,3 °C 3,2 km/h (1 Bft) 100,00 %
06.05.2026 10:16 18,3 °C 58 % 1008,7 hPa 0,0 l/m² 3,2 km/h (1 Bft) W 270 ° 0,000 mm 9,9 °C 18,3 °C 4,8 km/h (1 Bft) 100,00 %
06.05.2026 10:15 18,3 °C 58 % 1008,7 hPa 0,0 l/m² 1,6 km/h (1 Bft) W 270 ° 0,000 mm 9,9 °C 18,3 °C 3,2 km/h (1 Bft) 95,65 %
06.05.2026 10:14 18,3 °C 58 % 1008,6 hPa 0,0 l/m² 4,8 km/h (1 Bft) N-NW 337 ° 0,000 mm 9,9 °C 18,3 °C 8,0 km/h (2 Bft) 100,00 %
06.05.2026 10:13 18,3 °C 58 % 1008,7 hPa 0,0 l/m² 1,6 km/h (1 Bft) NW 315 ° 0,000 mm 9,9 °C 18,3 °C 6,4 km/h (2 Bft) 100,00 %
06.05.2026 10:12 18,3 °C 58 % 1008,5 hPa 0,0 l/m² 4,8 km/h (1 Bft) NW 315 ° 0,000 mm 9,9 °C 18,3 °C 8,0 km/h (2 Bft) 95,65 %
06.05.2026 10:11 18,3 °C 59 % 1008,6 hPa 0,0 l/m² 3,2 km/h (1 Bft) W 270 ° 0,000 mm 10,1 °C 18,3 °C 8,0 km/h (2 Bft) 100,00 %
06.05.2026 10:10 18,2 °C 58 % 1008,6 hPa 0,0 l/m² 0,0 km/h (0 Bft) N 0 ° 0,000 mm 9,8 °C 18,2 °C 0,0 km/h (0 Bft) 100,00 %
06.05.2026 10:09 18,3 °C 58 % 1008,6 hPa 0,0 l/m² 3,2 km/h (1 Bft) N-NO 22 ° 0,000 mm 9,9 °C 18,3 °C 4,8 km/h (1 Bft) 100,00 %
06.05.2026 10:08 18,4 °C 59 % 1008,6 hPa 0,0 l/m² 3,2 km/h (1 Bft) W-NW 292 ° 0,000 mm 10,2 °C 18,4 °C 4,8 km/h (1 Bft) 100,00 %
06.05.2026 10:07 18,4 °C 59 % 1008,6 hPa 0,0 l/m² 1,6 km/h (1 Bft) W 270 ° 0,000 mm 10,2 °C 18,4 °C 3,2 km/h (1 Bft) 100,00 %
06.05.2026 10:06 18,4 °C 58 % 1008,6 hPa 0,0 l/m² 4,8 km/h (1 Bft) NO 45 ° 0,000 mm 10,0 °C 18,4 °C 8,0 km/h (2 Bft) 100,00 %
06.05.2026 10:05 18,5 °C 58 % 1008,7 hPa 0,0 l/m² 3,2 km/h (1 Bft) S-SW 202 ° 0,000 mm 10,1 °C 18,5 °C 6,4 km/h (2 Bft) 100,00 %
06.05.2026 10:04 18,5 °C 58 % 1008,7 hPa 0,0 l/m² 4,8 km/h (1 Bft) N-NW 337 ° 0,000 mm 10,1 °C 18,5 °C 8,0 km/h (2 Bft) 100,00 %
06.05.2026 10:03 18,4 °C 58 % 1008,6 hPa 0,0 l/m² 1,6 km/h (1 Bft) SW 225 ° 0,000 mm 10,0 °C 18,4 °C 1,6 km/h (1 Bft) 100,00 %
06.05.2026 10:02 18,3 °C 59 % 1008,7 hPa 0,0 l/m² 1,6 km/h (1 Bft) SW 225 ° 0,000 mm 10,1 °C 18,3 °C 4,8 km/h (1 Bft) 100,00 %
06.05.2026 10:01 18,2 °C 59 % 1008,6 hPa 0,0 l/m² 0,0 km/h (0 Bft) W 270 ° 0,000 mm 10,1 °C 18,2 °C 1,6 km/h (1 Bft) 95,65 %
06.05.2026 10:00 18,1 °C 59 % 1008,6 hPa 0,0 l/m² 0,0 km/h (0 Bft) W-NW 292 ° 0,000 mm 10,0 °C 18,1 °C 1,6 km/h (1 Bft) 100,00 %
06.05.2026 09:59 18,1 °C 59 % 1008,7 hPa 0,0 l/m² 1,6 km/h (1 Bft) W-NW 292 ° 0,000 mm 10,0 °C 18,1 °C 3,2 km/h (1 Bft) 100,00 %
06.05.2026 09:58 18,1 °C 59 % 1008,7 hPa 0,0 l/m² 1,6 km/h (1 Bft) W-NW 292 ° 0,000 mm 10,0 °C 18,1 °C 3,2 km/h (1 Bft) 100,00 %
06.05.2026 09:57 18,2 °C 59 % 1008,7 hPa 0,0 l/m² 1,6 km/h (1 Bft) W-NW 292 ° 0,000 mm 10,1 °C 18,2 °C 3,2 km/h (1 Bft) 100,00 %
06.05.2026 09:56 18,1 °C 59 % 1008,7 hPa 0,0 l/m² 1,6 km/h (1 Bft) W-NW 292 ° 0,000 mm 10,0 °C 18,1 °C 3,2 km/h (1 Bft) 100,00 %
06.05.2026 09:55 18,1 °C 59 % 1008,7 hPa 0,0 l/m² 1,6 km/h (1 Bft) NW 315 ° 0,000 mm 10,0 °C 18,1 °C 4,8 km/h (1 Bft) 95,65 %
06.05.2026 09:54 18,1 °C 59 % 1008,7 hPa 0,0 l/m² 3,2 km/h (1 Bft) NW 315 ° 0,000 mm 10,0 °C 18,1 °C 4,8 km/h (1 Bft) 100,00 %
06.05.2026 09:53 18,1 °C 59 % 1008,8 hPa 0,0 l/m² 0,0 km/h (0 Bft) NW 315 ° 0,000 mm 10,0 °C 18,1 °C 3,2 km/h (1 Bft) 100,00 %
06.05.2026 09:52 18,0 °C 59 % 1008,8 hPa 0,0 l/m² 1,6 km/h (1 Bft) W-NW 292 ° 0,000 mm 9,9 °C 18,0 °C 1,6 km/h (1 Bft) 100,00 %
06.05.2026 09:51 17,9 °C 60 % 1008,8 hPa 0,0 l/m² 1,6 km/h (1 Bft) W-NW 292 ° 0,000 mm 10,0 °C 17,9 °C 3,2 km/h (1 Bft) 100,00 %
06.05.2026 09:50 17,9 °C 60 % 1008,8 hPa 0,0 l/m² 0,0 km/h (0 Bft) W-SW 247 ° 0,000 mm 10,0 °C 17,9 °C 1,6 km/h (1 Bft) 100,00 %
06.05.2026 09:49 17,9 °C 60 % 1008,9 hPa 0,0 l/m² 1,6 km/h (1 Bft) W-SW 247 ° 0,000 mm 10,0 °C 17,9 °C 3,2 km/h (1 Bft) 100,00 %
06.05.2026 09:48 17,8 °C 60 % 1008,9 hPa 0,0 l/m² 1,6 km/h (1 Bft) W-NW 292 ° 0,000 mm 9,9 °C 17,8 °C 4,8 km/h (1 Bft) 100,00 %
06.05.2026 09:47 17,8 °C 60 % 1008,9 hPa 0,0 l/m² 3,2 km/h (1 Bft) NW 315 ° 0,000 mm 9,9 °C 17,8 °C 8,0 km/h (2 Bft) 100,00 %
06.05.2026 09:46 17,9 °C 60 % 1008,8 hPa 0,0 l/m² 3,2 km/h (1 Bft) NO 45 ° 0,000 mm 10,0 °C 17,9 °C 6,4 km/h (2 Bft) 100,00 %
06.05.2026 09:45 17,9 °C 60 % 1008,9 hPa 0,0 l/m² 0,0 km/h (0 Bft) W-NW 292 ° 0,000 mm 10,0 °C 17,9 °C 1,6 km/h (1 Bft) 100,00 %
06.05.2026 09:44 17,9 °C 60 % 1008,9 hPa 0,0 l/m² 3,2 km/h (1 Bft) W-NW 292 ° 0,000 mm 10,0 °C 17,9 °C 4,8 km/h (1 Bft) 100,00 %
06.05.2026 09:43 18,1 °C 60 % 1008,9 hPa 0,0 l/m² 1,6 km/h (1 Bft) W-NW 292 ° 0,000 mm 10,2 °C 18,1 °C 3,2 km/h (1 Bft) 100,00 %
06.05.2026 09:42 18,1 °C 60 % 1008,9 hPa 0,0 l/m² 1,6 km/h (1 Bft) W-NW 292 ° 0,000 mm 10,2 °C 18,1 °C 4,8 km/h (1 Bft) 100,00 %
06.05.2026 09:41 18,0 °C 60 % 1009,0 hPa 0,0 l/m² 0,0 km/h (0 Bft) W 270 ° 0,000 mm 10,1 °C 18,0 °C 1,6 km/h (1 Bft) 100,00 %
06.05.2026 09:40 17,9 °C 60 % 1009,0 hPa 0,0 l/m² 0,0 km/h (0 Bft) W 270 ° 0,000 mm 10,0 °C 17,9 °C 1,6 km/h (1 Bft) 100,00 %
06.05.2026 09:39 17,8 °C 61 % 1009,0 hPa 0,0 l/m² 0,0 km/h (0 Bft) N 0 ° 0,000 mm 10,2 °C 17,8 °C 0,0 km/h (0 Bft) 100,00 %
06.05.2026 09:38 17,6 °C 61 % 1009,0 hPa 0,0 l/m² 0,0 km/h (0 Bft) N 0 ° 0,000 mm 10,0 °C 17,6 °C 0,0 km/h (0 Bft) 100,00 %
06.05.2026 09:37 17,6 °C 61 % 1009,1 hPa 0,0 l/m² 0,0 km/h (0 Bft) N 0 ° 0,000 mm 10,0 °C 17,6 °C 0,0 km/h (0 Bft) 100,00 %
06.05.2026 09:36 17,4 °C 61 % 1008,9 hPa 0,0 l/m² 0,0 km/h (0 Bft) W 270 ° 0,000 mm 9,8 °C 17,4 °C 1,6 km/h (1 Bft) 100,00 %
06.05.2026 09:35 17,4 °C 61 % 1008,9 hPa 0,0 l/m² 1,6 km/h (1 Bft) W 270 ° 0,000 mm 9,8 °C 17,4 °C 3,2 km/h (1 Bft) 100,00 %
06.05.2026 09:34 17,3 °C 61 % 1008,9 hPa 0,0 l/m² 0,0 km/h (0 Bft) W 270 ° 0,000 mm 9,7 °C 17,3 °C 1,6 km/h (1 Bft) 100,00 %
06.05.2026 09:33 17,3 °C 61 % 1008,9 hPa 0,0 l/m² 0,0 km/h (0 Bft) N 0 ° 0,000 mm 9,7 °C 17,3 °C 0,0 km/h (0 Bft) 100,00 %
06.05.2026 09:32 17,2 °C 61 % 1009,0 hPa 0,0 l/m² 0,0 km/h (0 Bft) W 270 ° 0,000 mm 9,6 °C 17,2 °C 1,6 km/h (1 Bft) 100,00 %
06.05.2026 09:31 17,1 °C 61 % 1009,0 hPa 0,0 l/m² 0,0 km/h (0 Bft) N 0 ° 0,000 mm 9,5 °C 17,1 °C 0,0 km/h (0 Bft) 100,00 %
06.05.2026 09:30 17,1 °C 61 % 1009,0 hPa 0,0 l/m² 0,0 km/h (0 Bft) W-NW 292 ° 0,000 mm 9,5 °C 17,1 °C 1,6 km/h (1 Bft) 100,00 %
06.05.2026 09:29 17,1 °C 61 % 1008,9 hPa 0,0 l/m² 1,6 km/h (1 Bft) NW 315 ° 0,000 mm 9,5 °C 17,1 °C 3,2 km/h (1 Bft) 100,00 %
06.05.2026 09:28 17,1 °C 61 % 1008,9 hPa 0,0 l/m² 1,6 km/h (1 Bft) NW 315 ° 0,000 mm 9,5 °C 17,1 °C 3,2 km/h (1 Bft) 100,00 %
06.05.2026 09:27 17,1 °C 62 % 1008,9 hPa 0,0 l/m² 1,6 km/h (1 Bft) N-NW 337 ° 0,000 mm 9,8 °C 17,1 °C 3,2 km/h (1 Bft) 100,00 %
06.05.2026 09:26 17,0 °C 62 % 1008,9 hPa 0,0 l/m² 1,6 km/h (1 Bft) W-NW 292 ° 0,000 mm 9,7 °C 17,0 °C 3,2 km/h (1 Bft) 100,00 %
06.05.2026 09:25 17,1 °C 62 % 1008,9 hPa 0,0 l/m² 3,2 km/h (1 Bft) W-NW 292 ° 0,000 mm 9,8 °C 17,1 °C 6,4 km/h (2 Bft) 100,00 %
06.05.2026 09:24 17,1 °C 62 % 1008,9 hPa 0,0 l/m² 1,6 km/h (1 Bft) W-NW 292 ° 0,000 mm 9,8 °C 17,1 °C 4,8 km/h (1 Bft) 100,00 %
06.05.2026 09:23 17,1 °C 63 % 1008,9 hPa 0,0 l/m² 3,2 km/h (1 Bft) W-NW 292 ° 0,000 mm 10,0 °C 17,1 °C 4,8 km/h (1 Bft) 100,00 %
06.05.2026 09:22 16,9 °C 63 % 1008,8 hPa 0,0 l/m² 0,0 km/h (0 Bft) W 270 ° 0,000 mm 9,8 °C 16,9 °C 3,2 km/h (1 Bft) 95,65 %
06.05.2026 09:21 16,8 °C 62 % 1008,8 hPa 0,0 l/m² 1,6 km/h (1 Bft) W-NW 292 ° 0,000 mm 9,5 °C 16,8 °C 1,6 km/h (1 Bft) 100,00 %
06.05.2026 09:20 16,8 °C 63 % 1008,9 hPa 0,0 l/m² 1,6 km/h (1 Bft) W-NW 292 ° 0,000 mm 9,7 °C 16,8 °C 3,2 km/h (1 Bft) 100,00 %
06.05.2026 09:19 16,9 °C 62 % 1009,0 hPa 0,0 l/m² 3,2 km/h (1 Bft) N-NW 337 ° 0,000 mm 9,6 °C 16,9 °C 3,2 km/h (1 Bft) 100,00 %
06.05.2026 09:18 16,9 °C 63 % 1009,0 hPa 0,0 l/m² 3,2 km/h (1 Bft) NW 315 ° 0,000 mm 9,8 °C 16,9 °C 4,8 km/h (1 Bft) 100,00 %
06.05.2026 09:17 16,8 °C 64 % 1009,1 hPa 0,0 l/m² 0,0 km/h (0 Bft) W-NW 292 ° 0,000 mm 10,0 °C 16,8 °C 3,2 km/h (1 Bft) 100,00 %
06.05.2026 09:16 16,8 °C 64 % 1009,1 hPa 0,0 l/m² 0,0 km/h (0 Bft) W-NW 292 ° 0,000 mm 10,0 °C 16,8 °C 1,6 km/h (1 Bft) 100,00 %
06.05.2026 09:15 16,8 °C 64 % 1009,2 hPa 0,0 l/m² 1,6 km/h (1 Bft) NW 315 ° 0,000 mm 10,0 °C 16,8 °C 3,2 km/h (1 Bft) 95,65 %
06.05.2026 09:14 16,8 °C 64 % 1009,3 hPa 0,0 l/m² 1,6 km/h (1 Bft) W-NW 292 ° 0,000 mm 10,0 °C 16,8 °C 3,2 km/h (1 Bft) 100,00 %
06.05.2026 09:13 16,8 °C 66 % 1009,2 hPa 0,0 l/m² 3,2 km/h (1 Bft) NW 315 ° 0,000 mm 10,4 °C 16,8 °C 3,2 km/h (1 Bft) 100,00 %
06.05.2026 09:12 16,8 °C 66 % 1009,3 hPa 0,0 l/m² 1,6 km/h (1 Bft) W 270 ° 0,000 mm 10,4 °C 16,8 °C 1,6 km/h (1 Bft) 100,00 %
06.05.2026 09:11 16,8 °C 65 % 1009,2 hPa 0,0 l/m² 3,2 km/h (1 Bft) W-NW 292 ° 0,000 mm 10,2 °C 16,8 °C 4,8 km/h (1 Bft) 95,65 %
06.05.2026 09:10 16,8 °C 65 % 1009,2 hPa 0,0 l/m² 0,0 km/h (0 Bft) W-NW 292 ° 0,000 mm 10,2 °C 16,8 °C 1,6 km/h (1 Bft) 95,65 %
06.05.2026 09:09 16,9 °C 65 % 1009,3 hPa 0,0 l/m² 0,0 km/h (0 Bft) N 0 ° 0,000 mm 10,3 °C 16,9 °C 0,0 km/h (0 Bft) 100,00 %
06.05.2026 09:08 16,9 °C 64 % 1009,2 hPa 0,0 l/m² 1,6 km/h (1 Bft) NW 315 ° 0,000 mm 10,0 °C 16,9 °C 4,8 km/h (1 Bft) 100,00 %
06.05.2026 09:07 16,9 °C 67 % 1009,3 hPa 0,0 l/m² 1,6 km/h (1 Bft) W 270 ° 0,000 mm 10,7 °C 16,9 °C 3,2 km/h (1 Bft) 100,00 %
06.05.2026 09:06 16,9 °C 67 % 1009,3 hPa 0,0 l/m² 0,0 km/h (0 Bft) W 270 ° 0,000 mm 10,7 °C 16,9 °C 1,6 km/h (1 Bft) 100,00 %
06.05.2026 09:05 16,8 °C 67 % 1009,2 hPa 0,0 l/m² 0,0 km/h (0 Bft) W 270 ° 0,000 mm 10,6 °C 16,8 °C 1,6 km/h (1 Bft) 100,00 %
06.05.2026 09:04 16,7 °C 68 % 1009,3 hPa 0,0 l/m² 0,0 km/h (0 Bft) W 270 ° 0,000 mm 10,8 °C 16,7 °C 1,6 km/h (1 Bft) 100,00 %
06.05.2026 09:03 16,6 °C 68 % 1009,3 hPa 0,0 l/m² 0,0 km/h (0 Bft) N 0 ° 0,000 mm 10,7 °C 16,6 °C 0,0 km/h (0 Bft) 100,00 %
06.05.2026 09:02 16,5 °C 68 % 1009,3 hPa 0,0 l/m² 0,0 km/h (0 Bft) W 270 ° 0,000 mm 10,6 °C 16,5 °C 1,6 km/h (1 Bft) 95,65 %
06.05.2026 09:01 16,4 °C 68 % 1009,3 hPa 0,0 l/m² 0,0 km/h (0 Bft) W-SW 247 ° 0,000 mm 10,5 °C 16,4 °C 3,2 km/h (1 Bft) 100,00 %
06.05.2026 09:00 16,3 °C 69 % 1009,2 hPa 0,0 l/m² 0,0 km/h (0 Bft) W 270 ° 0,000 mm 10,6 °C 16,3 °C 1,6 km/h (1 Bft) 100,00 %
06.05.2026 08:59 16,2 °C 69 % 1009,3 hPa 0,0 l/m² 0,0 km/h (0 Bft) N 0 ° 0,000 mm 10,5 °C 16,2 °C 0,0 km/h (0 Bft) 100,00 %
06.05.2026 08:58 16,1 °C 69 % 1009,3 hPa 0,0 l/m² 0,0 km/h (0 Bft) W 270 ° 0,000 mm 10,4 °C 16,1 °C 1,6 km/h (1 Bft) 100,00 %
06.05.2026 08:57 16,0 °C 70 % 1009,3 hPa 0,0 l/m² 0,0 km/h (0 Bft) W 270 ° 0,000 mm 10,5 °C 16,0 °C 1,6 km/h (1 Bft) 100,00 %
06.05.2026 08:56 15,8 °C 71 % 1009,2 hPa 0,0 l/m² 0,0 km/h (0 Bft) W-NW 292 ° 0,000 mm 10,6 °C 15,8 °C 1,6 km/h (1 Bft) 100,00 %
06.05.2026 08:55 15,7 °C 70 % 1009,4 hPa 0,0 l/m² 1,6 km/h (1 Bft) W-NW 292 ° 0,000 mm 10,2 °C 15,7 °C 1,6 km/h (1 Bft) 100,00 %
06.05.2026 08:54 15,7 °C 71 % 1009,3 hPa 0,0 l/m² 0,0 km/h (0 Bft) N 0 ° 0,000 mm 10,5 °C 15,7 °C 0,0 km/h (0 Bft) 100,00 %
06.05.2026 08:53 15,6 °C 71 % 1009,4 hPa 0,0 l/m² 0,0 km/h (0 Bft) N 0 ° 0,000 mm 10,4 °C 15,6 °C 0,0 km/h (0 Bft) 100,00 %
06.05.2026 08:52 15,5 °C 71 % 1009,4 hPa 0,0 l/m² 0,0 km/h (0 Bft) N 0 ° 0,000 mm 10,3 °C 15,5 °C 0,0 km/h (0 Bft) 100,00 %
06.05.2026 08:51 15,5 °C 71 % 1009,4 hPa 0,0 l/m² 0,0 km/h (0 Bft) N 0 ° 0,000 mm 10,3 °C 15,5 °C 0,0 km/h (0 Bft) 95,65 %
06.05.2026 08:50 15,4 °C 71 % 1009,3 hPa 0,0 l/m² 0,0 km/h (0 Bft) N 0 ° 0,000 mm 10,2 °C 15,4 °C 0,0 km/h (0 Bft) 100,00 %
06.05.2026 08:49 15,4 °C 71 % 1009,3 hPa 0,0 l/m² 0,0 km/h (0 Bft) N 0 ° 0,000 mm 10,2 °C 15,4 °C 0,0 km/h (0 Bft) 100,00 %
06.05.2026 08:48 15,4 °C 71 % 1009,3 hPa 0,0 l/m² 0,0 km/h (0 Bft) N 0 ° 0,000 mm 10,2 °C 15,4 °C 0,0 km/h (0 Bft) 100,00 %
06.05.2026 08:47 15,4 °C 71 % 1009,2 hPa 0,0 l/m² 0,0 km/h (0 Bft) N 0 ° 0,000 mm 10,2 °C 15,4 °C 0,0 km/h (0 Bft) 100,00 %
06.05.2026 08:46 15,4 °C 71 % 1009,3 hPa 0,0 l/m² 0,0 km/h (0 Bft) N 360 ° 0,000 mm 10,2 °C 15,4 °C 1,6 km/h (1 Bft) 95,65 %
06.05.2026 08:45 15,5 °C 72 % 1009,2 hPa 0,0 l/m² 0,0 km/h (0 Bft) N 0 ° 0,000 mm 10,5 °C 15,5 °C 0,0 km/h (0 Bft) 100,00 %
06.05.2026 08:44 15,5 °C 72 % 1009,2 hPa 0,0 l/m² 0,0 km/h (0 Bft) N 0 ° 0,000 mm 10,5 °C 15,5 °C 0,0 km/h (0 Bft) 100,00 %
06.05.2026 08:43 15,5 °C 72 % 1009,2 hPa 0,0 l/m² 0,0 km/h (0 Bft) W 270 ° 0,000 mm 10,5 °C 15,5 °C 3,2 km/h (1 Bft) 100,00 %
06.05.2026 08:42 15,5 °C 72 % 1009,2 hPa 0,0 l/m² 1,6 km/h (1 Bft) W 270 ° 0,000 mm 10,5 °C 15,5 °C 1,6 km/h (1 Bft) 100,00 %
06.05.2026 08:41 15,4 °C 72 % 1009,2 hPa 0,0 l/m² 0,0 km/h (0 Bft) N 0 ° 0,000 mm 10,4 °C 15,4 °C 0,0 km/h (0 Bft) 100,00 %
06.05.2026 08:40 15,4 °C 72 % 1009,2 hPa 0,0 l/m² 0,0 km/h (0 Bft) N 0 ° 0,000 mm 10,4 °C 15,4 °C 0,0 km/h (0 Bft) 100,00 %
06.05.2026 08:39 15,3 °C 72 % 1009,3 hPa 0,0 l/m² 0,0 km/h (0 Bft) W 270 ° 0,000 mm 10,3 °C 15,3 °C 1,6 km/h (1 Bft) 100,00 %
06.05.2026 08:38 15,3 °C 71 % 1009,3 hPa 0,0 l/m² 0,0 km/h (0 Bft) W 270 ° 0,000 mm 10,1 °C 15,3 °C 1,6 km/h (1 Bft) 100,00 %
06.05.2026 08:37 15,3 °C 71 % 1009,2 hPa 0,0 l/m² 1,6 km/h (1 Bft) W 270 ° 0,000 mm 10,1 °C 15,3 °C 1,6 km/h (1 Bft) 100,00 %
06.05.2026 08:36 15,3 °C 71 % 1009,2 hPa 0,0 l/m² 1,6 km/h (1 Bft) W 270 ° 0,000 mm 10,1 °C 15,3 °C 3,2 km/h (1 Bft) 100,00 %
06.05.2026 08:35 15,3 °C 71 % 1009,3 hPa 0,0 l/m² 0,0 km/h (0 Bft) W-NW 292 ° 0,000 mm 10,1 °C 15,3 °C 1,6 km/h (1 Bft) 100,00 %
06.05.2026 08:34 15,3 °C 71 % 1009,3 hPa 0,0 l/m² 1,6 km/h (1 Bft) W-NW 292 ° 0,000 mm 10,1 °C 15,3 °C 1,6 km/h (1 Bft) 100,00 %
06.05.2026 08:33 15,3 °C 70 % 1009,5 hPa 0,0 l/m² 1,6 km/h (1 Bft) W-NW 292 ° 0,000 mm 9,9 °C 15,3 °C 3,2 km/h (1 Bft) 100,00 %
06.05.2026 08:32 15,3 °C 71 % 1009,4 hPa 0,0 l/m² 0,0 km/h (0 Bft) W 270 ° 0,000 mm 10,1 °C 15,3 °C 3,2 km/h (1 Bft) 100,00 %
06.05.2026 08:31 15,3 °C 71 % 1009,5 hPa 0,0 l/m² 0,0 km/h (0 Bft) W 270 ° 0,000 mm 10,1 °C 15,3 °C 1,6 km/h (1 Bft) 100,00 %
06.05.2026 08:30 15,3 °C 71 % 1009,4 hPa 0,0 l/m² 0,0 km/h (0 Bft) W 270 ° 0,000 mm 10,1 °C 15,3 °C 1,6 km/h (1 Bft) 100,00 %
06.05.2026 08:29 15,3 °C 71 % 1009,4 hPa 0,0 l/m² 0,0 km/h (0 Bft) W 270 ° 0,000 mm 10,1 °C 15,3 °C 1,6 km/h (1 Bft) 100,00 %
06.05.2026 08:28 15,3 °C 71 % 1009,4 hPa 0,0 l/m² 1,6 km/h (1 Bft) W 270 ° 0,000 mm 10,1 °C 15,3 °C 1,6 km/h (1 Bft) 100,00 %
06.05.2026 08:27 15,3 °C 71 % 1009,4 hPa 0,0 l/m² 1,6 km/h (1 Bft) W 270 ° 0,000 mm 10,1 °C 15,3 °C 1,6 km/h (1 Bft) 100,00 %
06.05.2026 08:26 15,4 °C 71 % 1009,4 hPa 0,0 l/m² 0,0 km/h (0 Bft) W 270 ° 0,000 mm 10,2 °C 15,4 °C 1,6 km/h (1 Bft) 95,65 %
06.05.2026 08:25 15,4 °C 71 % 1009,4 hPa 0,0 l/m² 0,0 km/h (0 Bft) W 270 ° 0,000 mm 10,2 °C 15,4 °C 1,6 km/h (1 Bft) 100,00 %
06.05.2026 08:24 15,3 °C 70 % 1009,4 hPa 0,0 l/m² 0,0 km/h (0 Bft) W 270 ° 0,000 mm 9,9 °C 15,3 °C 1,6 km/h (1 Bft) 95,65 %
06.05.2026 08:23 15,3 °C 70 % 1009,3 hPa 0,0 l/m² 0,0 km/h (0 Bft) N 0 ° 0,000 mm 9,9 °C 15,3 °C 0,0 km/h (0 Bft) 100,00 %
06.05.2026 08:22 15,3 °C 70 % 1009,4 hPa 0,0 l/m² 0,0 km/h (0 Bft) N 0 ° 0,000 mm 9,9 °C 15,3 °C 0,0 km/h (0 Bft) 100,00 %
06.05.2026 08:21 15,3 °C 70 % 1009,4 hPa 0,0 l/m² 1,6 km/h (1 Bft) W 270 ° 0,000 mm 9,9 °C 15,3 °C 1,6 km/h (1 Bft) 100,00 %
06.05.2026 08:20 15,3 °C 71 % 1009,4 hPa 0,0 l/m² 0,0 km/h (0 Bft) W 270 ° 0,000 mm 10,1 °C 15,3 °C 1,6 km/h (1 Bft) 100,00 %
06.05.2026 08:19 15,2 °C 70 % 1009,4 hPa 0,0 l/m² 0,0 km/h (0 Bft) W 270 ° 0,000 mm 9,8 °C 15,2 °C 1,6 km/h (1 Bft) 100,00 %
06.05.2026 08:18 15,2 °C 70 % 1009,4 hPa 0,0 l/m² 0,0 km/h (0 Bft) W 270 ° 0,000 mm 9,8 °C 15,2 °C 1,6 km/h (1 Bft) 100,00 %
06.05.2026 08:17 15,2 °C 70 % 1009,4 hPa 0,0 l/m² 0,0 km/h (0 Bft) W 270 ° 0,000 mm 9,8 °C 15,2 °C 1,6 km/h (1 Bft) 95,65 %
06.05.2026 08:16 15,2 °C 70 % 1009,4 hPa 0,0 l/m² 0,0 km/h (0 Bft) W 270 ° 0,000 mm 9,8 °C 15,2 °C 1,6 km/h (1 Bft) 100,00 %
06.05.2026 08:15 15,1 °C 71 % 1009,4 hPa 0,0 l/m² 0,0 km/h (0 Bft) N 0 ° 0,000 mm 9,9 °C 15,1 °C 0,0 km/h (0 Bft) 100,00 %
06.05.2026 08:14 15,1 °C 71 % 1009,5 hPa 0,0 l/m² 0,0 km/h (0 Bft) N 0 ° 0,000 mm 9,9 °C 15,1 °C 0,0 km/h (0 Bft) 100,00 %
06.05.2026 08:13 15,1 °C 71 % 1009,7 hPa 0,0 l/m² 0,0 km/h (0 Bft) N 0 ° 0,000 mm 9,9 °C 15,1 °C 0,0 km/h (0 Bft) 100,00 %
06.05.2026 08:12 15,0 °C 71 % 1009,6 hPa 0,0 l/m² 0,0 km/h (0 Bft) N 0 ° 0,000 mm 9,8 °C 15,0 °C 0,0 km/h (0 Bft) 100,00 %
06.05.2026 08:11 14,9 °C 71 % 1009,6 hPa 0,0 l/m² 0,0 km/h (0 Bft) W 270 ° 0,000 mm 9,7 °C 14,9 °C 1,6 km/h (1 Bft) 100,00 %
06.05.2026 08:10 14,9 °C 71 % 1009,5 hPa 0,0 l/m² 0,0 km/h (0 Bft) W 270 ° 0,000 mm 9,7 °C 14,9 °C 1,6 km/h (1 Bft) 100,00 %
06.05.2026 08:09 14,9 °C 72 % 1009,6 hPa 0,0 l/m² 0,0 km/h (0 Bft) N 0 ° 0,000 mm 9,9 °C 14,9 °C 0,0 km/h (0 Bft) 100,00 %
06.05.2026 08:08 14,9 °C 72 % 1009,7 hPa 0,0 l/m² 0,0 km/h (0 Bft) W 270 ° 0,000 mm 9,9 °C 14,9 °C 1,6 km/h (1 Bft) 100,00 %
06.05.2026 08:07 14,9 °C 71 % 1009,7 hPa 0,0 l/m² 1,6 km/h (1 Bft) W 270 ° 0,000 mm 9,7 °C 14,9 °C 1,6 km/h (1 Bft) 100,00 %
06.05.2026 08:06 14,9 °C 71 % 1009,6 hPa 0,0 l/m² 1,6 km/h (1 Bft) W 270 ° 0,000 mm 9,7 °C 14,9 °C 3,2 km/h (1 Bft) 100,00 %
06.05.2026 08:05 14,9 °C 72 % 1009,6 hPa 0,0 l/m² 1,6 km/h (1 Bft) W-NW 292 ° 0,000 mm 9,9 °C 14,9 °C 3,2 km/h (1 Bft) 100,00 %
06.05.2026 08:04 14,8 °C 72 % 1009,7 hPa 0,0 l/m² 1,6 km/h (1 Bft) W-NW 292 ° 0,000 mm 9,8 °C 14,8 °C 3,2 km/h (1 Bft) 95,65 %
06.05.2026 08:03 14,8 °C 72 % 1009,6 hPa 0,0 l/m² 1,6 km/h (1 Bft) W-NW 292 ° 0,000 mm 9,8 °C 14,8 °C 3,2 km/h (1 Bft) 100,00 %
06.05.2026 08:02 14,8 °C 72 % 1009,6 hPa 0,0 l/m² 0,0 km/h (0 Bft) W-NW 292 ° 0,000 mm 9,8 °C 14,8 °C 1,6 km/h (1 Bft) 95,65 %
06.05.2026 08:01 14,8 °C 72 % 1009,6 hPa 0,0 l/m² 1,6 km/h (1 Bft) W-SW 247 ° 0,000 mm 9,8 °C 14,8 °C 3,2 km/h (1 Bft) 100,00 %
06.05.2026 08:00 14,7 °C 72 % 1009,6 hPa 0,0 l/m² 0,0 km/h (0 Bft) W-SW 247 ° 0,000 mm 9,7 °C 14,7 °C 1,6 km/h (1 Bft) 100,00 %
06.05.2026 07:59 14,7 °C 72 % 1009,6 hPa 0,0 l/m² 0,0 km/h (0 Bft) W-SW 247 ° 0,000 mm 9,7 °C 14,7 °C 1,6 km/h (1 Bft) 100,00 %
06.05.2026 07:58 14,6 °C 72 % 1009,7 hPa 0,0 l/m² 1,6 km/h (1 Bft) W-SW 247 ° 0,000 mm 9,6 °C 14,6 °C 1,6 km/h (1 Bft) 95,65 %
06.05.2026 07:57 14,7 °C 72 % 1009,6 hPa 0,0 l/m² 0,0 km/h (0 Bft) W-SW 247 ° 0,000 mm 9,7 °C 14,7 °C 1,6 km/h (1 Bft) 95,65 %
06.05.2026 07:56 14,6 °C 71 % 1009,5 hPa 0,0 l/m² 0,0 km/h (0 Bft) W-SW 247 ° 0,000 mm 9,4 °C 14,6 °C 1,6 km/h (1 Bft) 100,00 %
06.05.2026 07:55 14,7 °C 71 % 1009,6 hPa 0,0 l/m² 1,6 km/h (1 Bft) W-SW 247 ° 0,000 mm 9,5 °C 14,7 °C 1,6 km/h (1 Bft) 100,00 %
06.05.2026 07:54 14,7 °C 71 % 1009,6 hPa 0,0 l/m² 1,6 km/h (1 Bft) W-SW 247 ° 0,000 mm 9,5 °C 14,7 °C 1,6 km/h (1 Bft) 100,00 %
06.05.2026 07:53 14,8 °C 71 % 1009,7 hPa 0,0 l/m² 1,6 km/h (1 Bft) W-SW 247 ° 0,000 mm 9,6 °C 14,8 °C 1,6 km/h (1 Bft) 100,00 %
06.05.2026 07:52 14,8 °C 71 % 1009,6 hPa 0,0 l/m² 1,6 km/h (1 Bft) W-SW 247 ° 0,000 mm 9,6 °C 14,8 °C 1,6 km/h (1 Bft) 100,00 %
06.05.2026 07:51 14,8 °C 70 % 1009,5 hPa 0,0 l/m² 0,0 km/h (0 Bft) W-SW 247 ° 0,000 mm 9,4 °C 14,8 °C 1,6 km/h (1 Bft) 95,65 %
06.05.2026 07:50 14,9 °C 70 % 1009,6 hPa 0,0 l/m² 1,6 km/h (1 Bft) W-SW 247 ° 0,000 mm 9,5 °C 14,9 °C 1,6 km/h (1 Bft) 100,00 %
06.05.2026 07:49 14,9 °C 70 % 1009,6 hPa 0,0 l/m² 0,0 km/h (0 Bft) N 0 ° 0,000 mm 9,5 °C 14,9 °C 0,0 km/h (0 Bft) 100,00 %
06.05.2026 07:48 15,0 °C 70 % 1009,6 hPa 0,0 l/m² 0,0 km/h (0 Bft) N 0 ° 0,000 mm 9,6 °C 15,0 °C 0,0 km/h (0 Bft) 95,65 %
06.05.2026 07:47 15,0 °C 70 % 1009,6 hPa 0,0 l/m² 0,0 km/h (0 Bft) N 0 ° 0,000 mm 9,6 °C 15,0 °C 0,0 km/h (0 Bft) 100,00 %
06.05.2026 07:46 15,1 °C 70 % 1009,6 hPa 0,0 l/m² 0,0 km/h (0 Bft) W-SW 247 ° 0,000 mm 9,7 °C 15,1 °C 1,6 km/h (1 Bft) 95,65 %
06.05.2026 07:45 15,1 °C 70 % 1009,6 hPa 0,0 l/m² 0,0 km/h (0 Bft) N 0 ° 0,000 mm 9,7 °C 15,1 °C 0,0 km/h (0 Bft) 100,00 %
06.05.2026 07:44 15,1 °C 70 % 1009,7 hPa 0,0 l/m² 0,0 km/h (0 Bft) N 0 ° 0,000 mm 9,7 °C 15,1 °C 0,0 km/h (0 Bft) 100,00 %
06.05.2026 07:43 15,1 °C 70 % 1009,6 hPa 0,0 l/m² 0,0 km/h (0 Bft) N 0 ° 0,000 mm 9,7 °C 15,1 °C 0,0 km/h (0 Bft) 100,00 %
06.05.2026 07:42 15,1 °C 70 % 1009,7 hPa 0,0 l/m² 0,0 km/h (0 Bft) N 0 ° 0,000 mm 9,7 °C 15,1 °C 0,0 km/h (0 Bft) 100,00 %
06.05.2026 07:41 15,1 °C 69 % 1009,7 hPa 0,0 l/m² 1,6 km/h (1 Bft) W-SW 247 ° 0,000 mm 9,5 °C 15,1 °C 1,6 km/h (1 Bft) 100,00 %
06.05.2026 07:40 15,2 °C 69 % 1009,6 hPa 0,0 l/m² 1,6 km/h (1 Bft) W-SW 247 ° 0,000 mm 9,6 °C 15,2 °C 1,6 km/h (1 Bft) 100,00 %
06.05.2026 07:39 15,2 °C 69 % 1009,7 hPa 0,0 l/m² 1,6 km/h (1 Bft) W-SW 247 ° 0,000 mm 9,6 °C 15,2 °C 3,2 km/h (1 Bft) 100,00 %
06.05.2026 07:38 15,2 °C 70 % 1009,7 hPa 0,0 l/m² 1,6 km/h (1 Bft) W-SW 247 ° 0,000 mm 9,8 °C 15,2 °C 3,2 km/h (1 Bft) 100,00 %
06.05.2026 07:37 15,3 °C 70 % 1009,6 hPa 0,0 l/m² 0,0 km/h (0 Bft) W-SW 247 ° 0,000 mm 9,9 °C 15,3 °C 1,6 km/h (1 Bft) 100,00 %
06.05.2026 07:36 15,3 °C 71 % 1009,7 hPa 0,0 l/m² 0,0 km/h (0 Bft) W-SW 247 ° 0,000 mm 10,1 °C 15,3 °C 1,6 km/h (1 Bft) 100,00 %
06.05.2026 07:35 15,3 °C 70 % 1009,7 hPa 0,0 l/m² 0,0 km/h (0 Bft) N 0 ° 0,000 mm 9,9 °C 15,3 °C 0,0 km/h (0 Bft) 100,00 %
06.05.2026 07:34 15,3 °C 70 % 1009,7 hPa 0,0 l/m² 0,0 km/h (0 Bft) W-SW 247 ° 0,000 mm 9,9 °C 15,3 °C 1,6 km/h (1 Bft) 100,00 %
06.05.2026 07:33 15,3 °C 70 % 1009,6 hPa 0,0 l/m² 0,0 km/h (0 Bft) W-SW 247 ° 0,000 mm 9,9 °C 15,3 °C 1,6 km/h (1 Bft) 95,65 %
06.05.2026 07:32 15,3 °C 71 % 1009,7 hPa 0,0 l/m² 0,0 km/h (0 Bft) W-SW 247 ° 0,000 mm 10,1 °C 15,3 °C 1,6 km/h (1 Bft) 100,00 %
06.05.2026 07:31 15,2 °C 71 % 1009,7 hPa 0,0 l/m² 0,0 km/h (0 Bft) W-SW 247 ° 0,000 mm 10,0 °C 15,2 °C 1,6 km/h (1 Bft) 95,65 %
06.05.2026 07:30 15,1 °C 72 % 1009,7 hPa 0,0 l/m² 0,0 km/h (0 Bft) W-SW 247 ° 0,000 mm 10,1 °C 15,1 °C 1,6 km/h (1 Bft) 100,00 %
06.05.2026 07:29 14,9 °C 73 % 1009,8 hPa 0,0 l/m² 0,0 km/h (0 Bft) W-SW 247 ° 0,000 mm 10,1 °C 14,9 °C 1,6 km/h (1 Bft) 100,00 %
06.05.2026 07:28 14,8 °C 73 % 1009,8 hPa 0,0 l/m² 0,0 km/h (0 Bft) N 0 ° 0,000 mm 10,0 °C 14,8 °C 0,0 km/h (0 Bft) 100,00 %
06.05.2026 07:27 14,7 °C 73 % 1009,7 hPa 0,0 l/m² 0,0 km/h (0 Bft) N 0 ° 0,000 mm 9,9 °C 14,7 °C 0,0 km/h (0 Bft) 100,00 %
06.05.2026 07:26 14,5 °C 74 % 1009,7 hPa 0,0 l/m² 0,0 km/h (0 Bft) N 0 ° 0,000 mm 9,9 °C 14,5 °C 0,0 km/h (0 Bft) 100,00 %
06.05.2026 07:25 14,4 °C 74 % 1009,7 hPa 0,0 l/m² 0,0 km/h (0 Bft) N 0 ° 0,000 mm 9,8 °C 14,4 °C 0,0 km/h (0 Bft) 100,00 %
06.05.2026 07:24 14,2 °C 75 % 1009,8 hPa 0,0 l/m² 0,0 km/h (0 Bft) N 0 ° 0,000 mm 9,8 °C 14,2 °C 0,0 km/h (0 Bft) 95,65 %
06.05.2026 07:23 14,1 °C 75 % 1009,8 hPa 0,0 l/m² 0,0 km/h (0 Bft) N 0 ° 0,000 mm 9,7 °C 14,1 °C 0,0 km/h (0 Bft) 100,00 %
06.05.2026 07:22 13,9 °C 75 % 1009,8 hPa 0,0 l/m² 0,0 km/h (0 Bft) N 0 ° 0,000 mm 9,5 °C 13,9 °C 0,0 km/h (0 Bft) 100,00 %
06.05.2026 07:21 13,8 °C 76 % 1009,8 hPa 0,0 l/m² 0,0 km/h (0 Bft) W-SW 247 ° 0,000 mm 9,6 °C 13,8 °C 1,6 km/h (1 Bft) 100,00 %
06.05.2026 07:20 13,7 °C 76 % 1009,8 hPa 0,0 l/m² 0,0 km/h (0 Bft) W-SW 247 ° 0,000 mm 9,5 °C 13,7 °C 1,6 km/h (1 Bft) 100,00 %
06.05.2026 07:19 13,6 °C 76 % 1009,7 hPa 0,0 l/m² 0,0 km/h (0 Bft) N 0 ° 0,000 mm 9,4 °C 13,6 °C 0,0 km/h (0 Bft) 100,00 %
06.05.2026 07:18 13,6 °C 76 % 1009,8 hPa 0,0 l/m² 0,0 km/h (0 Bft) W-SW 247 ° 0,000 mm 9,4 °C 13,6 °C 1,6 km/h (1 Bft) 100,00 %
06.05.2026 07:17 13,5 °C 76 % 1009,8 hPa 0,0 l/m² 0,0 km/h (0 Bft) N 0 ° 0,000 mm 9,4 °C 13,5 °C 0,0 km/h (0 Bft) 100,00 %
06.05.2026 07:16 13,4 °C 76 % 1009,7 hPa 0,0 l/m² 0,0 km/h (0 Bft) N 0 ° 0,000 mm 9,3 °C 13,4 °C 0,0 km/h (0 Bft) 95,65 %
06.05.2026 07:15 13,4 °C 76 % 1009,8 hPa 0,0 l/m² 0,0 km/h (0 Bft) W-SW 247 ° 0,000 mm 9,3 °C 13,4 °C 1,6 km/h (1 Bft) 100,00 %
06.05.2026 07:14 13,3 °C 76 % 1009,7 hPa 0,0 l/m² 0,0 km/h (0 Bft) W-SW 247 ° 0,000 mm 9,2 °C 13,3 °C 1,6 km/h (1 Bft) 100,00 %
06.05.2026 07:13 13,3 °C 76 % 1009,8 hPa 0,0 l/m² 1,6 km/h (1 Bft) W-SW 247 ° 0,000 mm 9,2 °C 13,3 °C 1,6 km/h (1 Bft) 100,00 %
06.05.2026 07:12 13,2 °C 75 % 1009,8 hPa 0,0 l/m² 0,0 km/h (0 Bft) W-SW 247 ° 0,000 mm 8,9 °C 13,2 °C 1,6 km/h (1 Bft) 100,00 %
06.05.2026 07:11 13,2 °C 76 % 1009,7 hPa 0,0 l/m² 0,0 km/h (0 Bft) N 0 ° 0,000 mm 9,1 °C 13,2 °C 0,0 km/h (0 Bft) 100,00 %
06.05.2026 07:10 13,2 °C 76 % 1009,8 hPa 0,0 l/m² 0,0 km/h (0 Bft) N 0 ° 0,000 mm 9,1 °C 13,2 °C 0,0 km/h (0 Bft) 100,00 %
06.05.2026 07:09 13,2 °C 76 % 1009,8 hPa 0,0 l/m² 1,6 km/h (1 Bft) W-SW 247 ° 0,000 mm 9,1 °C 13,2 °C 1,6 km/h (1 Bft) 100,00 %
06.05.2026 07:08 13,2 °C 76 % 1009,7 hPa 0,0 l/m² 1,6 km/h (1 Bft) W-SW 247 ° 0,000 mm 9,1 °C 13,2 °C 1,6 km/h (1 Bft) 100,00 %
06.05.2026 07:07 13,2 °C 75 % 1009,8 hPa 0,0 l/m² 1,6 km/h (1 Bft) W-SW 247 ° 0,000 mm 8,9 °C 13,2 °C 1,6 km/h (1 Bft) 100,00 %
06.05.2026 07:06 13,2 °C 75 % 1009,7 hPa 0,0 l/m² 1,6 km/h (1 Bft) W-SW 247 ° 0,000 mm 8,9 °C 13,2 °C 1,6 km/h (1 Bft) 100,00 %
06.05.2026 07:05 13,2 °C 75 % 1009,7 hPa 0,0 l/m² 0,0 km/h (0 Bft) W-SW 247 ° 0,000 mm 8,9 °C 13,2 °C 1,6 km/h (1 Bft) 95,65 %
06.05.2026 07:04 13,3 °C 75 % 1009,7 hPa 0,0 l/m² 0,0 km/h (0 Bft) N 0 ° 0,000 mm 9,0 °C 13,3 °C 0,0 km/h (0 Bft) 100,00 %
06.05.2026 07:03 13,3 °C 75 % 1009,7 hPa 0,0 l/m² 0,0 km/h (0 Bft) W-SW 247 ° 0,000 mm 9,0 °C 13,3 °C 1,6 km/h (1 Bft) 100,00 %
06.05.2026 07:02 13,4 °C 75 % 1009,8 hPa 0,0 l/m² 0,0 km/h (0 Bft) W-SW 247 ° 0,000 mm 9,1 °C 13,4 °C 1,6 km/h (1 Bft) 100,00 %
06.05.2026 07:01 13,4 °C 74 % 1009,8 hPa 0,0 l/m² 0,0 km/h (0 Bft) N 0 ° 0,000 mm 8,9 °C 13,4 °C 0,0 km/h (0 Bft) 100,00 %
06.05.2026 07:00 13,5 °C 74 % 1009,7 hPa 0,0 l/m² 0,0 km/h (0 Bft) N 0 ° 0,000 mm 9,0 °C 13,5 °C 0,0 km/h (0 Bft) 100,00 %
06.05.2026 06:59 13,5 °C 74 % 1009,6 hPa 0,0 l/m² 0,0 km/h (0 Bft) N 0 ° 0,000 mm 9,0 °C 13,5 °C 0,0 km/h (0 Bft) 100,00 %
06.05.2026 06:58 13,6 °C 74 % 1009,7 hPa 0,0 l/m² 0,0 km/h (0 Bft) N 0 ° 0,000 mm 9,1 °C 13,6 °C 0,0 km/h (0 Bft) 100,00 %
06.05.2026 06:57 13,6 °C 74 % 1009,7 hPa 0,0 l/m² 0,0 km/h (0 Bft) N 0 ° 0,000 mm 9,1 °C 13,6 °C 0,0 km/h (0 Bft) 100,00 %
06.05.2026 06:56 13,6 °C 73 % 1009,7 hPa 0,0 l/m² 0,0 km/h (0 Bft) N 0 ° 0,000 mm 8,9 °C 13,6 °C 0,0 km/h (0 Bft) 100,00 %
06.05.2026 06:55 13,7 °C 73 % 1009,7 hPa 0,0 l/m² 0,0 km/h (0 Bft) N 0 ° 0,000 mm 8,9 °C 13,7 °C 0,0 km/h (0 Bft) 100,00 %
06.05.2026 06:54 13,7 °C 73 % 1009,7 hPa 0,0 l/m² 0,0 km/h (0 Bft) N 0 ° 0,000 mm 8,9 °C 13,7 °C 0,0 km/h (0 Bft) 100,00 %
06.05.2026 06:53 13,7 °C 73 % 1009,7 hPa 0,0 l/m² 0,0 km/h (0 Bft) W-SW 247 ° 0,000 mm 8,9 °C 13,7 °C 1,6 km/h (1 Bft) 100,00 %
06.05.2026 06:52 13,8 °C 73 % 1009,7 hPa 0,0 l/m² 0,0 km/h (0 Bft) W-SW 247 ° 0,000 mm 9,0 °C 13,8 °C 1,6 km/h (1 Bft) 100,00 %
06.05.2026 06:51 13,9 °C 73 % 1009,7 hPa 0,0 l/m² 0,0 km/h (0 Bft) N 0 ° 0,000 mm 9,1 °C 13,9 °C 0,0 km/h (0 Bft) 100,00 %
06.05.2026 06:50 13,9 °C 73 % 1009,6 hPa 0,0 l/m² 0,0 km/h (0 Bft) N 0 ° 0,000 mm 9,1 °C 13,9 °C 0,0 km/h (0 Bft) 95,65 %
06.05.2026 06:49 13,9 °C 73 % 1009,7 hPa 0,0 l/m² 0,0 km/h (0 Bft) N 0 ° 0,000 mm 9,1 °C 13,9 °C 0,0 km/h (0 Bft) 100,00 %
06.05.2026 06:48 13,9 °C 74 % 1009,7 hPa 0,0 l/m² 0,0 km/h (0 Bft) N 0 ° 0,000 mm 9,3 °C 13,9 °C 0,0 km/h (0 Bft) 100,00 %
06.05.2026 06:47 13,8 °C 74 % 1009,7 hPa 0,0 l/m² 0,0 km/h (0 Bft) N 0 ° 0,000 mm 9,2 °C 13,8 °C 0,0 km/h (0 Bft) 100,00 %
06.05.2026 06:46 13,8 °C 74 % 1009,7 hPa 0,0 l/m² 0,0 km/h (0 Bft) N 0 ° 0,000 mm 9,2 °C 13,8 °C 0,0 km/h (0 Bft) 100,00 %
06.05.2026 06:45 13,7 °C 74 % 1009,8 hPa 0,0 l/m² 0,0 km/h (0 Bft) N 0 ° 0,000 mm 9,2 °C 13,7 °C 0,0 km/h (0 Bft) 95,65 %
06.05.2026 06:44 13,7 °C 75 % 1009,7 hPa 0,0 l/m² 0,0 km/h (0 Bft) N 0 ° 0,000 mm 9,3 °C 13,7 °C 0,0 km/h (0 Bft) 100,00 %
06.05.2026 06:43 13,6 °C 75 % 1009,9 hPa 0,0 l/m² 0,0 km/h (0 Bft) N 0 ° 0,000 mm 9,3 °C 13,6 °C 0,0 km/h (0 Bft) 95,65 %
06.05.2026 06:42 13,6 °C 75 % 1009,8 hPa 0,0 l/m² 0,0 km/h (0 Bft) W-SW 247 ° 0,000 mm 9,3 °C 13,6 °C 1,6 km/h (1 Bft) 100,00 %
06.05.2026 06:41 13,6 °C 75 % 1009,8 hPa 0,0 l/m² 0,0 km/h (0 Bft) W-SW 247 ° 0,000 mm 9,3 °C 13,6 °C 1,6 km/h (1 Bft) 100,00 %
06.05.2026 06:40 13,6 °C 76 % 1009,7 hPa 0,0 l/m² 0,0 km/h (0 Bft) W-SW 247 ° 0,000 mm 9,4 °C 13,6 °C 1,6 km/h (1 Bft) 100,00 %
06.05.2026 06:39 13,5 °C 76 % 1009,7 hPa 0,0 l/m² 0,0 km/h (0 Bft) N 0 ° 0,000 mm 9,4 °C 13,5 °C 0,0 km/h (0 Bft) 100,00 %
06.05.2026 06:38 13,5 °C 75 % 1009,7 hPa 0,0 l/m² 0,0 km/h (0 Bft) W-SW 247 ° 0,000 mm 9,2 °C 13,5 °C 1,6 km/h (1 Bft) 100,00 %
06.05.2026 06:37 13,5 °C 76 % 1009,7 hPa 0,0 l/m² 0,0 km/h (0 Bft) W-SW 247 ° 0,000 mm 9,4 °C 13,5 °C 1,6 km/h (1 Bft) 100,00 %
06.05.2026 06:36 13,5 °C 76 % 1009,8 hPa 0,0 l/m² 0,0 km/h (0 Bft) N 0 ° 0,000 mm 9,4 °C 13,5 °C 0,0 km/h (0 Bft) 95,65 %
06.05.2026 06:35 13,5 °C 77 % 1009,8 hPa 0,0 l/m² 0,0 km/h (0 Bft) W-SW 247 ° 0,000 mm 9,5 °C 13,5 °C 1,6 km/h (1 Bft) 95,65 %
06.05.2026 06:34 13,4 °C 77 % 1009,9 hPa 0,0 l/m² 0,0 km/h (0 Bft) W-SW 247 ° 0,000 mm 9,5 °C 13,4 °C 1,6 km/h (1 Bft) 100,00 %
06.05.2026 06:33 13,4 °C 78 % 1009,9 hPa 0,0 l/m² 0,0 km/h (0 Bft) W-SW 247 ° 0,000 mm 9,6 °C 13,4 °C 1,6 km/h (1 Bft) 100,00 %
06.05.2026 06:32 13,2 °C 78 % 1009,9 hPa 0,0 l/m² 0,0 km/h (0 Bft) N 0 ° 0,000 mm 9,4 °C 13,2 °C 0,0 km/h (0 Bft) 100,00 %
06.05.2026 06:31 13,0 °C 79 % 1009,9 hPa 0,0 l/m² 0,0 km/h (0 Bft) N 0 ° 0,000 mm 9,4 °C 13,0 °C 0,0 km/h (0 Bft) 100,00 %
06.05.2026 06:30 12,8 °C 79 % 1010,0 hPa 0,0 l/m² 0,0 km/h (0 Bft) N 0 ° 0,000 mm 9,2 °C 12,8 °C 0,0 km/h (0 Bft) 100,00 %
06.05.2026 06:29 12,7 °C 79 % 1009,9 hPa 0,0 l/m² 0,0 km/h (0 Bft) N 0 ° 0,000 mm 9,2 °C 12,7 °C 0,0 km/h (0 Bft) 100,00 %
06.05.2026 06:28 12,6 °C 79 % 1010,0 hPa 0,0 l/m² 0,0 km/h (0 Bft) N 0 ° 0,000 mm 9,1 °C 12,6 °C 0,0 km/h (0 Bft) 100,00 %
06.05.2026 06:27 12,5 °C 80 % 1010,0 hPa 0,0 l/m² 0,0 km/h (0 Bft) N 0 ° 0,000 mm 9,1 °C 12,5 °C 0,0 km/h (0 Bft) 100,00 %
06.05.2026 06:26 12,4 °C 80 % 1010,1 hPa 0,0 l/m² 0,0 km/h (0 Bft) N 0 ° 0,000 mm 9,0 °C 12,4 °C 0,0 km/h (0 Bft) 95,65 %
06.05.2026 06:25 12,4 °C 80 % 1010,0 hPa 0,0 l/m² 0,0 km/h (0 Bft) W-SW 247 ° 0,000 mm 9,0 °C 12,4 °C 1,6 km/h (1 Bft) 100,00 %
06.05.2026 06:24 12,4 °C 80 % 1010,0 hPa 0,0 l/m² 0,0 km/h (0 Bft) N 0 ° 0,000 mm 9,0 °C 12,4 °C 0,0 km/h (0 Bft) 100,00 %
06.05.2026 06:23 12,3 °C 80 % 1009,9 hPa 0,0 l/m² 0,0 km/h (0 Bft) N 0 ° 0,000 mm 8,9 °C 12,3 °C 0,0 km/h (0 Bft) 95,65 %
06.05.2026 06:22 12,3 °C 81 % 1009,9 hPa 0,0 l/m² 0,0 km/h (0 Bft) N 0 ° 0,000 mm 9,1 °C 12,3 °C 0,0 km/h (0 Bft) 100,00 %
06.05.2026 06:21 12,2 °C 81 % 1009,9 hPa 0,0 l/m² 0,0 km/h (0 Bft) N 0 ° 0,000 mm 9,0 °C 12,2 °C 0,0 km/h (0 Bft) 100,00 %
06.05.2026 06:20 12,2 °C 81 % 1009,9 hPa 0,0 l/m² 0,0 km/h (0 Bft) N 0 ° 0,000 mm 9,0 °C 12,2 °C 0,0 km/h (0 Bft) 100,00 %
06.05.2026 06:19 12,1 °C 81 % 1009,9 hPa 0,0 l/m² 0,0 km/h (0 Bft) N 0 ° 0,000 mm 8,9 °C 12,1 °C 0,0 km/h (0 Bft) 100,00 %
06.05.2026 06:18 12,1 °C 81 % 1010,0 hPa 0,0 l/m² 0,0 km/h (0 Bft) N 0 ° 0,000 mm 8,9 °C 12,1 °C 0,0 km/h (0 Bft) 100,00 %
06.05.2026 06:17 12,0 °C 82 % 1010,0 hPa 0,0 l/m² 0,0 km/h (0 Bft) N 0 ° 0,000 mm 9,0 °C 12,0 °C 0,0 km/h (0 Bft) 100,00 %
06.05.2026 06:16 11,9 °C 82 % 1010,1 hPa 0,0 l/m² 0,0 km/h (0 Bft) N 0 ° 0,000 mm 8,9 °C 11,9 °C 0,0 km/h (0 Bft) 100,00 %
06.05.2026 06:15 11,9 °C 82 % 1010,0 hPa 0,0 l/m² 0,0 km/h (0 Bft) N 0 ° 0,000 mm 8,9 °C 11,9 °C 0,0 km/h (0 Bft) 95,65 %
06.05.2026 06:14 11,8 °C 82 % 1010,0 hPa 0,0 l/m² 0,0 km/h (0 Bft) N 0 ° 0,000 mm 8,8 °C 11,8 °C 0,0 km/h (0 Bft) 100,00 %
06.05.2026 06:13 11,7 °C 82 % 1010,0 hPa 0,0 l/m² 0,0 km/h (0 Bft) N 0 ° 0,000 mm 8,7 °C 11,7 °C 0,0 km/h (0 Bft) 100,00 %
06.05.2026 06:12 11,7 °C 82 % 1010,0 hPa 0,0 l/m² 0,0 km/h (0 Bft) N 0 ° 0,000 mm 8,7 °C 11,7 °C 0,0 km/h (0 Bft) 95,65 %
06.05.2026 06:11 11,7 °C 82 % 1010,0 hPa 0,0 l/m² 0,0 km/h (0 Bft) W-SW 247 ° 0,000 mm 8,7 °C 11,7 °C 1,6 km/h (1 Bft) 100,00 %
06.05.2026 06:10 11,7 °C 82 % 1010,0 hPa 0,0 l/m² 1,6 km/h (1 Bft) W-SW 247 ° 0,000 mm 8,7 °C 11,7 °C 3,2 km/h (1 Bft) 100,00 %
06.05.2026 06:09 11,7 °C 82 % 1010,1 hPa 0,0 l/m² 1,6 km/h (1 Bft) W-SW 247 ° 0,000 mm 8,7 °C 11,7 °C 3,2 km/h (1 Bft) 100,00 %
06.05.2026 06:08 11,7 °C 81 % 1010,1 hPa 0,0 l/m² 1,6 km/h (1 Bft) W-SW 247 ° 0,000 mm 8,5 °C 11,7 °C 1,6 km/h (1 Bft) 100,00 %
06.05.2026 06:07 11,7 °C 81 % 1010,0 hPa 0,0 l/m² 1,6 km/h (1 Bft) W-SW 247 ° 0,000 mm 8,5 °C 11,7 °C 1,6 km/h (1 Bft) 100,00 %
06.05.2026 06:06 11,8 °C 81 % 1010,1 hPa 0,0 l/m² 0,0 km/h (0 Bft) W-SW 247 ° 0,000 mm 8,6 °C 11,8 °C 1,6 km/h (1 Bft) 100,00 %
06.05.2026 06:05 11,8 °C 81 % 1010,0 hPa 0,0 l/m² 1,6 km/h (1 Bft) W-SW 247 ° 0,000 mm 8,6 °C 11,8 °C 1,6 km/h (1 Bft) 100,00 %
06.05.2026 06:04 11,8 °C 81 % 1010,0 hPa 0,0 l/m² 0,0 km/h (0 Bft) W-SW 247 ° 0,000 mm 8,6 °C 11,8 °C 1,6 km/h (1 Bft) 95,65 %
06.05.2026 06:03 11,9 °C 81 % 1010,0 hPa 0,0 l/m² 0,0 km/h (0 Bft) W-SW 247 ° 0,000 mm 8,7 °C 11,9 °C 1,6 km/h (1 Bft) 100,00 %
06.05.2026 06:02 11,9 °C 81 % 1009,9 hPa 0,0 l/m² 1,6 km/h (1 Bft) W-SW 247 ° 0,000 mm 8,7 °C 11,9 °C 1,6 km/h (1 Bft) 95,65 %
06.05.2026 06:01 11,9 °C 81 % 1010,0 hPa 0,0 l/m² 0,0 km/h (0 Bft) W-SW 247 ° 0,000 mm 8,7 °C 11,9 °C 1,6 km/h (1 Bft) 100,00 %
06.05.2026 06:00 12,0 °C 80 % 1010,0 hPa 0,0 l/m² 0,0 km/h (0 Bft) W-SW 247 ° 0,000 mm 8,7 °C 12,0 °C 1,6 km/h (1 Bft) 100,00 %
06.05.2026 05:59 12,1 °C 80 % 1009,9 hPa 0,0 l/m² 0,0 km/h (0 Bft) W-SW 247 ° 0,000 mm 8,8 °C 12,1 °C 1,6 km/h (1 Bft) 100,00 %
06.05.2026 05:58 12,1 °C 79 % 1010,0 hPa 0,0 l/m² 0,0 km/h (0 Bft) W-SW 247 ° 0,000 mm 8,6 °C 12,1 °C 1,6 km/h (1 Bft) 100,00 %
06.05.2026 05:57 12,2 °C 79 % 1010,0 hPa 0,0 l/m² 1,6 km/h (1 Bft) W-SW 247 ° 0,000 mm 8,7 °C 12,2 °C 1,6 km/h (1 Bft) 95,65 %
06.05.2026 05:56 12,3 °C 79 % 1010,0 hPa 0,0 l/m² 3,2 km/h (1 Bft) W-SW 247 ° 0,000 mm 8,8 °C 12,3 °C 3,2 km/h (1 Bft) 100,00 %
06.05.2026 05:55 12,4 °C 79 % 1009,9 hPa 0,0 l/m² 1,6 km/h (1 Bft) W-SW 247 ° 0,000 mm 8,9 °C 12,4 °C 1,6 km/h (1 Bft) 100,00 %
06.05.2026 05:54 12,5 °C 78 % 1009,7 hPa 0,0 l/m² 0,0 km/h (0 Bft) N 0 ° 0,000 mm 8,8 °C 12,5 °C 0,0 km/h (0 Bft) 100,00 %
06.05.2026 05:53 12,6 °C 78 % 1009,7 hPa 0,0 l/m² 0,0 km/h (0 Bft) N 0 ° 0,000 mm 8,9 °C 12,6 °C 0,0 km/h (0 Bft) 100,00 %
06.05.2026 05:52 12,6 °C 78 % 1009,7 hPa 0,0 l/m² 0,0 km/h (0 Bft) W-SW 247 ° 0,000 mm 8,9 °C 12,6 °C 1,6 km/h (1 Bft) 95,65 %
06.05.2026 05:51 12,6 °C 78 % 1009,8 hPa 0,0 l/m² 0,0 km/h (0 Bft) W-SW 247 ° 0,000 mm 8,9 °C 12,6 °C 1,6 km/h (1 Bft) 100,00 %
06.05.2026 05:50 12,6 °C 79 % 1009,8 hPa 0,0 l/m² 0,0 km/h (0 Bft) N 0 ° 0,000 mm 9,1 °C 12,6 °C 0,0 km/h (0 Bft) 100,00 %
06.05.2026 05:49 12,7 °C 79 % 1009,7 hPa 0,0 l/m² 0,0 km/h (0 Bft) N 0 ° 0,000 mm 9,2 °C 12,7 °C 0,0 km/h (0 Bft) 100,00 %
06.05.2026 05:48 12,7 °C 78 % 1009,7 hPa 0,0 l/m² 0,0 km/h (0 Bft) N 0 ° 0,000 mm 9,0 °C 12,7 °C 0,0 km/h (0 Bft) 100,00 %
06.05.2026 05:47 12,7 °C 78 % 1009,6 hPa 0,0 l/m² 0,0 km/h (0 Bft) N 0 ° 0,000 mm 9,0 °C 12,7 °C 0,0 km/h (0 Bft) 100,00 %
06.05.2026 05:46 12,7 °C 78 % 1009,6 hPa 0,0 l/m² 0,0 km/h (0 Bft) N 0 ° 0,000 mm 9,0 °C 12,7 °C 0,0 km/h (0 Bft) 100,00 %
06.05.2026 05:45 12,7 °C 78 % 1009,7 hPa 0,0 l/m² 0,0 km/h (0 Bft) N 0 ° 0,000 mm 9,0 °C 12,7 °C 0,0 km/h (0 Bft) 100,00 %
06.05.2026 05:44 12,7 °C 78 % 1009,8 hPa 0,0 l/m² 0,0 km/h (0 Bft) N 0 ° 0,000 mm 9,0 °C 12,7 °C 0,0 km/h (0 Bft) 100,00 %
06.05.2026 05:43 12,7 °C 78 % 1009,9 hPa 0,0 l/m² 0,0 km/h (0 Bft) W-SW 247 ° 0,000 mm 9,0 °C 12,7 °C 1,6 km/h (1 Bft) 100,00 %
06.05.2026 05:42 12,7 °C 78 % 1010,0 hPa 0,0 l/m² 0,0 km/h (0 Bft) W-SW 247 ° 0,000 mm 9,0 °C 12,7 °C 1,6 km/h (1 Bft) 100,00 %
06.05.2026 05:41 12,7 °C 78 % 1010,0 hPa 0,0 l/m² 3,2 km/h (1 Bft) W-SW 247 ° 0,000 mm 9,0 °C 12,7 °C 3,2 km/h (1 Bft) 100,00 %
06.05.2026 05:40 12,7 °C 78 % 1010,1 hPa 0,0 l/m² 1,6 km/h (1 Bft) W-SW 247 ° 0,000 mm 9,0 °C 12,7 °C 3,2 km/h (1 Bft) 100,00 %
06.05.2026 05:39 12,7 °C 78 % 1010,0 hPa 0,0 l/m² 3,2 km/h (1 Bft) W-SW 247 ° 0,000 mm 9,0 °C 12,7 °C 3,2 km/h (1 Bft) 100,00 %
06.05.2026 05:38 12,7 °C 78 % 1009,9 hPa 0,0 l/m² 1,6 km/h (1 Bft) W-SW 247 ° 0,000 mm 9,0 °C 12,7 °C 1,6 km/h (1 Bft) 100,00 %
06.05.2026 05:37 12,7 °C 79 % 1009,9 hPa 0,0 l/m² 1,6 km/h (1 Bft) W-SW 247 ° 0,000 mm 9,2 °C 12,7 °C 1,6 km/h (1 Bft) 100,00 %
06.05.2026 05:36 12,6 °C 78 % 1009,9 hPa 0,0 l/m² 0,0 km/h (0 Bft) W-SW 247 ° 0,000 mm 8,9 °C 12,6 °C 1,6 km/h (1 Bft) 95,65 %
06.05.2026 05:35 12,6 °C 78 % 1009,9 hPa 0,0 l/m² 0,0 km/h (0 Bft) W-SW 247 ° 0,000 mm 8,9 °C 12,6 °C 1,6 km/h (1 Bft) 95,65 %
06.05.2026 05:34 12,6 °C 78 % 1009,9 hPa 0,0 l/m² 1,6 km/h (1 Bft) W-SW 247 ° 0,000 mm 8,9 °C 12,6 °C 1,6 km/h (1 Bft) 100,00 %
06.05.2026 05:33 12,6 °C 78 % 1009,9 hPa 0,0 l/m² 0,0 km/h (0 Bft) W-SW 247 ° 0,000 mm 8,9 °C 12,6 °C 1,6 km/h (1 Bft) 100,00 %
06.05.2026 05:32 12,6 °C 78 % 1009,9 hPa 0,0 l/m² 0,0 km/h (0 Bft) W-SW 247 ° 0,000 mm 8,9 °C 12,6 °C 1,6 km/h (1 Bft) 100,00 %
06.05.2026 05:31 12,6 °C 78 % 1010,0 hPa 0,0 l/m² 1,6 km/h (1 Bft) W-SW 247 ° 0,000 mm 8,9 °C 12,6 °C 1,6 km/h (1 Bft) 100,00 %
06.05.2026 05:30 12,6 °C 78 % 1009,9 hPa 0,0 l/m² 0,0 km/h (0 Bft) W-SW 247 ° 0,000 mm 8,9 °C 12,6 °C 1,6 km/h (1 Bft) 100,00 %
06.05.2026 05:29 12,6 °C 78 % 1010,0 hPa 0,0 l/m² 1,6 km/h (1 Bft) W-SW 247 ° 0,000 mm 8,9 °C 12,6 °C 1,6 km/h (1 Bft) 100,00 %
06.05.2026 05:28 12,6 °C 78 % 1010,0 hPa 0,0 l/m² 0,0 km/h (0 Bft) W-SW 247 ° 0,000 mm 8,9 °C 12,6 °C 1,6 km/h (1 Bft) 100,00 %
06.05.2026 05:27 12,6 °C 78 % 1010,0 hPa 0,0 l/m² 0,0 km/h (0 Bft) N 0 ° 0,000 mm 8,9 °C 12,6 °C 0,0 km/h (0 Bft) 100,00 %
06.05.2026 05:26 12,6 °C 78 % 1010,1 hPa 0,0 l/m² 0,0 km/h (0 Bft) N 0 ° 0,000 mm 8,9 °C 12,6 °C 0,0 km/h (0 Bft) 100,00 %
06.05.2026 05:25 12,5 °C 79 % 1010,0 hPa 0,0 l/m² 0,0 km/h (0 Bft) N 0 ° 0,000 mm 9,0 °C 12,5 °C 0,0 km/h (0 Bft) 100,00 %
06.05.2026 05:24 12,5 °C 79 % 1010,1 hPa 0,0 l/m² 0,0 km/h (0 Bft) N 0 ° 0,000 mm 9,0 °C 12,5 °C 0,0 km/h (0 Bft) 100,00 %
06.05.2026 05:23 12,4 °C 79 % 1010,1 hPa 0,0 l/m² 0,0 km/h (0 Bft) N 0 ° 0,000 mm 8,9 °C 12,4 °C 0,0 km/h (0 Bft) 100,00 %
06.05.2026 05:22 12,4 °C 79 % 1010,0 hPa 0,0 l/m² 0,0 km/h (0 Bft) N 0 ° 0,000 mm 8,9 °C 12,4 °C 0,0 km/h (0 Bft) 100,00 %
06.05.2026 05:21 12,4 °C 78 % 1010,0 hPa 0,0 l/m² 0,0 km/h (0 Bft) N 0 ° 0,000 mm 8,7 °C 12,4 °C 0,0 km/h (0 Bft) 95,65 %
06.05.2026 05:20 12,5 °C 78 % 1010,0 hPa 0,0 l/m² 0,0 km/h (0 Bft) N 0 ° 0,000 mm 8,8 °C 12,5 °C 0,0 km/h (0 Bft) 100,00 %
06.05.2026 05:19 12,5 °C 78 % 1010,0 hPa 0,0 l/m² 0,0 km/h (0 Bft) N 0 ° 0,000 mm 8,8 °C 12,5 °C 0,0 km/h (0 Bft) 100,00 %
06.05.2026 05:18 12,5 °C 78 % 1009,9 hPa 0,0 l/m² 0,0 km/h (0 Bft) N 0 ° 0,000 mm 8,8 °C 12,5 °C 0,0 km/h (0 Bft) 95,65 %
06.05.2026 05:17 12,6 °C 78 % 1009,9 hPa 0,0 l/m² 0,0 km/h (0 Bft) N 0 ° 0,000 mm 8,9 °C 12,6 °C 0,0 km/h (0 Bft) 100,00 %
06.05.2026 05:16 12,6 °C 77 % 1009,9 hPa 0,0 l/m² 0,0 km/h (0 Bft) SW 225 ° 0,000 mm 8,7 °C 12,6 °C 1,6 km/h (1 Bft) 95,65 %
06.05.2026 05:15 12,7 °C 77 % 1009,8 hPa 0,0 l/m² 1,6 km/h (1 Bft) SW 225 ° 0,000 mm 8,8 °C 12,7 °C 3,2 km/h (1 Bft) 100,00 %
06.05.2026 05:14 12,8 °C 77 % 1009,7 hPa 0,0 l/m² 3,2 km/h (1 Bft) SW 225 ° 0,000 mm 8,9 °C 12,8 °C 3,2 km/h (1 Bft) 100,00 %
06.05.2026 05:13 12,8 °C 76 % 1009,8 hPa 0,0 l/m² 1,6 km/h (1 Bft) SW 225 ° 0,000 mm 8,7 °C 12,8 °C 3,2 km/h (1 Bft) 95,65 %
06.05.2026 05:12 12,9 °C 76 % 1009,7 hPa 0,0 l/m² 0,0 km/h (0 Bft) SW 225 ° 0,000 mm 8,8 °C 12,9 °C 1,6 km/h (1 Bft) 100,00 %
06.05.2026 05:11 13,1 °C 75 % 1009,7 hPa 0,0 l/m² 3,2 km/h (1 Bft) SW 225 ° 0,000 mm 8,8 °C 13,1 °C 4,8 km/h (1 Bft) 100,00 %
06.05.2026 05:10 13,3 °C 75 % 1009,7 hPa 0,0 l/m² 3,2 km/h (1 Bft) SW 225 ° 0,000 mm 9,0 °C 13,3 °C 4,8 km/h (1 Bft) 100,00 %
06.05.2026 05:09 13,4 °C 75 % 1009,6 hPa 0,0 l/m² 1,6 km/h (1 Bft) W-SW 247 ° 0,000 mm 9,1 °C 13,4 °C 3,2 km/h (1 Bft) 100,00 %
06.05.2026 05:08 13,5 °C 75 % 1009,7 hPa 0,0 l/m² 0,0 km/h (0 Bft) W-SW 247 ° 0,000 mm 9,2 °C 13,5 °C 1,6 km/h (1 Bft) 100,00 %
06.05.2026 05:07 13,6 °C 75 % 1009,7 hPa 0,0 l/m² 0,0 km/h (0 Bft) N 0 ° 0,000 mm 9,3 °C 13,6 °C 0,0 km/h (0 Bft) 100,00 %
06.05.2026 05:06 13,6 °C 75 % 1009,7 hPa 0,0 l/m² 0,0 km/h (0 Bft) W-SW 247 ° 0,000 mm 9,3 °C 13,6 °C 1,6 km/h (1 Bft) 100,00 %
06.05.2026 05:05 13,6 °C 75 % 1009,7 hPa 0,0 l/m² 0,0 km/h (0 Bft) W-SW 247 ° 0,000 mm 9,3 °C 13,6 °C 1,6 km/h (1 Bft) 100,00 %
06.05.2026 05:04 13,7 °C 75 % 1009,7 hPa 0,0 l/m² 0,0 km/h (0 Bft) N 0 ° 0,000 mm 9,3 °C 13,7 °C 0,0 km/h (0 Bft) 100,00 %
06.05.2026 05:03 13,7 °C 74 % 1009,6 hPa 0,0 l/m² 0,0 km/h (0 Bft) N 0 ° 0,000 mm 9,2 °C 13,7 °C 0,0 km/h (0 Bft) 100,00 %
06.05.2026 05:02 13,7 °C 74 % 1009,7 hPa 0,0 l/m² 1,6 km/h (1 Bft) W-SW 247 ° 0,000 mm 9,2 °C 13,7 °C 3,2 km/h (1 Bft) 95,65 %
06.05.2026 05:01 13,8 °C 74 % 1009,6 hPa 0,0 l/m² 0,0 km/h (0 Bft) N 0 ° 0,000 mm 9,2 °C 13,8 °C 0,0 km/h (0 Bft) 100,00 %
06.05.2026 05:00 13,8 °C 74 % 1009,7 hPa 0,0 l/m² 1,6 km/h (1 Bft) W-SW 247 ° 0,000 mm 9,2 °C 13,8 °C 3,2 km/h (1 Bft) 100,00 %
06.05.2026 04:59 13,8 °C 74 % 1009,7 hPa 0,0 l/m² 0,0 km/h (0 Bft) W-SW 247 ° 0,000 mm 9,2 °C 13,8 °C 1,6 km/h (1 Bft) 100,00 %
06.05.2026 04:58 13,9 °C 74 % 1009,7 hPa 0,0 l/m² 1,6 km/h (1 Bft) W-SW 247 ° 0,000 mm 9,3 °C 13,9 °C 3,2 km/h (1 Bft) 100,00 %
06.05.2026 04:57 13,9 °C 74 % 1009,7 hPa 0,0 l/m² 0,0 km/h (0 Bft) W-SW 247 ° 0,000 mm 9,3 °C 13,9 °C 3,2 km/h (1 Bft) 95,65 %
06.05.2026 04:56 13,9 °C 73 % 1009,6 hPa 0,0 l/m² 0,0 km/h (0 Bft) W-SW 247 ° 0,000 mm 9,1 °C 13,9 °C 3,2 km/h (1 Bft) 100,00 %
06.05.2026 04:55 13,9 °C 73 % 1009,7 hPa 0,0 l/m² 0,0 km/h (0 Bft) W-SW 247 ° 0,000 mm 9,1 °C 13,9 °C 1,6 km/h (1 Bft) 100,00 %
06.05.2026 04:54 13,9 °C 73 % 1009,7 hPa 0,0 l/m² 0,0 km/h (0 Bft) N 0 ° 0,000 mm 9,1 °C 13,9 °C 0,0 km/h (0 Bft) 95,65 %
06.05.2026 04:53 14,0 °C 73 % 1009,7 hPa 0,0 l/m² 1,6 km/h (1 Bft) W-SW 247 ° 0,000 mm 9,2 °C 14,0 °C 3,2 km/h (1 Bft) 100,00 %
06.05.2026 04:52 13,9 °C 73 % 1009,7 hPa 0,0 l/m² 3,2 km/h (1 Bft) W-SW 247 ° 0,000 mm 9,1 °C 13,9 °C 4,8 km/h (1 Bft) 100,00 %
06.05.2026 04:51 13,9 °C 74 % 1009,7 hPa 0,0 l/m² 0,0 km/h (0 Bft) W-SW 247 ° 0,000 mm 9,3 °C 13,9 °C 3,2 km/h (1 Bft) 100,00 %
06.05.2026 04:50 13,9 °C 74 % 1009,7 hPa 0,0 l/m² 3,2 km/h (1 Bft) W-SW 247 ° 0,000 mm 9,3 °C 13,9 °C 3,2 km/h (1 Bft) 100,00 %
06.05.2026 04:49 13,9 °C 74 % 1009,8 hPa 0,0 l/m² 3,2 km/h (1 Bft) W-SW 247 ° 0,000 mm 9,3 °C 13,9 °C 4,8 km/h (1 Bft) 100,00 %
06.05.2026 04:48 13,8 °C 74 % 1009,8 hPa 0,0 l/m² 3,2 km/h (1 Bft) W-SW 247 ° 0,000 mm 9,2 °C 13,8 °C 4,8 km/h (1 Bft) 100,00 %
06.05.2026 04:47 13,8 °C 74 % 1009,8 hPa 0,0 l/m² 3,2 km/h (1 Bft) W-SW 247 ° 0,000 mm 9,2 °C 13,8 °C 4,8 km/h (1 Bft) 100,00 %
06.05.2026 04:46 13,7 °C 74 % 1009,8 hPa 0,0 l/m² 3,2 km/h (1 Bft) W-SW 247 ° 0,000 mm 9,2 °C 13,7 °C 3,2 km/h (1 Bft) 100,00 %
06.05.2026 04:45 13,7 °C 74 % 1009,8 hPa 0,0 l/m² 0,0 km/h (0 Bft) W-SW 247 ° 0,000 mm 9,2 °C 13,7 °C 3,2 km/h (1 Bft) 100,00 %
06.05.2026 04:44 13,7 °C 74 % 1009,8 hPa 0,0 l/m² 0,0 km/h (0 Bft) W-SW 247 ° 0,000 mm 9,2 °C 13,7 °C 1,6 km/h (1 Bft) 100,00 %
06.05.2026 04:43 13,7 °C 74 % 1009,8 hPa 0,0 l/m² 0,0 km/h (0 Bft) W-SW 247 ° 0,000 mm 9,2 °C 13,7 °C 1,6 km/h (1 Bft) 100,00 %
06.05.2026 04:42 13,7 °C 74 % 1009,9 hPa 0,0 l/m² 0,0 km/h (0 Bft) W-SW 247 ° 0,000 mm 9,2 °C 13,7 °C 1,6 km/h (1 Bft) 100,00 %
06.05.2026 04:41 13,7 °C 74 % 1009,9 hPa 0,0 l/m² 0,0 km/h (0 Bft) W-SW 247 ° 0,000 mm 9,2 °C 13,7 °C 1,6 km/h (1 Bft) 100,00 %
06.05.2026 04:40 13,7 °C 74 % 1009,8 hPa 0,0 l/m² 0,0 km/h (0 Bft) W-SW 247 ° 0,000 mm 9,2 °C 13,7 °C 1,6 km/h (1 Bft) 95,65 %
06.05.2026 04:39 13,7 °C 74 % 1009,8 hPa 0,0 l/m² 1,6 km/h (1 Bft) W-SW 247 ° 0,000 mm 9,2 °C 13,7 °C 3,2 km/h (1 Bft) 100,00 %
06.05.2026 04:38 13,7 °C 74 % 1009,9 hPa 0,0 l/m² 0,0 km/h (0 Bft) W-SW 247 ° 0,000 mm 9,2 °C 13,7 °C 1,6 km/h (1 Bft) 100,00 %
06.05.2026 04:37 13,7 °C 74 % 1009,9 hPa 0,0 l/m² 0,0 km/h (0 Bft) N 0 ° 0,000 mm 9,2 °C 13,7 °C 0,0 km/h (0 Bft) 95,65 %
06.05.2026 04:36 13,7 °C 74 % 1009,9 hPa 0,0 l/m² 0,0 km/h (0 Bft) W-SW 247 ° 0,000 mm 9,2 °C 13,7 °C 1,6 km/h (1 Bft) 100,00 %
06.05.2026 04:35 13,8 °C 74 % 1009,8 hPa 0,0 l/m² 0,0 km/h (0 Bft) W-SW 247 ° 0,000 mm 9,2 °C 13,8 °C 1,6 km/h (1 Bft) 100,00 %
06.05.2026 04:34 13,8 °C 74 % 1009,9 hPa 0,0 l/m² 0,0 km/h (0 Bft) N 0 ° 0,000 mm 9,2 °C 13,8 °C 0,0 km/h (0 Bft) 100,00 %
06.05.2026 04:33 13,8 °C 74 % 1009,9 hPa 0,0 l/m² 0,0 km/h (0 Bft) W-SW 247 ° 0,000 mm 9,2 °C 13,8 °C 1,6 km/h (1 Bft) 100,00 %
06.05.2026 04:32 13,8 °C 74 % 1009,9 hPa 0,0 l/m² 0,0 km/h (0 Bft) N 0 ° 0,000 mm 9,2 °C 13,8 °C 0,0 km/h (0 Bft) 100,00 %
06.05.2026 04:31 13,8 °C 74 % 1010,0 hPa 0,0 l/m² 0,0 km/h (0 Bft) W-SW 247 ° 0,000 mm 9,2 °C 13,8 °C 1,6 km/h (1 Bft) 100,00 %
06.05.2026 04:30 13,8 °C 74 % 1009,9 hPa 0,0 l/m² 0,0 km/h (0 Bft) N 0 ° 0,000 mm 9,2 °C 13,8 °C 0,0 km/h (0 Bft) 100,00 %
06.05.2026 04:29 13,8 °C 74 % 1009,9 hPa 0,0 l/m² 0,0 km/h (0 Bft) W-SW 247 ° 0,000 mm 9,2 °C 13,8 °C 1,6 km/h (1 Bft) 100,00 %
06.05.2026 04:28 13,7 °C 74 % 1009,9 hPa 0,0 l/m² 0,0 km/h (0 Bft) W-SW 247 ° 0,000 mm 9,2 °C 13,7 °C 1,6 km/h (1 Bft) 95,65 %
06.05.2026 04:27 13,7 °C 74 % 1009,9 hPa 0,0 l/m² 0,0 km/h (0 Bft) N 0 ° 0,000 mm 9,2 °C 13,7 °C 0,0 km/h (0 Bft) 100,00 %
06.05.2026 04:26 13,7 °C 74 % 1009,9 hPa 0,0 l/m² 1,6 km/h (1 Bft) W-SW 247 ° 0,000 mm 9,2 °C 13,7 °C 1,6 km/h (1 Bft) 100,00 %
06.05.2026 04:25 13,6 °C 74 % 1010,0 hPa 0,0 l/m² 0,0 km/h (0 Bft) W-SW 247 ° 0,000 mm 9,1 °C 13,6 °C 1,6 km/h (1 Bft) 100,00 %
06.05.2026 04:24 13,6 °C 74 % 1009,9 hPa 0,0 l/m² 0,0 km/h (0 Bft) W-SW 247 ° 0,000 mm 9,1 °C 13,6 °C 1,6 km/h (1 Bft) 100,00 %
06.05.2026 04:23 13,7 °C 74 % 1009,9 hPa 0,0 l/m² 0,0 km/h (0 Bft) N 0 ° 0,000 mm 9,2 °C 13,7 °C 0,0 km/h (0 Bft) 100,00 %
06.05.2026 04:22 13,7 °C 74 % 1009,9 hPa 0,0 l/m² 0,0 km/h (0 Bft) W-SW 247 ° 0,000 mm 9,2 °C 13,7 °C 1,6 km/h (1 Bft) 100,00 %
06.05.2026 04:21 13,7 °C 74 % 1009,9 hPa 0,0 l/m² 0,0 km/h (0 Bft) W-SW 247 ° 0,000 mm 9,2 °C 13,7 °C 1,6 km/h (1 Bft) 100,00 %
06.05.2026 04:20 13,7 °C 74 % 1009,9 hPa 0,0 l/m² 0,0 km/h (0 Bft) W-SW 247 ° 0,000 mm 9,2 °C 13,7 °C 1,6 km/h (1 Bft) 100,00 %
06.05.2026 04:19 13,7 °C 74 % 1009,9 hPa 0,0 l/m² 0,0 km/h (0 Bft) W-SW 247 ° 0,000 mm 9,2 °C 13,7 °C 1,6 km/h (1 Bft) 100,00 %
06.05.2026 04:18 13,7 °C 74 % 1009,8 hPa 0,0 l/m² 0,0 km/h (0 Bft) N 0 ° 0,000 mm 9,2 °C 13,7 °C 0,0 km/h (0 Bft) 100,00 %
06.05.2026 04:17 13,7 °C 74 % 1009,9 hPa 0,0 l/m² 0,0 km/h (0 Bft) N 0 ° 0,000 mm 9,2 °C 13,7 °C 0,0 km/h (0 Bft) 100,00 %
06.05.2026 04:16 13,7 °C 74 % 1009,8 hPa 0,0 l/m² 0,0 km/h (0 Bft) N 0 ° 0,000 mm 9,2 °C 13,7 °C 0,0 km/h (0 Bft) 100,00 %
06.05.2026 04:15 13,7 °C 74 % 1009,9 hPa 0,0 l/m² 0,0 km/h (0 Bft) N 0 ° 0,000 mm 9,2 °C 13,7 °C 0,0 km/h (0 Bft) 100,00 %
06.05.2026 04:14 13,8 °C 74 % 1009,9 hPa 0,0 l/m² 0,0 km/h (0 Bft) N 0 ° 0,000 mm 9,2 °C 13,8 °C 0,0 km/h (0 Bft) 95,65 %
06.05.2026 04:13 13,8 °C 74 % 1009,9 hPa 0,0 l/m² 0,0 km/h (0 Bft) N 0 ° 0,000 mm 9,2 °C 13,8 °C 0,0 km/h (0 Bft) 100,00 %
06.05.2026 04:12 13,8 °C 74 % 1009,9 hPa 0,0 l/m² 0,0 km/h (0 Bft) N 0 ° 0,000 mm 9,2 °C 13,8 °C 0,0 km/h (0 Bft) 100,00 %
06.05.2026 04:11 13,8 °C 74 % 1009,9 hPa 0,0 l/m² 0,0 km/h (0 Bft) N 0 ° 0,000 mm 9,2 °C 13,8 °C 0,0 km/h (0 Bft) 95,65 %
06.05.2026 04:10 13,8 °C 74 % 1009,8 hPa 0,0 l/m² 0,0 km/h (0 Bft) N 0 ° 0,000 mm 9,2 °C 13,8 °C 0,0 km/h (0 Bft) 100,00 %
06.05.2026 04:09 13,8 °C 73 % 1009,8 hPa 0,0 l/m² 0,0 km/h (0 Bft) N 0 ° 0,000 mm 9,0 °C 13,8 °C 0,0 km/h (0 Bft) 100,00 %
06.05.2026 04:08 13,8 °C 73 % 1009,8 hPa 0,0 l/m² 0,0 km/h (0 Bft) N 0 ° 0,000 mm 9,0 °C 13,8 °C 0,0 km/h (0 Bft) 100,00 %
06.05.2026 04:07 13,8 °C 73 % 1009,8 hPa 0,0 l/m² 0,0 km/h (0 Bft) N 0 ° 0,000 mm 9,0 °C 13,8 °C 0,0 km/h (0 Bft) 100,00 %
06.05.2026 04:06 13,9 °C 73 % 1009,9 hPa 0,0 l/m² 0,0 km/h (0 Bft) N 0 ° 0,000 mm 9,1 °C 13,9 °C 0,0 km/h (0 Bft) 100,00 %
06.05.2026 04:05 13,9 °C 73 % 1009,8 hPa 0,0 l/m² 0,0 km/h (0 Bft) N 0 ° 0,000 mm 9,1 °C 13,9 °C 0,0 km/h (0 Bft) 100,00 %
06.05.2026 04:04 13,9 °C 73 % 1009,9 hPa 0,0 l/m² 0,0 km/h (0 Bft) N 0 ° 0,000 mm 9,1 °C 13,9 °C 0,0 km/h (0 Bft) 100,00 %
06.05.2026 04:03 13,9 °C 73 % 1009,9 hPa 0,0 l/m² 0,0 km/h (0 Bft) N 0 ° 0,000 mm 9,1 °C 13,9 °C 0,0 km/h (0 Bft) 100,00 %
06.05.2026 04:02 13,9 °C 73 % 1009,8 hPa 0,0 l/m² 0,0 km/h (0 Bft) W-SW 247 ° 0,000 mm 9,1 °C 13,9 °C 1,6 km/h (1 Bft) 100,00 %
06.05.2026 04:01 13,9 °C 73 % 1009,8 hPa 0,0 l/m² 0,0 km/h (0 Bft) W-SW 247 ° 0,000 mm 9,1 °C 13,9 °C 1,6 km/h (1 Bft) 100,00 %
06.05.2026 04:00 14,1 °C 73 % 1009,8 hPa 0,0 l/m² 0,0 km/h (0 Bft) N 0 ° 0,000 mm 9,3 °C 14,1 °C 0,0 km/h (0 Bft) 100,00 %
06.05.2026 03:59 14,1 °C 73 % 1009,9 hPa 0,0 l/m² 1,6 km/h (1 Bft) W-SW 247 ° 0,000 mm 9,3 °C 14,1 °C 1,6 km/h (1 Bft) 100,00 %
06.05.2026 03:58 14,1 °C 73 % 1009,9 hPa 0,0 l/m² 0,0 km/h (0 Bft) W-SW 247 ° 0,000 mm 9,3 °C 14,1 °C 1,6 km/h (1 Bft) 100,00 %
06.05.2026 03:57 14,2 °C 73 % 1009,8 hPa 0,0 l/m² 1,6 km/h (1 Bft) W-SW 247 ° 0,000 mm 9,4 °C 14,2 °C 1,6 km/h (1 Bft) 100,00 %
06.05.2026 03:56 14,2 °C 72 % 1009,8 hPa 0,0 l/m² 0,0 km/h (0 Bft) W-SW 247 ° 0,000 mm 9,2 °C 14,2 °C 1,6 km/h (1 Bft) 100,00 %
06.05.2026 03:55 14,2 °C 72 % 1009,9 hPa 0,0 l/m² 0,0 km/h (0 Bft) N 0 ° 0,000 mm 9,2 °C 14,2 °C 0,0 km/h (0 Bft) 100,00 %
06.05.2026 03:54 14,3 °C 72 % 1009,8 hPa 0,0 l/m² 0,0 km/h (0 Bft) N 0 ° 0,000 mm 9,3 °C 14,3 °C 0,0 km/h (0 Bft) 100,00 %
06.05.2026 03:53 14,3 °C 72 % 1009,8 hPa 0,0 l/m² 0,0 km/h (0 Bft) N 0 ° 0,000 mm 9,3 °C 14,3 °C 0,0 km/h (0 Bft) 100,00 %
06.05.2026 03:52 14,3 °C 72 % 1009,8 hPa 0,0 l/m² 0,0 km/h (0 Bft) N 0 ° 0,000 mm 9,3 °C 14,3 °C 0,0 km/h (0 Bft) 100,00 %
06.05.2026 03:51 14,3 °C 72 % 1009,9 hPa 0,0 l/m² 0,0 km/h (0 Bft) N 0 ° 0,000 mm 9,3 °C 14,3 °C 0,0 km/h (0 Bft) 100,00 %
06.05.2026 03:50 14,3 °C 72 % 1009,8 hPa 0,0 l/m² 0,0 km/h (0 Bft) N 0 ° 0,000 mm 9,3 °C 14,3 °C 0,0 km/h (0 Bft) 100,00 %
06.05.2026 03:49 14,3 °C 72 % 1009,8 hPa 0,0 l/m² 0,0 km/h (0 Bft) N 0 ° 0,000 mm 9,3 °C 14,3 °C 0,0 km/h (0 Bft) 95,65 %
06.05.2026 03:48 14,4 °C 72 % 1009,8 hPa 0,0 l/m² 0,0 km/h (0 Bft) N 0 ° 0,000 mm 9,4 °C 14,4 °C 0,0 km/h (0 Bft) 100,00 %
06.05.2026 03:47 14,4 °C 72 % 1009,8 hPa 0,0 l/m² 0,0 km/h (0 Bft) SW 225 ° 0,000 mm 9,4 °C 14,4 °C 1,6 km/h (1 Bft) 95,65 %
06.05.2026 03:46 14,4 °C 72 % 1009,9 hPa 0,0 l/m² 0,0 km/h (0 Bft) N 0 ° 0,000 mm 9,4 °C 14,4 °C 0,0 km/h (0 Bft) 100,00 %
06.05.2026 03:45 14,4 °C 72 % 1009,9 hPa 0,0 l/m² 0,0 km/h (0 Bft) N 0 ° 0,000 mm 9,4 °C 14,4 °C 0,0 km/h (0 Bft) 95,65 %
06.05.2026 03:44 14,4 °C 72 % 1009,9 hPa 0,0 l/m² 0,0 km/h (0 Bft) N 0 ° 0,000 mm 9,4 °C 14,4 °C 0,0 km/h (0 Bft) 100,00 %
06.05.2026 03:43 14,4 °C 72 % 1009,9 hPa 0,0 l/m² 0,0 km/h (0 Bft) SW 225 ° 0,000 mm 9,4 °C 14,4 °C 1,6 km/h (1 Bft) 100,00 %
06.05.2026 03:42 14,5 °C 72 % 1009,9 hPa 0,0 l/m² 0,0 km/h (0 Bft) SW 225 ° 0,000 mm 9,5 °C 14,5 °C 1,6 km/h (1 Bft) 100,00 %
06.05.2026 03:41 14,5 °C 72 % 1010,0 hPa 0,0 l/m² 0,0 km/h (0 Bft) N 0 ° 0,000 mm 9,5 °C 14,5 °C 0,0 km/h (0 Bft) 100,00 %
06.05.2026 03:40 14,5 °C 72 % 1009,9 hPa 0,0 l/m² 0,0 km/h (0 Bft) SW 225 ° 0,000 mm 9,5 °C 14,5 °C 1,6 km/h (1 Bft) 100,00 %
06.05.2026 03:39 14,5 °C 72 % 1009,9 hPa 0,0 l/m² 0,0 km/h (0 Bft) SW 225 ° 0,000 mm 9,5 °C 14,5 °C 1,6 km/h (1 Bft) 100,00 %
06.05.2026 03:38 14,5 °C 72 % 1009,9 hPa 0,0 l/m² 1,6 km/h (1 Bft) SW 225 ° 0,000 mm 9,5 °C 14,5 °C 1,6 km/h (1 Bft) 100,00 %
06.05.2026 03:37 14,5 °C 72 % 1010,0 hPa 0,0 l/m² 1,6 km/h (1 Bft) SW 225 ° 0,000 mm 9,5 °C 14,5 °C 4,8 km/h (1 Bft) 100,00 %
06.05.2026 03:36 14,6 °C 72 % 1010,0 hPa 0,0 l/m² 1,6 km/h (1 Bft) SW 225 ° 0,000 mm 9,6 °C 14,6 °C 3,2 km/h (1 Bft) 100,00 %
06.05.2026 03:35 14,6 °C 71 % 1010,0 hPa 0,0 l/m² 1,6 km/h (1 Bft) SW 225 ° 0,000 mm 9,4 °C 14,6 °C 1,6 km/h (1 Bft) 100,00 %
06.05.2026 03:34 14,6 °C 71 % 1010,0 hPa 0,0 l/m² 1,6 km/h (1 Bft) SW 225 ° 0,000 mm 9,4 °C 14,6 °C 1,6 km/h (1 Bft) 100,00 %
06.05.2026 03:33 14,6 °C 71 % 1010,0 hPa 0,0 l/m² 1,6 km/h (1 Bft) SW 225 ° 0,000 mm 9,4 °C 14,6 °C 3,2 km/h (1 Bft) 100,00 %
06.05.2026 03:32 14,6 °C 71 % 1010,2 hPa 0,0 l/m² 1,6 km/h (1 Bft) SW 225 ° 0,000 mm 9,4 °C 14,6 °C 3,2 km/h (1 Bft) 100,00 %
06.05.2026 03:31 14,6 °C 71 % 1010,0 hPa 0,0 l/m² 1,6 km/h (1 Bft) SW 225 ° 0,000 mm 9,4 °C 14,6 °C 1,6 km/h (1 Bft) 100,00 %
06.05.2026 03:30 14,6 °C 71 % 1010,1 hPa 0,0 l/m² 1,6 km/h (1 Bft) SW 225 ° 0,000 mm 9,4 °C 14,6 °C 3,2 km/h (1 Bft) 95,65 %
06.05.2026 03:29 14,6 °C 71 % 1010,1 hPa 0,0 l/m² 3,2 km/h (1 Bft) SW 225 ° 0,000 mm 9,4 °C 14,6 °C 4,8 km/h (1 Bft) 100,00 %
06.05.2026 03:28 14,7 °C 71 % 1010,2 hPa 0,0 l/m² 1,6 km/h (1 Bft) SW 225 ° 0,000 mm 9,5 °C 14,7 °C 3,2 km/h (1 Bft) 100,00 %
06.05.2026 03:27 14,6 °C 71 % 1010,2 hPa 0,0 l/m² 3,2 km/h (1 Bft) SW 225 ° 0,000 mm 9,4 °C 14,6 °C 4,8 km/h (1 Bft) 95,65 %
06.05.2026 03:26 14,7 °C 71 % 1010,2 hPa 0,0 l/m² 3,2 km/h (1 Bft) SW 225 ° 0,000 mm 9,5 °C 14,7 °C 4,8 km/h (1 Bft) 100,00 %
06.05.2026 03:25 14,7 °C 71 % 1010,2 hPa 0,0 l/m² 4,8 km/h (1 Bft) SW 225 ° 0,000 mm 9,5 °C 14,7 °C 4,8 km/h (1 Bft) 100,00 %
06.05.2026 03:24 14,7 °C 71 % 1010,2 hPa 0,0 l/m² 3,2 km/h (1 Bft) SW 225 ° 0,000 mm 9,5 °C 14,7 °C 3,2 km/h (1 Bft) 100,00 %
06.05.2026 03:23 14,8 °C 71 % 1010,3 hPa 0,0 l/m² 3,2 km/h (1 Bft) SW 225 ° 0,000 mm 9,6 °C 14,8 °C 4,8 km/h (1 Bft) 100,00 %
06.05.2026 03:22 14,8 °C 71 % 1010,3 hPa 0,0 l/m² 3,2 km/h (1 Bft) SW 225 ° 0,000 mm 9,6 °C 14,8 °C 4,8 km/h (1 Bft) 100,00 %
06.05.2026 03:21 14,8 °C 71 % 1010,2 hPa 0,0 l/m² 3,2 km/h (1 Bft) SW 225 ° 0,000 mm 9,6 °C 14,8 °C 4,8 km/h (1 Bft) 100,00 %
06.05.2026 03:20 14,8 °C 70 % 1010,3 hPa 0,0 l/m² 4,8 km/h (1 Bft) SW 225 ° 0,000 mm 9,4 °C 14,8 °C 8,0 km/h (2 Bft) 100,00 %
06.05.2026 03:19 14,9 °C 70 % 1010,3 hPa 0,0 l/m² 3,2 km/h (1 Bft) SW 225 ° 0,000 mm 9,5 °C 14,9 °C 4,8 km/h (1 Bft) 100,00 %
06.05.2026 03:18 14,9 °C 70 % 1010,3 hPa 0,0 l/m² 4,8 km/h (1 Bft) SW 225 ° 0,000 mm 9,5 °C 14,9 °C 6,4 km/h (2 Bft) 100,00 %
06.05.2026 03:17 14,9 °C 70 % 1010,3 hPa 0,0 l/m² 4,8 km/h (1 Bft) SW 225 ° 0,000 mm 9,5 °C 14,9 °C 6,4 km/h (2 Bft) 100,00 %
06.05.2026 03:16 14,9 °C 70 % 1010,2 hPa 0,0 l/m² 6,4 km/h (2 Bft) SW 225 ° 0,000 mm 9,5 °C 14,9 °C 8,0 km/h (2 Bft) 100,00 %
06.05.2026 03:15 14,9 °C 70 % 1010,3 hPa 0,0 l/m² 4,8 km/h (1 Bft) W-SW 247 ° 0,000 mm 9,5 °C 14,9 °C 9,7 km/h (2 Bft) 100,00 %
06.05.2026 03:14 14,9 °C 70 % 1010,4 hPa 0,0 l/m² 3,2 km/h (1 Bft) W-SW 247 ° 0,000 mm 9,5 °C 14,9 °C 6,4 km/h (2 Bft) 100,00 %
06.05.2026 03:13 15,0 °C 70 % 1010,3 hPa 0,0 l/m² 3,2 km/h (1 Bft) W-SW 247 ° 0,000 mm 9,6 °C 15,0 °C 6,4 km/h (2 Bft) 100,00 %
06.05.2026 03:12 15,1 °C 70 % 1010,4 hPa 0,0 l/m² 4,8 km/h (1 Bft) SW 225 ° 0,000 mm 9,7 °C 15,1 °C 6,4 km/h (2 Bft) 100,00 %
06.05.2026 03:11 15,1 °C 70 % 1010,3 hPa 0,0 l/m² 6,4 km/h (2 Bft) SW 225 ° 0,000 mm 9,7 °C 15,1 °C 11,3 km/h (2 Bft) 100,00 %
06.05.2026 03:10 15,1 °C 70 % 1010,3 hPa 0,0 l/m² 4,8 km/h (1 Bft) W-SW 247 ° 0,000 mm 9,7 °C 15,1 °C 9,7 km/h (2 Bft) 100,00 %
06.05.2026 03:09 15,1 °C 70 % 1010,3 hPa 0,0 l/m² 6,4 km/h (2 Bft) W-SW 247 ° 0,000 mm 9,7 °C 15,1 °C 11,3 km/h (2 Bft) 100,00 %
06.05.2026 03:08 15,1 °C 69 % 1010,3 hPa 0,0 l/m² 3,2 km/h (1 Bft) SW 225 ° 0,000 mm 9,5 °C 15,1 °C 4,8 km/h (1 Bft) 95,65 %
06.05.2026 03:07 15,1 °C 69 % 1010,3 hPa 0,0 l/m² 3,2 km/h (1 Bft) SW 225 ° 0,000 mm 9,5 °C 15,1 °C 4,8 km/h (1 Bft) 100,00 %
06.05.2026 03:06 15,2 °C 69 % 1010,4 hPa 0,0 l/m² 3,2 km/h (1 Bft) W-SW 247 ° 0,000 mm 9,6 °C 15,2 °C 6,4 km/h (2 Bft) 100,00 %
06.05.2026 03:05 15,2 °C 69 % 1010,4 hPa 0,0 l/m² 4,8 km/h (1 Bft) SW 225 ° 0,000 mm 9,6 °C 15,2 °C 6,4 km/h (2 Bft) 100,00 %
06.05.2026 03:04 15,2 °C 69 % 1010,4 hPa 0,0 l/m² 4,8 km/h (1 Bft) SW 225 ° 0,000 mm 9,6 °C 15,2 °C 8,0 km/h (2 Bft) 100,00 %
06.05.2026 03:03 15,3 °C 69 % 1010,3 hPa 0,0 l/m² 6,4 km/h (2 Bft) SW 225 ° 0,000 mm 9,6 °C 15,3 °C 9,7 km/h (2 Bft) 95,65 %
06.05.2026 03:02 15,3 °C 69 % 1010,3 hPa 0,0 l/m² 4,8 km/h (1 Bft) SW 225 ° 0,000 mm 9,6 °C 15,3 °C 6,4 km/h (2 Bft) 100,00 %
06.05.2026 03:01 15,3 °C 69 % 1010,3 hPa 0,0 l/m² 6,4 km/h (2 Bft) W-SW 247 ° 0,000 mm 9,6 °C 15,3 °C 9,7 km/h (2 Bft) 100,00 %
06.05.2026 03:00 15,3 °C 69 % 1010,4 hPa 0,0 l/m² 9,7 km/h (2 Bft) W-SW 247 ° 0,000 mm 9,6 °C 13,6 °C 14,5 km/h (3 Bft) 100,00 %
_ Min-Zeit 06:07 16:59 19:17 - 03:39 - - - 02:03 00:02 03:41 16:31
Minimum _ 11,7 °C 37 % 1002,3 hPa - 0,0 km/h (0 Bft) - - - 6,6 °C 7,0 °C 0,0 km/h (0 Bft) 34,78 %
_ Max-Zeit 15:43 06:09 01:46 23:16 19:05 - - 03:00 13:31 15:43 19:04 03:00
Maximum _ 25,2 °C 82 % 1012,3 hPa 0,2 l/m² 25,7 km/h
O-SO (4 Bft)
- - 0,000 mm 12,2 °C 25,2 °C 35,4 km/h
SO (5 Bft)
100,00 %
Durchschnitt _ 17,3 °C 62 % 1008,2 hPa #0,4 l/m² 6,1 km/h (2 Bft) W-SW - #0,000 mm 9,5 °C 16,5 °C 10,3 km/h (2 Bft) 99,34 %